PWSweather.com
Personal Weather Stations
Station Observations
ESTGRALPAZ
Santa Fe, Santa FeAR 3000

Santa FeSanta FeAR 3000

Lat: -31.6280555556, Lon: -60.6908333333

Elevation: 69

Station Type: WH1081

http://www.estaciongralpaz.com.ar

High Low Average
Temperature 80.4°F26.9°C 64.6°F18.1°C 73.1°F22.8°C
Dew Point 56.8°F13.8°C 43.3°F6.3°C 49.8°F9.9°C
Winds 16.8 mph 27.0 kmh Calm Calm 6.0 mph S9.7 kmh S
Wind Gusts 22.1 mph35.6 kmh -- 11.0 mph17.7 kmh
Humidity 64% 27% 45%
Pressure 29.97 in1014.9 mb 29.78 in1008.5 mb -
Precipitation 0.00 in0.0 mm - -
Hour Temp Dew Point Humidity Winds Wind Gusts Pressure Precip Precip Rate Daily Precip Total
12:00 AM 67.6°F19.8°C 45.0°F7.2°C 44% Calm Calm -- 29.96 in1014.6 mb 0.00 in0.0 mm 0.00 in0.0 mm 0.00 in0.0 mm
12:01 AM 67.6°F19.8°C 45.0°F7.2°C 44% Calm Calm -- 29.97 in1014.9 mb 0.00 in0.0 mm 0.00 in0.0 mm 0.00 in0.0 mm
12:02 AM 67.6°F19.8°C 45.0°F7.2°C 44% Calm Calm -- 29.97 in1014.9 mb 0.00 in0.0 mm 0.00 in0.0 mm 0.00 in0.0 mm
12:03 AM 67.8°F19.9°C 45.1°F7.3°C 44% Calm Calm -- 29.96 in1014.6 mb 0.00 in0.0 mm 0.00 in0.0 mm 0.00 in0.0 mm
12:04 AM 67.6°F19.8°C 45.0°F7.2°C 44% Calm Calm -- 29.97 in1014.9 mb 0.00 in0.0 mm 0.00 in0.0 mm 0.00 in0.0 mm
12:05 AM 67.6°F19.8°C 45.0°F7.2°C 44% Calm Calm -- 29.97 in1014.9 mb 0.00 in0.0 mm 0.00 in0.0 mm 0.00 in0.0 mm
12:06 AM 67.6°F19.8°C 45.0°F7.2°C 44% Calm Calm -- 29.97 in1014.9 mb 0.00 in0.0 mm 0.00 in0.0 mm 0.00 in0.0 mm
12:07 AM 67.6°F19.8°C 45.0°F7.2°C 44% Calm Calm -- 29.97 in1014.9 mb 0.00 in0.0 mm 0.00 in0.0 mm 0.00 in0.0 mm
12:08 AM 67.6°F19.8°C 45.0°F7.2°C 44% Calm Calm -- 29.96 in1014.6 mb 0.00 in0.0 mm 0.00 in0.0 mm 0.00 in0.0 mm
12:09 AM 67.6°F19.8°C 45.0°F7.2°C 44% Calm Calm -- 29.97 in1014.9 mb 0.00 in0.0 mm 0.00 in0.0 mm 0.00 in0.0 mm
12:10 AM 67.8°F19.9°C 45.1°F7.3°C 44% Calm Calm -- 29.96 in1014.6 mb 0.00 in0.0 mm 0.00 in0.0 mm 0.00 in0.0 mm
12:11 AM 67.8°F19.9°C 45.1°F7.3°C 44% Calm Calm -- 29.97 in1014.9 mb 0.00 in0.0 mm 0.00 in0.0 mm 0.00 in0.0 mm
12:12 AM 67.8°F19.9°C 45.1°F7.3°C 44% Calm Calm -- 29.97 in1014.9 mb 0.00 in0.0 mm 0.00 in0.0 mm 0.00 in0.0 mm
12:13 AM 67.8°F19.9°C 45.1°F7.3°C 44% Calm Calm 2.2 mph3.5 kmh 29.96 in1014.6 mb 0.00 in0.0 mm 0.00 in0.0 mm 0.00 in0.0 mm
12:14 AM 67.8°F19.9°C 45.1°F7.3°C 44% 1.6 mph N2.6 kmh N 3.1 mph5.0 kmh 29.97 in1014.9 mb 0.00 in0.0 mm 0.00 in0.0 mm 0.00 in0.0 mm
12:15 AM 67.8°F19.9°C 45.1°F7.3°C 44% 1.6 mph NNW2.6 kmh NNW 3.1 mph5.0 kmh 29.96 in1014.6 mb 0.00 in0.0 mm 0.00 in0.0 mm 0.00 in0.0 mm
12:16 AM 68.0°F20.0°C 44.7°F7.1°C 43% 1.6 mph NNW2.6 kmh NNW 3.1 mph5.0 kmh 29.96 in1014.6 mb 0.00 in0.0 mm 0.00 in0.0 mm 0.00 in0.0 mm
12:17 AM 68.0°F20.0°C 44.7°F7.1°C 43% 2.2 mph NNW3.5 kmh NNW 3.1 mph5.0 kmh 29.96 in1014.6 mb 0.00 in0.0 mm 0.00 in0.0 mm 0.00 in0.0 mm
12:18 AM 68.2°F20.1°C 44.9°F7.2°C 43% 1.6 mph NNW2.6 kmh NNW 3.1 mph5.0 kmh 29.96 in1014.6 mb 0.00 in0.0 mm 0.00 in0.0 mm 0.00 in0.0 mm
12:19 AM 68.2°F20.1°C 44.9°F7.2°C 43% 2.2 mph NNW3.5 kmh NNW 3.8 mph6.1 kmh 29.97 in1014.9 mb 0.00 in0.0 mm 0.00 in0.0 mm 0.00 in0.0 mm
12:20 AM 68.2°F20.1°C 44.9°F7.2°C 43% 2.2 mph NNW3.5 kmh NNW 3.8 mph6.1 kmh 29.96 in1014.6 mb 0.00 in0.0 mm 0.00 in0.0 mm 0.00 in0.0 mm
12:21 AM 68.2°F20.1°C 44.9°F7.2°C 43% 1.6 mph NNW2.6 kmh NNW 3.8 mph6.1 kmh 29.96 in1014.6 mb 0.00 in0.0 mm 0.00 in0.0 mm 0.00 in0.0 mm
12:22 AM 68.4°F20.2°C 45.0°F7.2°C 43% 1.6 mph N2.6 kmh N 3.8 mph6.1 kmh 29.96 in1014.6 mb 0.00 in0.0 mm 0.00 in0.0 mm 0.00 in0.0 mm
12:23 AM 68.4°F20.2°C 44.4°F6.9°C 42% 0.7 mph N1.1 kmh N 3.8 mph6.1 kmh 29.96 in1014.6 mb 0.00 in0.0 mm 0.00 in0.0 mm 0.00 in0.0 mm
12:24 AM 68.4°F20.2°C 44.4°F6.9°C 42% 0.7 mph N1.1 kmh N 3.8 mph6.1 kmh 29.96 in1014.6 mb 0.00 in0.0 mm 0.00 in0.0 mm 0.00 in0.0 mm
12:25 AM 68.4°F20.2°C 44.4°F6.9°C 42% Calm Calm 3.8 mph6.1 kmh 29.96 in1014.6 mb 0.00 in0.0 mm 0.00 in0.0 mm 0.00 in0.0 mm
12:26 AM 68.4°F20.2°C 44.4°F6.9°C 42% Calm Calm 3.8 mph6.1 kmh 29.96 in1014.6 mb 0.00 in0.0 mm 0.00 in0.0 mm 0.00 in0.0 mm
12:27 AM 68.4°F20.2°C 44.4°F6.9°C 42% 0.7 mph N1.1 kmh N 3.8 mph6.1 kmh 29.96 in1014.6 mb 0.00 in0.0 mm 0.00 in0.0 mm 0.00 in0.0 mm
12:28 AM 68.2°F20.1°C 44.2°F6.8°C 42% Calm Calm 3.8 mph6.1 kmh 29.97 in1014.9 mb 0.00 in0.0 mm 0.00 in0.0 mm 0.00 in0.0 mm
12:29 AM 68.2°F20.1°C 44.2°F6.8°C 42% Calm Calm 3.8 mph6.1 kmh 29.96 in1014.6 mb 0.00 in0.0 mm 0.00 in0.0 mm 0.00 in0.0 mm
12:30 AM 68.2°F20.1°C 44.9°F7.2°C 43% 1.6 mph N2.6 kmh N 3.8 mph6.1 kmh 29.96 in1014.6 mb 0.00 in0.0 mm 0.00 in0.0 mm 0.00 in0.0 mm
12:31 AM 68.2°F20.1°C 44.9°F7.2°C 43% 1.6 mph N2.6 kmh N 3.1 mph5.0 kmh 29.97 in1014.9 mb 0.00 in0.0 mm 0.00 in0.0 mm 0.00 in0.0 mm
12:32 AM 68.2°F20.1°C 44.2°F6.8°C 42% 1.6 mph N2.6 kmh N 3.1 mph5.0 kmh 29.96 in1014.6 mb 0.00 in0.0 mm 0.00 in0.0 mm 0.00 in0.0 mm
12:33 AM 68.2°F20.1°C 44.2°F6.8°C 42% 1.6 mph N2.6 kmh N 3.1 mph5.0 kmh 29.96 in1014.6 mb 0.00 in0.0 mm 0.00 in0.0 mm 0.00 in0.0 mm
12:34 AM 68.2°F20.1°C 44.2°F6.8°C 42% 0.7 mph N1.1 kmh N 3.1 mph5.0 kmh 29.96 in1014.6 mb 0.00 in0.0 mm 0.00 in0.0 mm 0.00 in0.0 mm
12:35 AM 68.2°F20.1°C 44.2°F6.8°C 42% 1.6 mph N2.6 kmh N 3.1 mph5.0 kmh 29.96 in1014.6 mb 0.00 in0.0 mm 0.00 in0.0 mm 0.00 in0.0 mm
12:36 AM 68.2°F20.1°C 44.2°F6.8°C 42% 1.6 mph N2.6 kmh N 3.1 mph5.0 kmh 29.96 in1014.6 mb 0.00 in0.0 mm 0.00 in0.0 mm 0.00 in0.0 mm
12:37 AM 68.2°F20.1°C 44.2°F6.8°C 42% 0.7 mph N1.1 kmh N 3.1 mph5.0 kmh 29.96 in1014.6 mb 0.00 in0.0 mm 0.00 in0.0 mm 0.00 in0.0 mm
12:38 AM 68.2°F20.1°C 44.2°F6.8°C 42% 0.7 mph N1.1 kmh N 3.1 mph5.0 kmh 29.96 in1014.6 mb 0.00 in0.0 mm 0.00 in0.0 mm 0.00 in0.0 mm
12:39 AM 68.2°F20.1°C 44.2°F6.8°C 42% 1.6 mph N2.6 kmh N 3.1 mph5.0 kmh 29.96 in1014.6 mb 0.00 in0.0 mm 0.00 in0.0 mm 0.00 in0.0 mm
12:40 AM 68.2°F20.1°C 44.2°F6.8°C 42% 1.6 mph N2.6 kmh N 3.1 mph5.0 kmh 29.96 in1014.6 mb 0.00 in0.0 mm 0.00 in0.0 mm 0.00 in0.0 mm
12:41 AM 68.2°F20.1°C 44.2°F6.8°C 42% 1.6 mph N2.6 kmh N 3.1 mph5.0 kmh 29.96 in1014.6 mb 0.00 in0.0 mm 0.00 in0.0 mm 0.00 in0.0 mm
12:42 AM 68.2°F20.1°C 44.2°F6.8°C 42% Calm Calm 3.1 mph5.0 kmh 29.96 in1014.6 mb 0.00 in0.0 mm 0.00 in0.0 mm 0.00 in0.0 mm
12:43 AM 68.2°F20.1°C 44.2°F6.8°C 42% 0.7 mph NNE1.1 kmh NNE 3.1 mph5.0 kmh 29.96 in1014.6 mb 0.00 in0.0 mm 0.00 in0.0 mm 0.00 in0.0 mm
12:44 AM 68.2°F20.1°C 44.2°F6.8°C 42% 0.7 mph NNE1.1 kmh NNE 3.1 mph5.0 kmh 29.96 in1014.6 mb 0.00 in0.0 mm 0.00 in0.0 mm 0.00 in0.0 mm
12:45 AM 68.2°F20.1°C 44.2°F6.8°C 42% 0.7 mph NE1.1 kmh NE 3.1 mph5.0 kmh 29.96 in1014.6 mb 0.00 in0.0 mm 0.00 in0.0 mm 0.00 in0.0 mm
12:46 AM 68.2°F20.1°C 44.2°F6.8°C 42% 1.6 mph NE2.6 kmh NE 3.1 mph5.0 kmh 29.96 in1014.6 mb 0.00 in0.0 mm 0.00 in0.0 mm 0.00 in0.0 mm
12:47 AM 68.2°F20.1°C 44.2°F6.8°C 42% 0.7 mph NE1.1 kmh NE 3.1 mph5.0 kmh 29.96 in1014.6 mb 0.00 in0.0 mm 0.00 in0.0 mm 0.00 in0.0 mm
12:48 AM 68.2°F20.1°C 44.2°F6.8°C 42% 1.6 mph NE2.6 kmh NE 2.2 mph3.5 kmh 29.96 in1014.6 mb 0.00 in0.0 mm 0.00 in0.0 mm 0.00 in0.0 mm
12:49 AM 68.2°F20.1°C 44.2°F6.8°C 42% 1.6 mph NNE2.6 kmh NNE 3.1 mph5.0 kmh 29.96 in1014.6 mb 0.00 in0.0 mm 0.00 in0.0 mm 0.00 in0.0 mm
12:50 AM 68.2°F20.1°C 44.2°F6.8°C 42% 0.7 mph NNE1.1 kmh NNE 3.1 mph5.0 kmh 29.96 in1014.6 mb 0.00 in0.0 mm 0.00 in0.0 mm 0.00 in0.0 mm
12:51 AM 68.2°F20.1°C 44.2°F6.8°C 42% 1.6 mph NNE2.6 kmh NNE 3.1 mph5.0 kmh 29.96 in1014.6 mb 0.00 in0.0 mm 0.00 in0.0 mm 0.00 in0.0 mm
12:52 AM 68.2°F20.1°C 44.2°F6.8°C 42% 1.6 mph N2.6 kmh N 3.1 mph5.0 kmh 29.97 in1014.9 mb 0.00 in0.0 mm 0.00 in0.0 mm 0.00 in0.0 mm
12:53 AM 68.2°F20.1°C 43.6°F6.4°C 41% 0.7 mph N1.1 kmh N 3.1 mph5.0 kmh 29.96 in1014.6 mb 0.00 in0.0 mm 0.00 in0.0 mm 0.00 in0.0 mm
12:54 AM 68.0°F20.0°C 43.4°F6.3°C 41% 1.6 mph N2.6 kmh N 3.1 mph5.0 kmh 29.96 in1014.6 mb 0.00 in0.0 mm 0.00 in0.0 mm 0.00 in0.0 mm
12:55 AM 68.0°F20.0°C 43.4°F6.3°C 41% 2.2 mph N3.5 kmh N 3.1 mph5.0 kmh 29.96 in1014.6 mb 0.00 in0.0 mm 0.00 in0.0 mm 0.00 in0.0 mm
12:56 AM 68.0°F20.0°C 43.4°F6.3°C 41% 2.2 mph N3.5 kmh N 3.8 mph6.1 kmh 29.96 in1014.6 mb 0.00 in0.0 mm 0.00 in0.0 mm 0.00 in0.0 mm
12:57 AM 68.0°F20.0°C 43.4°F6.3°C 41% 1.6 mph N2.6 kmh N 3.8 mph6.1 kmh 29.96 in1014.6 mb 0.00 in0.0 mm 0.00 in0.0 mm 0.00 in0.0 mm
12:58 AM 68.0°F20.0°C 44.1°F6.7°C 42% 1.6 mph N2.6 kmh N 3.8 mph6.1 kmh 29.96 in1014.6 mb 0.00 in0.0 mm 0.00 in0.0 mm 0.00 in0.0 mm
12:59 AM 68.0°F20.0°C 44.1°F6.7°C 42% 1.6 mph N2.6 kmh N 3.8 mph6.1 kmh 29.96 in1014.6 mb 0.00 in0.0 mm 0.00 in0.0 mm 0.00 in0.0 mm
01:00 AM 68.0°F20.0°C 44.1°F6.7°C 42% 0.7 mph N1.1 kmh N 3.8 mph6.1 kmh 29.96 in1014.6 mb 0.00 in0.0 mm 0.00 in0.0 mm 0.00 in0.0 mm
01:01 AM 68.0°F20.0°C 44.1°F6.7°C 42% 1.6 mph N2.6 kmh N 3.8 mph6.1 kmh 29.96 in1014.6 mb 0.00 in0.0 mm 0.00 in0.0 mm 0.00 in0.0 mm
01:02 AM 67.8°F19.9°C 44.5°F6.9°C 43% 1.6 mph N2.6 kmh N 3.8 mph6.1 kmh 29.96 in1014.6 mb 0.00 in0.0 mm 0.00 in0.0 mm 0.00 in0.0 mm
01:03 AM 67.8°F19.9°C 44.5°F6.9°C 43% 0.7 mph N1.1 kmh N 3.8 mph6.1 kmh 29.96 in1014.6 mb 0.00 in0.0 mm 0.00 in0.0 mm 0.00 in0.0 mm
01:04 AM 67.8°F19.9°C 45.1°F7.3°C 44% Calm Calm 3.8 mph6.1 kmh 29.96 in1014.6 mb 0.00 in0.0 mm 0.00 in0.0 mm 0.00 in0.0 mm
01:05 AM 67.6°F19.8°C 45.0°F7.2°C 44% Calm Calm 3.8 mph6.1 kmh 29.96 in1014.6 mb 0.00 in0.0 mm 0.00 in0.0 mm 0.00 in0.0 mm
01:06 AM 67.6°F19.8°C 45.0°F7.2°C 44% Calm Calm 3.8 mph6.1 kmh 29.96 in1014.6 mb 0.00 in0.0 mm 0.00 in0.0 mm 0.00 in0.0 mm
01:07 AM 67.5°F19.7°C 44.8°F7.1°C 44% 1.6 mph N2.6 kmh N 3.1 mph5.0 kmh 29.96 in1014.6 mb 0.00 in0.0 mm 0.00 in0.0 mm 0.00 in0.0 mm
01:08 AM 67.3°F19.6°C 44.6°F7.0°C 44% 1.6 mph N2.6 kmh N 3.1 mph5.0 kmh 29.96 in1014.6 mb 0.00 in0.0 mm 0.00 in0.0 mm 0.00 in0.0 mm
01:09 AM 67.3°F19.6°C 44.6°F7.0°C 44% 1.6 mph N2.6 kmh N 3.1 mph5.0 kmh 29.96 in1014.6 mb 0.00 in0.0 mm 0.00 in0.0 mm 0.00 in0.0 mm
01:10 AM 67.3°F19.6°C 44.6°F7.0°C 44% 1.6 mph N2.6 kmh N 3.1 mph5.0 kmh 29.96 in1014.6 mb 0.00 in0.0 mm 0.00 in0.0 mm 0.00 in0.0 mm
01:11 AM 67.3°F19.6°C 44.6°F7.0°C 44% 2.2 mph N3.5 kmh N 3.1 mph5.0 kmh 29.96 in1014.6 mb 0.00 in0.0 mm 0.00 in0.0 mm 0.00 in0.0 mm
01:12 AM 67.3°F19.6°C 44.6°F7.0°C 44% 1.6 mph N2.6 kmh N 3.1 mph5.0 kmh 29.96 in1014.6 mb 0.00 in0.0 mm 0.00 in0.0 mm 0.00 in0.0 mm
01:13 AM 67.3°F19.6°C 44.6°F7.0°C 44% 0.7 mph N1.1 kmh N 3.1 mph5.0 kmh 29.96 in1014.6 mb 0.00 in0.0 mm 0.00 in0.0 mm 0.00 in0.0 mm
01:14 AM 66.9°F19.4°C 44.3°F6.8°C 44% 0.7 mph N1.1 kmh N 3.1 mph5.0 kmh 29.96 in1014.6 mb 0.00 in0.0 mm 0.00 in0.0 mm 0.00 in0.0 mm
01:15 AM 66.9°F19.4°C 44.3°F6.8°C 44% Calm Calm 3.1 mph5.0 kmh 29.95 in1014.2 mb 0.00 in0.0 mm 0.00 in0.0 mm 0.00 in0.0 mm
01:16 AM 66.9°F19.4°C 44.3°F6.8°C 44% Calm Calm 3.1 mph5.0 kmh 29.95 in1014.2 mb 0.00 in0.0 mm 0.00 in0.0 mm 0.00 in0.0 mm
01:17 AM 66.9°F19.4°C 44.3°F6.8°C 44% Calm Calm 3.1 mph5.0 kmh 29.95 in1014.2 mb 0.00 in0.0 mm 0.00 in0.0 mm 0.00 in0.0 mm
01:18 AM 66.9°F19.4°C 44.9°F7.2°C 45% Calm Calm 3.1 mph5.0 kmh 29.96 in1014.6 mb 0.00 in0.0 mm 0.00 in0.0 mm 0.00 in0.0 mm
01:19 AM 66.9°F19.4°C 44.9°F7.2°C 45% Calm Calm 3.1 mph5.0 kmh 29.95 in1014.2 mb 0.00 in0.0 mm 0.00 in0.0 mm 0.00 in0.0 mm
01:20 AM 66.9°F19.4°C 44.9°F7.2°C 45% 0.7 mph N1.1 kmh N 3.1 mph5.0 kmh 29.95 in1014.2 mb 0.00 in0.0 mm 0.00 in0.0 mm 0.00 in0.0 mm
01:21 AM 66.9°F19.4°C 44.9°F7.2°C 45% 1.6 mph N2.6 kmh N 3.1 mph5.0 kmh 29.96 in1014.6 mb 0.00 in0.0 mm 0.00 in0.0 mm 0.00 in0.0 mm
01:22 AM 66.9°F19.4°C 44.3°F6.8°C 44% 0.7 mph N1.1 kmh N 3.1 mph5.0 kmh 29.95 in1014.2 mb 0.00 in0.0 mm 0.00 in0.0 mm 0.00 in0.0 mm
01:23 AM 66.9°F19.4°C 44.3°F6.8°C 44% 2.2 mph N3.5 kmh N 3.1 mph5.0 kmh 29.95 in1014.2 mb 0.00 in0.0 mm 0.00 in0.0 mm 0.00 in0.0 mm
01:24 AM 66.9°F19.4°C 44.3°F6.8°C 44% 1.6 mph N2.6 kmh N 3.1 mph5.0 kmh 29.95 in1014.2 mb 0.00 in0.0 mm 0.00 in0.0 mm 0.00 in0.0 mm
01:25 AM 66.9°F19.4°C 44.3°F6.8°C 44% 1.6 mph N2.6 kmh N 3.1 mph5.0 kmh 29.95 in1014.2 mb 0.00 in0.0 mm 0.00 in0.0 mm 0.00 in0.0 mm
01:26 AM 66.9°F19.4°C 44.3°F6.8°C 44% 1.6 mph N2.6 kmh N 3.1 mph5.0 kmh 29.95 in1014.2 mb 0.00 in0.0 mm 0.00 in0.0 mm 0.00 in0.0 mm
01:27 AM 66.9°F19.4°C 44.3°F6.8°C 44% 0.7 mph N1.1 kmh N 3.1 mph5.0 kmh 29.95 in1014.2 mb 0.00 in0.0 mm 0.00 in0.0 mm 0.00 in0.0 mm
01:28 AM 66.9°F19.4°C 44.3°F6.8°C 44% 1.6 mph N2.6 kmh N 3.1 mph5.0 kmh 29.95 in1014.2 mb 0.00 in0.0 mm 0.00 in0.0 mm 0.00 in0.0 mm
01:29 AM 66.9°F19.4°C 44.3°F6.8°C 44% 1.6 mph N2.6 kmh N 3.1 mph5.0 kmh 29.95 in1014.2 mb 0.00 in0.0 mm 0.00 in0.0 mm 0.00 in0.0 mm
01:30 AM 66.9°F19.4°C 44.3°F6.8°C 44% 1.6 mph N2.6 kmh N 3.1 mph5.0 kmh 29.95 in1014.2 mb 0.00 in0.0 mm 0.00 in0.0 mm 0.00 in0.0 mm
01:31 AM 66.9°F19.4°C 44.3°F6.8°C 44% 1.6 mph N2.6 kmh N 3.1 mph5.0 kmh 29.95 in1014.2 mb 0.00 in0.0 mm 0.00 in0.0 mm 0.00 in0.0 mm
01:32 AM 66.9°F19.4°C 44.3°F6.8°C 44% 0.7 mph N1.1 kmh N 3.1 mph5.0 kmh 29.95 in1014.2 mb 0.00 in0.0 mm 0.00 in0.0 mm 0.00 in0.0 mm
01:33 AM 66.9°F19.4°C 44.3°F6.8°C 44% 0.7 mph N1.1 kmh N 3.1 mph5.0 kmh 29.95 in1014.2 mb 0.00 in0.0 mm 0.00 in0.0 mm 0.00 in0.0 mm
01:34 AM 66.9°F19.4°C 44.3°F6.8°C 44% 0.7 mph N1.1 kmh N 3.1 mph5.0 kmh 29.95 in1014.2 mb 0.00 in0.0 mm 0.00 in0.0 mm 0.00 in0.0 mm
01:35 AM 66.7°F19.3°C 44.2°F6.8°C 44% Calm Calm 3.1 mph5.0 kmh 29.95 in1014.2 mb 0.00 in0.0 mm 0.00 in0.0 mm 0.00 in0.0 mm
01:36 AM 66.7°F19.3°C 44.7°F7.1°C 45% 0.7 mph N1.1 kmh N 3.1 mph5.0 kmh 29.95 in1014.2 mb 0.00 in0.0 mm 0.00 in0.0 mm 0.00 in0.0 mm
01:37 AM 66.7°F19.3°C 44.7°F7.1°C 45% 0.7 mph N1.1 kmh N 3.1 mph5.0 kmh 29.95 in1014.2 mb 0.00 in0.0 mm 0.00 in0.0 mm 0.00 in0.0 mm
01:38 AM 66.7°F19.3°C 44.7°F7.1°C 45% 0.7 mph N1.1 kmh N 3.1 mph5.0 kmh 29.94 in1013.9 mb 0.00 in0.0 mm 0.00 in0.0 mm 0.00 in0.0 mm
01:39 AM 66.7°F19.3°C 44.7°F7.1°C 45% Calm Calm 3.1 mph5.0 kmh 29.95 in1014.2 mb 0.00 in0.0 mm 0.00 in0.0 mm 0.00 in0.0 mm
01:40 AM 66.6°F19.2°C 44.6°F7.0°C 45% 0.7 mph N1.1 kmh N 3.1 mph5.0 kmh 29.95 in1014.2 mb 0.00 in0.0 mm 0.00 in0.0 mm 0.00 in0.0 mm
01:41 AM 66.6°F19.2°C 44.6°F7.0°C 45% Calm Calm 3.1 mph5.0 kmh 29.95 in1014.2 mb 0.00 in0.0 mm 0.00 in0.0 mm 0.00 in0.0 mm
01:42 AM 66.6°F19.2°C 44.6°F7.0°C 45% 0.7 mph N1.1 kmh N 3.1 mph5.0 kmh 29.95 in1014.2 mb 0.00 in0.0 mm 0.00 in0.0 mm 0.00 in0.0 mm
01:43 AM 66.4°F19.1°C 44.4°F6.9°C 45% 1.6 mph N2.6 kmh N 3.1 mph5.0 kmh 29.94 in1013.9 mb 0.00 in0.0 mm 0.00 in0.0 mm 0.00 in0.0 mm
01:44 AM 66.4°F19.1°C 44.4°F6.9°C 45% 1.6 mph N2.6 kmh N 3.1 mph5.0 kmh 29.95 in1014.2 mb 0.00 in0.0 mm 0.00 in0.0 mm 0.00 in0.0 mm
01:45 AM 66.4°F19.1°C 45.0°F7.2°C 46% Calm Calm 3.1 mph5.0 kmh 29.94 in1013.9 mb 0.00 in0.0 mm 0.00 in0.0 mm 0.00 in0.0 mm
01:46 AM 66.4°F19.1°C 45.0°F7.2°C 46% Calm Calm 3.1 mph5.0 kmh 29.94 in1013.9 mb 0.00 in0.0 mm 0.00 in0.0 mm 0.00 in0.0 mm
01:47 AM 66.4°F19.1°C 45.0°F7.2°C 46% Calm Calm 3.1 mph5.0 kmh 29.94 in1013.9 mb 0.00 in0.0 mm 0.00 in0.0 mm 0.00 in0.0 mm
01:48 AM 66.4°F19.1°C 45.0°F7.2°C 46% 1.6 mph N2.6 kmh N 3.1 mph5.0 kmh 29.94 in1013.9 mb 0.00 in0.0 mm 0.00 in0.0 mm 0.00 in0.0 mm
01:49 AM 66.4°F19.1°C 45.0°F7.2°C 46% 1.6 mph N2.6 kmh N 3.1 mph5.0 kmh 29.94 in1013.9 mb 0.00 in0.0 mm 0.00 in0.0 mm 0.00 in0.0 mm
01:50 AM 66.2°F19.0°C 44.8°F7.1°C 46% 0.7 mph N1.1 kmh N 3.1 mph5.0 kmh 29.94 in1013.9 mb 0.00 in0.0 mm 0.00 in0.0 mm 0.00 in0.0 mm
01:51 AM 66.2°F19.0°C 44.8°F7.1°C 46% 1.6 mph N2.6 kmh N 3.1 mph5.0 kmh 29.94 in1013.9 mb 0.00 in0.0 mm 0.00 in0.0 mm 0.00 in0.0 mm
01:52 AM 66.2°F19.0°C 44.8°F7.1°C 46% 2.2 mph N3.5 kmh N 3.8 mph6.1 kmh 29.94 in1013.9 mb 0.00 in0.0 mm 0.00 in0.0 mm 0.00 in0.0 mm
01:53 AM 66.2°F19.0°C 44.8°F7.1°C 46% 2.2 mph N3.5 kmh N 3.8 mph6.1 kmh 29.94 in1013.9 mb 0.00 in0.0 mm 0.00 in0.0 mm 0.00 in0.0 mm
01:54 AM 66.2°F19.0°C 45.4°F7.4°C 47% 1.6 mph N2.6 kmh N 3.8 mph6.1 kmh 29.95 in1014.2 mb 0.00 in0.0 mm 0.00 in0.0 mm 0.00 in0.0 mm
01:55 AM 66.2°F19.0°C 45.4°F7.4°C 47% 1.6 mph N2.6 kmh N 3.8 mph6.1 kmh 29.95 in1014.2 mb 0.00 in0.0 mm 0.00 in0.0 mm 0.00 in0.0 mm
01:56 AM 66.2°F19.0°C 45.4°F7.4°C 47% 1.6 mph NNW2.6 kmh NNW 3.8 mph6.1 kmh 29.93 in1013.5 mb 0.00 in0.0 mm 0.00 in0.0 mm 0.00 in0.0 mm
01:57 AM 66.2°F19.0°C 45.4°F7.4°C 47% 2.2 mph NNW3.5 kmh NNW 3.8 mph6.1 kmh 29.94 in1013.9 mb 0.00 in0.0 mm 0.00 in0.0 mm 0.00 in0.0 mm
01:58 AM 66.2°F19.0°C 46.0°F7.8°C 48% 2.2 mph NNW3.5 kmh NNW 3.8 mph6.1 kmh 29.93 in1013.5 mb 0.00 in0.0 mm 0.00 in0.0 mm 0.00 in0.0 mm
01:59 AM 66.2°F19.0°C 46.0°F7.8°C 48% 2.2 mph NW3.5 kmh NW 3.8 mph6.1 kmh 29.94 in1013.9 mb 0.00 in0.0 mm 0.00 in0.0 mm 0.00 in0.0 mm
02:00 AM 66.2°F19.0°C 46.0°F7.8°C 48% 3.1 mph NW5.0 kmh NW 3.8 mph6.1 kmh 29.93 in1013.5 mb 0.00 in0.0 mm 0.00 in0.0 mm 0.00 in0.0 mm
02:01 AM 66.2°F19.0°C 46.5°F8.1°C 49% 1.6 mph NW2.6 kmh NW 3.8 mph6.1 kmh 29.93 in1013.5 mb 0.00 in0.0 mm 0.00 in0.0 mm 0.00 in0.0 mm
02:02 AM 66.2°F19.0°C 46.5°F8.1°C 49% 2.2 mph NW3.5 kmh NW 3.8 mph6.1 kmh 29.93 in1013.5 mb 0.00 in0.0 mm 0.00 in0.0 mm 0.00 in0.0 mm
02:03 AM 66.2°F19.0°C 47.0°F8.3°C 50% 1.6 mph NW2.6 kmh NW 3.8 mph6.1 kmh 29.94 in1013.9 mb 0.00 in0.0 mm 0.00 in0.0 mm 0.00 in0.0 mm
02:04 AM 66.2°F19.0°C 47.0°F8.3°C 50% 0.7 mph NW1.1 kmh NW 3.8 mph6.1 kmh 29.93 in1013.5 mb 0.00 in0.0 mm 0.00 in0.0 mm 0.00 in0.0 mm
02:05 AM 66.2°F19.0°C 47.0°F8.3°C 50% 2.2 mph NNW3.5 kmh NNW 3.8 mph6.1 kmh 29.93 in1013.5 mb 0.00 in0.0 mm 0.00 in0.0 mm 0.00 in0.0 mm
02:06 AM 66.2°F19.0°C 47.0°F8.3°C 50% 1.6 mph NNW2.6 kmh NNW 3.8 mph6.1 kmh 29.93 in1013.5 mb 0.00 in0.0 mm 0.00 in0.0 mm 0.00 in0.0 mm
02:07 AM 66.2°F19.0°C 47.6°F8.7°C 51% 1.6 mph NNW2.6 kmh NNW 3.8 mph6.1 kmh 29.93 in1013.5 mb 0.00 in0.0 mm 0.00 in0.0 mm 0.00 in0.0 mm
02:08 AM 66.2°F19.0°C 47.6°F8.7°C 51% 0.7 mph NNW1.1 kmh NNW 3.8 mph6.1 kmh 29.93 in1013.5 mb 0.00 in0.0 mm 0.00 in0.0 mm 0.00 in0.0 mm
02:09 AM 66.2°F19.0°C 47.6°F8.7°C 51% 1.6 mph NNW2.6 kmh NNW 3.8 mph6.1 kmh 29.93 in1013.5 mb 0.00 in0.0 mm 0.00 in0.0 mm 0.00 in0.0 mm
02:10 AM 66.2°F19.0°C 47.6°F8.7°C 51% 2.2 mph N3.5 kmh N 3.8 mph6.1 kmh 29.93 in1013.5 mb 0.00 in0.0 mm 0.00 in0.0 mm 0.00 in0.0 mm
02:11 AM 66.2°F19.0°C 48.1°F8.9°C 52% 0.7 mph NNW1.1 kmh NNW 3.8 mph6.1 kmh 29.93 in1013.5 mb 0.00 in0.0 mm 0.00 in0.0 mm 0.00 in0.0 mm
02:12 AM 66.2°F19.0°C 48.1°F8.9°C 52% 2.2 mph NNW3.5 kmh NNW 3.8 mph6.1 kmh 29.93 in1013.5 mb 0.00 in0.0 mm 0.00 in0.0 mm 0.00 in0.0 mm
02:13 AM 66.2°F19.0°C 48.1°F8.9°C 52% 3.1 mph NNW5.0 kmh NNW 3.8 mph6.1 kmh 29.93 in1013.5 mb 0.00 in0.0 mm 0.00 in0.0 mm 0.00 in0.0 mm
02:14 AM 66.2°F19.0°C 48.1°F8.9°C 52% 2.2 mph NNW3.5 kmh NNW 4.5 mph7.2 kmh 29.93 in1013.5 mb 0.00 in0.0 mm 0.00 in0.0 mm 0.00 in0.0 mm
02:15 AM 66.4°F19.1°C 48.2°F9.0°C 52% 1.6 mph NNW2.6 kmh NNW 4.5 mph7.2 kmh 29.94 in1013.9 mb 0.00 in0.0 mm 0.00 in0.0 mm 0.00 in0.0 mm
02:16 AM 66.4°F19.1°C 48.2°F9.0°C 52% 3.1 mph NNW5.0 kmh NNW 4.5 mph7.2 kmh 29.93 in1013.5 mb 0.00 in0.0 mm 0.00 in0.0 mm 0.00 in0.0 mm
02:17 AM 66.4°F19.1°C 47.7°F8.7°C 51% 1.6 mph N2.6 kmh N 4.5 mph7.2 kmh 29.93 in1013.5 mb 0.00 in0.0 mm 0.00 in0.0 mm 0.00 in0.0 mm
02:18 AM 66.4°F19.1°C 47.7°F8.7°C 51% 1.6 mph N2.6 kmh N 4.5 mph7.2 kmh 29.93 in1013.5 mb 0.00 in0.0 mm 0.00 in0.0 mm 0.00 in0.0 mm
02:19 AM 66.4°F19.1°C 47.7°F8.7°C 51% Calm Calm 4.5 mph7.2 kmh 29.93 in1013.5 mb 0.00 in0.0 mm 0.00 in0.0 mm 0.00 in0.0 mm
02:20 AM 66.4°F19.1°C 47.7°F8.7°C 51% Calm Calm 4.5 mph7.2 kmh 29.93 in1013.5 mb 0.00 in0.0 mm 0.00 in0.0 mm 0.00 in0.0 mm
02:21 AM 66.4°F19.1°C 47.7°F8.7°C 51% Calm Calm 4.5 mph7.2 kmh 29.93 in1013.5 mb 0.00 in0.0 mm 0.00 in0.0 mm 0.00 in0.0 mm
02:22 AM 66.4°F19.1°C 47.7°F8.7°C 51% 0.7 mph N1.1 kmh N 4.5 mph7.2 kmh 29.93 in1013.5 mb 0.00 in0.0 mm 0.00 in0.0 mm 0.00 in0.0 mm
02:23 AM 66.2°F19.0°C 48.1°F8.9°C 52% Calm Calm 4.5 mph7.2 kmh 29.93 in1013.5 mb 0.00 in0.0 mm 0.00 in0.0 mm 0.00 in0.0 mm
02:24 AM 66.4°F19.1°C 48.2°F9.0°C 52% Calm Calm 4.5 mph7.2 kmh 29.93 in1013.5 mb 0.00 in0.0 mm 0.00 in0.0 mm 0.00 in0.0 mm
02:25 AM 66.2°F19.0°C 48.1°F8.9°C 52% 0.7 mph NNE1.1 kmh NNE 4.5 mph7.2 kmh 29.93 in1013.5 mb 0.00 in0.0 mm 0.00 in0.0 mm 0.00 in0.0 mm
02:26 AM 66.2°F19.0°C 48.1°F8.9°C 52% Calm Calm 3.1 mph5.0 kmh 29.93 in1013.5 mb 0.00 in0.0 mm 0.00 in0.0 mm 0.00 in0.0 mm
02:27 AM 66.2°F19.0°C 48.1°F8.9°C 52% Calm Calm 2.2 mph3.5 kmh 29.93 in1013.5 mb 0.00 in0.0 mm 0.00 in0.0 mm 0.00 in0.0 mm
02:28 AM 66.2°F19.0°C 48.1°F8.9°C 52% Calm Calm 2.2 mph3.5 kmh 29.93 in1013.5 mb 0.00 in0.0 mm 0.00 in0.0 mm 0.00 in0.0 mm
02:29 AM 66.2°F19.0°C 48.6°F9.2°C 53% Calm Calm 2.2 mph3.5 kmh 29.92 in1013.2 mb 0.00 in0.0 mm 0.00 in0.0 mm 0.00 in0.0 mm
02:30 AM 66.0°F18.9°C 48.4°F9.1°C 53% Calm Calm 2.2 mph3.5 kmh 29.93 in1013.5 mb 0.00 in0.0 mm 0.00 in0.0 mm 0.00 in0.0 mm
02:31 AM 66.0°F18.9°C 48.4°F9.1°C 53% Calm Calm 2.2 mph3.5 kmh 29.93 in1013.5 mb 0.00 in0.0 mm 0.00 in0.0 mm 0.00 in0.0 mm
02:32 AM 66.0°F18.9°C 48.4°F9.1°C 53% 1.6 mph N2.6 kmh N 3.1 mph5.0 kmh 29.92 in1013.2 mb 0.00 in0.0 mm 0.00 in0.0 mm 0.00 in0.0 mm
02:33 AM 66.0°F18.9°C 48.9°F9.4°C 54% Calm Calm 3.1 mph5.0 kmh 29.93 in1013.5 mb 0.00 in0.0 mm 0.00 in0.0 mm 0.00 in0.0 mm
02:34 AM 66.0°F18.9°C 48.9°F9.4°C 54% 2.2 mph N3.5 kmh N 3.1 mph5.0 kmh 29.92 in1013.2 mb 0.00 in0.0 mm 0.00 in0.0 mm 0.00 in0.0 mm
02:35 AM 66.0°F18.9°C 48.9°F9.4°C 54% 1.6 mph N2.6 kmh N 3.1 mph5.0 kmh 29.92 in1013.2 mb 0.00 in0.0 mm 0.00 in0.0 mm 0.00 in0.0 mm
02:36 AM 66.0°F18.9°C 48.9°F9.4°C 54% 1.6 mph N2.6 kmh N 3.1 mph5.0 kmh 29.92 in1013.2 mb 0.00 in0.0 mm 0.00 in0.0 mm 0.00 in0.0 mm
02:37 AM 66.0°F18.9°C 48.9°F9.4°C 54% 1.6 mph N2.6 kmh N 3.1 mph5.0 kmh 29.92 in1013.2 mb 0.00 in0.0 mm 0.00 in0.0 mm 0.00 in0.0 mm
02:38 AM 65.8°F18.8°C 48.7°F9.3°C 54% 1.6 mph N2.6 kmh N 3.1 mph5.0 kmh 29.93 in1013.5 mb 0.00 in0.0 mm 0.00 in0.0 mm 0.00 in0.0 mm
02:39 AM 66.0°F18.9°C 48.9°F9.4°C 54% 1.6 mph N2.6 kmh N 3.1 mph5.0 kmh 29.92 in1013.2 mb 0.00 in0.0 mm 0.00 in0.0 mm 0.00 in0.0 mm
02:40 AM 66.0°F18.9°C 49.4°F9.7°C 55% 0.7 mph N1.1 kmh N 3.1 mph5.0 kmh 29.92 in1013.2 mb 0.00 in0.0 mm 0.00 in0.0 mm 0.00 in0.0 mm
02:41 AM 66.0°F18.9°C 49.4°F9.7°C 55% 1.6 mph N2.6 kmh N 3.1 mph5.0 kmh 29.92 in1013.2 mb 0.00 in0.0 mm 0.00 in0.0 mm 0.00 in0.0 mm
02:42 AM 65.8°F18.8°C 49.2°F9.6°C 55% 0.7 mph N1.1 kmh N 3.1 mph5.0 kmh 29.93 in1013.5 mb 0.00 in0.0 mm 0.00 in0.0 mm 0.00 in0.0 mm
02:43 AM 65.8°F18.8°C 49.2°F9.6°C 55% 0.7 mph N1.1 kmh N 3.1 mph5.0 kmh 29.92 in1013.2 mb 0.00 in0.0 mm 0.00 in0.0 mm 0.00 in0.0 mm
02:44 AM 65.8°F18.8°C 49.2°F9.6°C 55% 0.7 mph N1.1 kmh N 3.1 mph5.0 kmh 29.93 in1013.5 mb 0.00 in0.0 mm 0.00 in0.0 mm 0.00 in0.0 mm
02:45 AM 65.8°F18.8°C 49.2°F9.6°C 55% 2.2 mph N3.5 kmh N 3.1 mph5.0 kmh 29.92 in1013.2 mb 0.00 in0.0 mm 0.00 in0.0 mm 0.00 in0.0 mm
02:46 AM 65.8°F18.8°C 49.2°F9.6°C 55% 1.6 mph N2.6 kmh N 3.1 mph5.0 kmh 29.93 in1013.5 mb 0.00 in0.0 mm 0.00 in0.0 mm 0.00 in0.0 mm
02:47 AM 65.7°F18.7°C 49.1°F9.5°C 55% 1.6 mph N2.6 kmh N 3.1 mph5.0 kmh 29.93 in1013.5 mb 0.00 in0.0 mm 0.00 in0.0 mm 0.00 in0.0 mm
02:48 AM 65.7°F18.7°C 49.1°F9.5°C 55% 0.7 mph N1.1 kmh N 3.1 mph5.0 kmh 29.92 in1013.2 mb 0.00 in0.0 mm 0.00 in0.0 mm 0.00 in0.0 mm
02:49 AM 65.7°F18.7°C 49.1°F9.5°C 55% 0.7 mph N1.1 kmh N 3.1 mph5.0 kmh 29.92 in1013.2 mb 0.00 in0.0 mm 0.00 in0.0 mm 0.00 in0.0 mm
02:50 AM 65.7°F18.7°C 49.1°F9.5°C 55% 1.6 mph N2.6 kmh N 3.1 mph5.0 kmh 29.92 in1013.2 mb 0.00 in0.0 mm 0.00 in0.0 mm 0.00 in0.0 mm
02:51 AM 65.7°F18.7°C 49.1°F9.5°C 55% 0.7 mph N1.1 kmh N 3.1 mph5.0 kmh 29.92 in1013.2 mb 0.00 in0.0 mm 0.00 in0.0 mm 0.00 in0.0 mm
02:52 AM 65.7°F18.7°C 49.1°F9.5°C 55% 1.6 mph NNW2.6 kmh NNW 3.1 mph5.0 kmh 29.92 in1013.2 mb 0.00 in0.0 mm 0.00 in0.0 mm 0.00 in0.0 mm
02:53 AM 65.7°F18.7°C 49.1°F9.5°C 55% 1.6 mph NNW2.6 kmh NNW 3.1 mph5.0 kmh 29.92 in1013.2 mb 0.00 in0.0 mm 0.00 in0.0 mm 0.00 in0.0 mm
02:54 AM 65.7°F18.7°C 49.1°F9.5°C 55% 2.2 mph NNW3.5 kmh NNW 3.8 mph6.1 kmh 29.92 in1013.2 mb 0.00 in0.0 mm 0.00 in0.0 mm 0.00 in0.0 mm
02:55 AM 65.7°F18.7°C 49.1°F9.5°C 55% 1.6 mph NNW2.6 kmh NNW 3.8 mph6.1 kmh 29.92 in1013.2 mb 0.00 in0.0 mm 0.00 in0.0 mm 0.00 in0.0 mm
02:56 AM 65.7°F18.7°C 49.1°F9.5°C 55% 2.2 mph NNW3.5 kmh NNW 3.8 mph6.1 kmh 29.93 in1013.5 mb 0.00 in0.0 mm 0.00 in0.0 mm 0.00 in0.0 mm
02:57 AM 65.7°F18.7°C 49.1°F9.5°C 55% 2.2 mph NNW3.5 kmh NNW 3.8 mph6.1 kmh 29.92 in1013.2 mb 0.00 in0.0 mm 0.00 in0.0 mm 0.00 in0.0 mm
02:58 AM 65.7°F18.7°C 49.1°F9.5°C 55% 1.6 mph NNW2.6 kmh NNW 3.8 mph6.1 kmh 29.92 in1013.2 mb 0.00 in0.0 mm 0.00 in0.0 mm 0.00 in0.0 mm
02:59 AM 65.7°F18.7°C 49.1°F9.5°C 55% 1.6 mph NNW2.6 kmh NNW 3.8 mph6.1 kmh 29.92 in1013.2 mb 0.00 in0.0 mm 0.00 in0.0 mm 0.00 in0.0 mm
03:00 AM 65.7°F18.7°C 49.6°F9.8°C 56% 0.7 mph NNW1.1 kmh NNW 3.8 mph6.1 kmh 29.92 in1013.2 mb 0.00 in0.0 mm 0.00 in0.0 mm 0.00 in0.0 mm
03:01 AM 65.7°F18.7°C 49.6°F9.8°C 56% 1.6 mph NNW2.6 kmh NNW 3.8 mph6.1 kmh 29.92 in1013.2 mb 0.00 in0.0 mm 0.00 in0.0 mm 0.00 in0.0 mm
03:02 AM 65.5°F18.6°C 49.4°F9.7°C 56% 2.2 mph NNW3.5 kmh NNW 3.8 mph6.1 kmh 29.92 in1013.2 mb 0.00 in0.0 mm 0.00 in0.0 mm 0.00 in0.0 mm
03:03 AM 65.5°F18.6°C 49.4°F9.7°C 56% 2.2 mph N3.5 kmh N 3.8 mph6.1 kmh 29.92 in1013.2 mb 0.00 in0.0 mm 0.00 in0.0 mm 0.00 in0.0 mm
03:04 AM 65.5°F18.6°C 49.4°F9.7°C 56% 1.6 mph NNW2.6 kmh NNW 3.8 mph6.1 kmh 29.92 in1013.2 mb 0.00 in0.0 mm 0.00 in0.0 mm 0.00 in0.0 mm
03:05 AM 65.5°F18.6°C 49.4°F9.7°C 56% 0.7 mph NNW1.1 kmh NNW 3.8 mph6.1 kmh 29.92 in1013.2 mb 0.00 in0.0 mm 0.00 in0.0 mm 0.00 in0.0 mm
03:06 AM 65.5°F18.6°C 49.4°F9.7°C 56% 3.1 mph N5.0 kmh N 4.5 mph7.2 kmh 29.92 in1013.2 mb 0.00 in0.0 mm 0.00 in0.0 mm 0.00 in0.0 mm
03:07 AM 65.5°F18.6°C 49.4°F9.7°C 56% 1.6 mph N2.6 kmh N 4.5 mph7.2 kmh 29.92 in1013.2 mb 0.00 in0.0 mm 0.00 in0.0 mm 0.00 in0.0 mm
03:08 AM 65.5°F18.6°C 49.4°F9.7°C 56% 1.6 mph N2.6 kmh N 4.5 mph7.2 kmh 29.92 in1013.2 mb 0.00 in0.0 mm 0.00 in0.0 mm 0.00 in0.0 mm
03:09 AM 65.5°F18.6°C 49.4°F9.7°C 56% 1.6 mph N2.6 kmh N 4.5 mph7.2 kmh 29.92 in1013.2 mb 0.00 in0.0 mm 0.00 in0.0 mm 0.00 in0.0 mm
03:10 AM 65.3°F18.5°C 49.2°F9.6°C 56% 1.6 mph N2.6 kmh N 4.5 mph7.2 kmh 29.92 in1013.2 mb 0.00 in0.0 mm 0.00 in0.0 mm 0.00 in0.0 mm
03:11 AM 65.3°F18.5°C 49.2°F9.6°C 56% 1.6 mph N2.6 kmh N 4.5 mph7.2 kmh 29.92 in1013.2 mb 0.00 in0.0 mm 0.00 in0.0 mm 0.00 in0.0 mm
03:12 AM 65.3°F18.5°C 49.2°F9.6°C 56% 2.2 mph N3.5 kmh N 4.5 mph7.2 kmh 29.92 in1013.2 mb 0.00 in0.0 mm 0.00 in0.0 mm 0.00 in0.0 mm
03:13 AM 65.3°F18.5°C 49.2°F9.6°C 56% 1.6 mph N2.6 kmh N 4.5 mph7.2 kmh 29.92 in1013.2 mb 0.00 in0.0 mm 0.00 in0.0 mm 0.00 in0.0 mm
03:14 AM 65.3°F18.5°C 49.7°F9.8°C 57% Calm Calm 4.5 mph7.2 kmh 29.93 in1013.5 mb 0.00 in0.0 mm 0.00 in0.0 mm 0.00 in0.0 mm
03:15 AM 65.3°F18.5°C 49.7°F9.8°C 57% 1.6 mph N2.6 kmh N 4.5 mph7.2 kmh 29.92 in1013.2 mb 0.00 in0.0 mm 0.00 in0.0 mm 0.00 in0.0 mm
03:16 AM 65.3°F18.5°C 49.7°F9.8°C 57% 1.6 mph N2.6 kmh N 4.5 mph7.2 kmh 29.92 in1013.2 mb 0.00 in0.0 mm 0.00 in0.0 mm 0.00 in0.0 mm
03:17 AM 65.3°F18.5°C 49.7°F9.8°C 57% 1.6 mph N2.6 kmh N 3.1 mph5.0 kmh 29.92 in1013.2 mb 0.00 in0.0 mm 0.00 in0.0 mm 0.00 in0.0 mm
03:18 AM 65.3°F18.5°C 49.7°F9.8°C 57% 0.7 mph N1.1 kmh N 3.1 mph5.0 kmh 29.93 in1013.5 mb 0.00 in0.0 mm 0.00 in0.0 mm 0.00 in0.0 mm
03:19 AM 65.3°F18.5°C 49.7°F9.8°C 57% 0.7 mph N1.1 kmh N 3.1 mph5.0 kmh 29.92 in1013.2 mb 0.00 in0.0 mm 0.00 in0.0 mm 0.00 in0.0 mm
03:20 AM 65.3°F18.5°C 49.7°F9.8°C 57% 1.6 mph N2.6 kmh N 3.1 mph5.0 kmh 29.92 in1013.2 mb 0.00 in0.0 mm 0.00 in0.0 mm 0.00 in0.0 mm
03:21 AM 65.3°F18.5°C 49.7°F9.8°C 57% 1.6 mph N2.6 kmh N 3.1 mph5.0 kmh 29.92 in1013.2 mb 0.00 in0.0 mm 0.00 in0.0 mm 0.00 in0.0 mm
03:22 AM 65.3°F18.5°C 49.7°F9.8°C 57% 1.6 mph N2.6 kmh N 3.1 mph5.0 kmh 29.92 in1013.2 mb 0.00 in0.0 mm 0.00 in0.0 mm 0.00 in0.0 mm
03:23 AM 65.3°F18.5°C 49.7°F9.8°C 57% 0.7 mph N1.1 kmh N 3.1 mph5.0 kmh 29.92 in1013.2 mb 0.00 in0.0 mm 0.00 in0.0 mm 0.00 in0.0 mm
03:24 AM 65.1°F18.4°C 49.5°F9.7°C 57% 1.6 mph N2.6 kmh N 3.1 mph5.0 kmh 29.93 in1013.5 mb 0.00 in0.0 mm 0.00 in0.0 mm 0.00 in0.0 mm
03:25 AM 65.1°F18.4°C 50.0°F10.0°C 58% Calm Calm 3.1 mph5.0 kmh 29.92 in1013.2 mb 0.00 in0.0 mm 0.00 in0.0 mm 0.00 in0.0 mm
03:26 AM 65.1°F18.4°C 50.0°F10.0°C 58% Calm Calm 3.1 mph5.0 kmh 29.92 in1013.2 mb 0.00 in0.0 mm 0.00 in0.0 mm 0.00 in0.0 mm
03:27 AM 65.1°F18.4°C 49.5°F9.7°C 57% Calm Calm 3.1 mph5.0 kmh 29.92 in1013.2 mb 0.00 in0.0 mm 0.00 in0.0 mm 0.00 in0.0 mm
03:28 AM 65.1°F18.4°C 49.5°F9.7°C 57% Calm Calm 3.1 mph5.0 kmh 29.93 in1013.5 mb 0.00 in0.0 mm 0.00 in0.0 mm 0.00 in0.0 mm
03:29 AM 64.9°F18.3°C 49.4°F9.7°C 57% Calm Calm 3.1 mph5.0 kmh 29.92 in1013.2 mb 0.00 in0.0 mm 0.00 in0.0 mm 0.00 in0.0 mm
03:30 AM 64.9°F18.3°C 49.8°F9.9°C 58% 1.6 mph N2.6 kmh N 3.1 mph5.0 kmh 29.92 in1013.2 mb 0.00 in0.0 mm 0.00 in0.0 mm 0.00 in0.0 mm
03:31 AM 64.9°F18.3°C 49.8°F9.9°C 58% 0.7 mph N1.1 kmh N 3.1 mph5.0 kmh 29.92 in1013.2 mb 0.00 in0.0 mm 0.00 in0.0 mm 0.00 in0.0 mm
03:32 AM 64.9°F18.3°C 49.8°F9.9°C 58% 0.7 mph N1.1 kmh N 3.1 mph5.0 kmh 29.92 in1013.2 mb 0.00 in0.0 mm 0.00 in0.0 mm 0.00 in0.0 mm
03:33 AM 64.9°F18.3°C 49.8°F9.9°C 58% 0.7 mph N1.1 kmh N 3.1 mph5.0 kmh 29.93 in1013.5 mb 0.00 in0.0 mm 0.00 in0.0 mm 0.00 in0.0 mm
03:34 AM 64.9°F18.3°C 49.8°F9.9°C 58% Calm Calm 3.1 mph5.0 kmh 29.93 in1013.5 mb 0.00 in0.0 mm 0.00 in0.0 mm 0.00 in0.0 mm
03:35 AM 64.9°F18.3°C 49.8°F9.9°C 58% 0.7 mph N1.1 kmh N 3.1 mph5.0 kmh 29.93 in1013.5 mb 0.00 in0.0 mm 0.00 in0.0 mm 0.00 in0.0 mm
03:36 AM 64.9°F18.3°C 49.8°F9.9°C 58% 0.7 mph N1.1 kmh N 3.1 mph5.0 kmh 29.92 in1013.2 mb 0.00 in0.0 mm 0.00 in0.0 mm 0.00 in0.0 mm
03:37 AM 64.9°F18.3°C 49.8°F9.9°C 58% Calm Calm 3.1 mph5.0 kmh 29.93 in1013.5 mb 0.00 in0.0 mm 0.00 in0.0 mm 0.00 in0.0 mm
03:38 AM 64.9°F18.3°C 49.8°F9.9°C 58% Calm Calm 3.1 mph5.0 kmh 29.93 in1013.5 mb 0.00 in0.0 mm 0.00 in0.0 mm 0.00 in0.0 mm
03:39 AM 64.9°F18.3°C 49.8°F9.9°C 58% Calm Calm 3.1 mph5.0 kmh 29.92 in1013.2 mb 0.00 in0.0 mm 0.00 in0.0 mm 0.00 in0.0 mm
03:40 AM 64.9°F18.3°C 49.8°F9.9°C 58% Calm Calm 3.1 mph5.0 kmh 29.93 in1013.5 mb 0.00 in0.0 mm 0.00 in0.0 mm 0.00 in0.0 mm
03:41 AM 64.9°F18.3°C 49.8°F9.9°C 58% Calm Calm 3.1 mph5.0 kmh 29.92 in1013.2 mb 0.00 in0.0 mm 0.00 in0.0 mm 0.00 in0.0 mm
03:42 AM 64.8°F18.2°C 49.7°F9.8°C 58% Calm Calm 3.1 mph5.0 kmh 29.92 in1013.2 mb 0.00 in0.0 mm 0.00 in0.0 mm 0.00 in0.0 mm
03:43 AM 64.8°F18.2°C 49.7°F9.8°C 58% Calm Calm 3.1 mph5.0 kmh 29.93 in1013.5 mb 0.00 in0.0 mm 0.00 in0.0 mm 0.00 in0.0 mm
03:44 AM 64.8°F18.2°C 49.7°F9.8°C 58% Calm Calm 1.6 mph2.6 kmh 29.93 in1013.5 mb 0.00 in0.0 mm 0.00 in0.0 mm 0.00 in0.0 mm
03:45 AM 64.8°F18.2°C 49.7°F9.8°C 58% Calm Calm 1.6 mph2.6 kmh 29.93 in1013.5 mb 0.00 in0.0 mm 0.00 in0.0 mm 0.00 in0.0 mm
03:46 AM 64.8°F18.2°C 49.7°F9.8°C 58% Calm Calm 1.6 mph2.6 kmh 29.92 in1013.2 mb 0.00 in0.0 mm 0.00 in0.0 mm 0.00 in0.0 mm
03:47 AM 64.6°F18.1°C 49.5°F9.7°C 58% Calm Calm -- 29.92 in1013.2 mb 0.00 in0.0 mm 0.00 in0.0 mm 0.00 in0.0 mm
03:48 AM 64.6°F18.1°C 49.5°F9.7°C 58% Calm Calm -- 29.92 in1013.2 mb 0.00 in0.0 mm 0.00 in0.0 mm 0.00 in0.0 mm
03:49 AM 64.6°F18.1°C 49.5°F9.7°C 58% Calm Calm -- 29.92 in1013.2 mb 0.00 in0.0 mm 0.00 in0.0 mm 0.00 in0.0 mm
03:50 AM 64.6°F18.1°C 49.5°F9.7°C 58% Calm Calm -- 29.92 in1013.2 mb 0.00 in0.0 mm 0.00 in0.0 mm 0.00 in0.0 mm
03:51 AM 64.6°F18.1°C 49.9°F9.9°C 59% Calm Calm -- 29.92 in1013.2 mb 0.00 in0.0 mm 0.00 in0.0 mm 0.00 in0.0 mm
03:52 AM 64.6°F18.1°C 49.9°F9.9°C 59% 0.7 mph N1.1 kmh N 1.6 mph2.6 kmh 29.92 in1013.2 mb 0.00 in0.0 mm 0.00 in0.0 mm 0.00 in0.0 mm
03:53 AM 64.6°F18.1°C 49.9°F9.9°C 59% 0.7 mph N1.1 kmh N 1.6 mph2.6 kmh 29.93 in1013.5 mb 0.00 in0.0 mm 0.00 in0.0 mm 0.00 in0.0 mm
03:54 AM 64.6°F18.1°C 49.9°F9.9°C 59% Calm Calm 1.6 mph2.6 kmh 29.92 in1013.2 mb 0.00 in0.0 mm 0.00 in0.0 mm 0.00 in0.0 mm
03:55 AM 64.6°F18.1°C 49.9°F9.9°C 59% Calm Calm 1.6 mph2.6 kmh 29.92 in1013.2 mb 0.00 in0.0 mm 0.00 in0.0 mm 0.00 in0.0 mm
03:56 AM 64.6°F18.1°C 49.9°F9.9°C 59% Calm Calm 1.6 mph2.6 kmh 29.92 in1013.2 mb 0.00 in0.0 mm 0.00 in0.0 mm 0.00 in0.0 mm
03:57 AM 64.6°F18.1°C 49.9°F9.9°C 59% Calm Calm 1.6 mph2.6 kmh 29.92 in1013.2 mb 0.00 in0.0 mm 0.00 in0.0 mm 0.00 in0.0 mm
03:58 AM 64.6°F18.1°C 49.9°F9.9°C 59% Calm Calm 1.6 mph2.6 kmh 29.92 in1013.2 mb 0.00 in0.0 mm 0.00 in0.0 mm 0.00 in0.0 mm
03:59 AM 64.6°F18.1°C 49.9°F9.9°C 59% Calm Calm 1.6 mph2.6 kmh 29.92 in1013.2 mb 0.00 in0.0 mm 0.00 in0.0 mm 0.00 in0.0 mm
04:00 AM 64.6°F18.1°C 49.9°F9.9°C 59% Calm Calm 1.6 mph2.6 kmh 29.92 in1013.2 mb 0.00 in0.0 mm 0.00 in0.0 mm 0.00 in0.0 mm
04:01 AM 64.6°F18.1°C 49.9°F9.9°C 59% Calm Calm 1.6 mph2.6 kmh 29.91 in1012.9 mb 0.00 in0.0 mm 0.00 in0.0 mm 0.00 in0.0 mm
04:02 AM 64.6°F18.1°C 50.4°F10.2°C 60% 1.6 mph NNW2.6 kmh NNW 3.1 mph5.0 kmh 29.92 in1013.2 mb 0.00 in0.0 mm 0.00 in0.0 mm 0.00 in0.0 mm
04:03 AM 64.8°F18.2°C 50.6°F10.3°C 60% 1.6 mph NNW2.6 kmh NNW 3.1 mph5.0 kmh 29.91 in1012.9 mb 0.00 in0.0 mm 0.00 in0.0 mm 0.00 in0.0 mm
04:04 AM 64.8°F18.2°C 50.6°F10.3°C 60% 0.7 mph NW1.1 kmh NW 3.1 mph5.0 kmh 29.92 in1013.2 mb 0.00 in0.0 mm 0.00 in0.0 mm 0.00 in0.0 mm
04:05 AM 64.8°F18.2°C 50.6°F10.3°C 60% 1.6 mph NW2.6 kmh NW 3.1 mph5.0 kmh 29.92 in1013.2 mb 0.00 in0.0 mm 0.00 in0.0 mm 0.00 in0.0 mm
04:06 AM 64.8°F18.2°C 50.6°F10.3°C 60% 1.6 mph NW2.6 kmh NW 3.1 mph5.0 kmh 29.92 in1013.2 mb 0.00 in0.0 mm 0.00 in0.0 mm 0.00 in0.0 mm
04:07 AM 64.8°F18.2°C 50.6°F10.3°C 60% 0.7 mph NW1.1 kmh NW 3.1 mph5.0 kmh 29.91 in1012.9 mb 0.00 in0.0 mm 0.00 in0.0 mm 0.00 in0.0 mm
04:08 AM 64.8°F18.2°C 50.6°F10.3°C 60% 0.7 mph NW1.1 kmh NW 3.1 mph5.0 kmh 29.91 in1012.9 mb 0.00 in0.0 mm 0.00 in0.0 mm 0.00 in0.0 mm
04:09 AM 64.8°F18.2°C 50.6°F10.3°C 60% 0.7 mph NNW1.1 kmh NNW 3.1 mph5.0 kmh 29.91 in1012.9 mb 0.00 in0.0 mm 0.00 in0.0 mm 0.00 in0.0 mm
04:10 AM 64.8°F18.2°C 50.1°F10.1°C 59% 0.7 mph NNW1.1 kmh NNW 3.1 mph5.0 kmh 29.92 in1013.2 mb 0.00 in0.0 mm 0.00 in0.0 mm 0.00 in0.0 mm
04:11 AM 64.8°F18.2°C 50.1°F10.1°C 59% 0.7 mph NNW1.1 kmh NNW 3.1 mph5.0 kmh 29.92 in1013.2 mb 0.00 in0.0 mm 0.00 in0.0 mm 0.00 in0.0 mm
04:12 AM 64.8°F18.2°C 50.1°F10.1°C 59% 0.7 mph NNW1.1 kmh NNW 3.1 mph5.0 kmh 29.92 in1013.2 mb 0.00 in0.0 mm 0.00 in0.0 mm 0.00 in0.0 mm
04:14 AM 64.9°F18.3°C 50.3°F10.2°C 59% Calm Calm 2.2 mph3.5 kmh 29.92 in1013.2 mb 0.00 in0.0 mm 0.00 in0.0 mm 0.00 in0.0 mm
04:15 AM 64.9°F18.3°C 50.3°F10.2°C 59% 0.7 mph NNW1.1 kmh NNW 2.2 mph3.5 kmh 29.91 in1012.9 mb 0.00 in0.0 mm 0.00 in0.0 mm 0.00 in0.0 mm
04:16 AM 64.9°F18.3°C 50.3°F10.2°C 59% 1.6 mph NNW2.6 kmh NNW 2.2 mph3.5 kmh 29.91 in1012.9 mb 0.00 in0.0 mm 0.00 in0.0 mm 0.00 in0.0 mm
04:17 AM 64.9°F18.3°C 50.3°F10.2°C 59% 0.7 mph N1.1 kmh N 2.2 mph3.5 kmh 29.92 in1013.2 mb 0.00 in0.0 mm 0.00 in0.0 mm 0.00 in0.0 mm
04:18 AM 64.9°F18.3°C 50.3°F10.2°C 59% 0.7 mph N1.1 kmh N 2.2 mph3.5 kmh 29.91 in1012.9 mb 0.00 in0.0 mm 0.00 in0.0 mm 0.00 in0.0 mm
04:19 AM 64.9°F18.3°C 50.3°F10.2°C 59% 0.7 mph N1.1 kmh N 2.2 mph3.5 kmh 29.91 in1012.9 mb 0.00 in0.0 mm 0.00 in0.0 mm 0.00 in0.0 mm
04:20 AM 64.9°F18.3°C 50.3°F10.2°C 59% 1.6 mph N2.6 kmh N 2.2 mph3.5 kmh 29.92 in1013.2 mb 0.00 in0.0 mm 0.00 in0.0 mm 0.00 in0.0 mm
04:21 AM 64.9°F18.3°C 50.3°F10.2°C 59% Calm Calm 2.2 mph3.5 kmh 29.91 in1012.9 mb 0.00 in0.0 mm 0.00 in0.0 mm 0.00 in0.0 mm
04:22 AM 64.9°F18.3°C 50.3°F10.2°C 59% 0.7 mph N1.1 kmh N 2.2 mph3.5 kmh 29.91 in1012.9 mb 0.00 in0.0 mm 0.00 in0.0 mm 0.00 in0.0 mm
04:23 AM 64.9°F18.3°C 50.3°F10.2°C 59% 1.6 mph N2.6 kmh N 2.2 mph3.5 kmh 29.91 in1012.9 mb 0.00 in0.0 mm 0.00 in0.0 mm 0.00 in0.0 mm
04:24 AM 64.9°F18.3°C 50.3°F10.2°C 59% 0.7 mph N1.1 kmh N 2.2 mph3.5 kmh 29.92 in1013.2 mb 0.00 in0.0 mm 0.00 in0.0 mm 0.00 in0.0 mm
04:25 AM 64.9°F18.3°C 50.3°F10.2°C 59% 1.6 mph N2.6 kmh N 2.2 mph3.5 kmh 29.91 in1012.9 mb 0.00 in0.0 mm 0.00 in0.0 mm 0.00 in0.0 mm
04:26 AM 64.9°F18.3°C 50.3°F10.2°C 59% 1.6 mph N2.6 kmh N 3.8 mph6.1 kmh 29.91 in1012.9 mb 0.00 in0.0 mm 0.00 in0.0 mm 0.00 in0.0 mm
04:27 AM 64.9°F18.3°C 49.8°F9.9°C 58% 1.6 mph N2.6 kmh N 3.8 mph6.1 kmh 29.91 in1012.9 mb 0.00 in0.0 mm 0.00 in0.0 mm 0.00 in0.0 mm
04:28 AM 64.9°F18.3°C 49.8°F9.9°C 58% 1.6 mph N2.6 kmh N 3.8 mph6.1 kmh 29.91 in1012.9 mb 0.00 in0.0 mm 0.00 in0.0 mm 0.00 in0.0 mm
04:29 AM 64.9°F18.3°C 49.8°F9.9°C 58% 1.6 mph N2.6 kmh N 3.8 mph6.1 kmh 29.91 in1012.9 mb 0.00 in0.0 mm 0.00 in0.0 mm 0.00 in0.0 mm
04:30 AM 65.1°F18.4°C 50.0°F10.0°C 58% 1.6 mph N2.6 kmh N 3.8 mph6.1 kmh 29.91 in1012.9 mb 0.00 in0.0 mm 0.00 in0.0 mm 0.00 in0.0 mm
04:34 AM 65.1°F18.4°C 50.0°F10.0°C 58% 1.6 mph N2.6 kmh N 3.8 mph6.1 kmh 29.91 in1012.9 mb 0.00 in0.0 mm 0.00 in0.0 mm 0.00 in0.0 mm
04:35 AM 65.1°F18.4°C 50.0°F10.0°C 58% 0.7 mph N1.1 kmh N 3.8 mph6.1 kmh 29.91 in1012.9 mb 0.00 in0.0 mm 0.00 in0.0 mm 0.00 in0.0 mm
04:36 AM 65.1°F18.4°C 50.0°F10.0°C 58% 1.6 mph N2.6 kmh N 3.8 mph6.1 kmh 29.91 in1012.9 mb 0.00 in0.0 mm 0.00 in0.0 mm 0.00 in0.0 mm
04:37 AM 65.1°F18.4°C 50.0°F10.0°C 58% 2.2 mph N3.5 kmh N 3.8 mph6.1 kmh 29.91 in1012.9 mb 0.00 in0.0 mm 0.00 in0.0 mm 0.00 in0.0 mm
04:38 AM 65.1°F18.4°C 50.0°F10.0°C 58% 1.6 mph N2.6 kmh N 3.8 mph6.1 kmh 29.91 in1012.9 mb 0.00 in0.0 mm 0.00 in0.0 mm 0.00 in0.0 mm
04:39 AM 65.1°F18.4°C 50.0°F10.0°C 58% 1.6 mph N2.6 kmh N 3.8 mph6.1 kmh 29.91 in1012.9 mb 0.00 in0.0 mm 0.00 in0.0 mm 0.00 in0.0 mm
04:40 AM 65.1°F18.4°C 50.0°F10.0°C 58% 1.6 mph N2.6 kmh N 3.8 mph6.1 kmh 29.91 in1012.9 mb 0.00 in0.0 mm 0.00 in0.0 mm 0.00 in0.0 mm
04:41 AM 65.1°F18.4°C 50.0°F10.0°C 58% 1.6 mph N2.6 kmh N 3.8 mph6.1 kmh 29.91 in1012.9 mb 0.00 in0.0 mm 0.00 in0.0 mm 0.00 in0.0 mm
04:42 AM 65.1°F18.4°C 50.0°F10.0°C 58% 2.2 mph N3.5 kmh N 3.8 mph6.1 kmh 29.91 in1012.9 mb 0.00 in0.0 mm 0.00 in0.0 mm 0.00 in0.0 mm
04:43 AM 65.1°F18.4°C 50.0°F10.0°C 58% 2.2 mph N3.5 kmh N 3.8 mph6.1 kmh 29.91 in1012.9 mb 0.00 in0.0 mm 0.00 in0.0 mm 0.00 in0.0 mm
04:44 AM 65.1°F18.4°C 50.0°F10.0°C 58% 1.6 mph N2.6 kmh N 3.8 mph6.1 kmh 29.91 in1012.9 mb 0.00 in0.0 mm 0.00 in0.0 mm 0.00 in0.0 mm
04:45 AM 65.1°F18.4°C 50.0°F10.0°C 58% 1.6 mph N2.6 kmh N 3.8 mph6.1 kmh 29.91 in1012.9 mb 0.00 in0.0 mm 0.00 in0.0 mm 0.00 in0.0 mm
04:46 AM 65.1°F18.4°C 50.0°F10.0°C 58% 1.6 mph N2.6 kmh N 3.8 mph6.1 kmh 29.92 in1013.2 mb 0.00 in0.0 mm 0.00 in0.0 mm 0.00 in0.0 mm
04:47 AM 65.1°F18.4°C 50.0°F10.0°C 58% 1.6 mph N2.6 kmh N 3.8 mph6.1 kmh 29.91 in1012.9 mb 0.00 in0.0 mm 0.00 in0.0 mm 0.00 in0.0 mm
04:48 AM 65.1°F18.4°C 50.0°F10.0°C 58% 1.6 mph N2.6 kmh N 3.8 mph6.1 kmh 29.91 in1012.9 mb 0.00 in0.0 mm 0.00 in0.0 mm 0.00 in0.0 mm
04:49 AM 65.1°F18.4°C 50.0°F10.0°C 58% 1.6 mph N2.6 kmh N 3.8 mph6.1 kmh 29.91 in1012.9 mb 0.00 in0.0 mm 0.00 in0.0 mm 0.00 in0.0 mm
04:50 AM 64.9°F18.3°C 49.8°F9.9°C 58% 1.6 mph N2.6 kmh N 3.8 mph6.1 kmh 29.91 in1012.9 mb 0.00 in0.0 mm 0.00 in0.0 mm 0.00 in0.0 mm
04:51 AM 64.9°F18.3°C 49.8°F9.9°C 58% 2.2 mph N3.5 kmh N 3.8 mph6.1 kmh 29.91 in1012.9 mb 0.00 in0.0 mm 0.00 in0.0 mm 0.00 in0.0 mm
04:52 AM 64.9°F18.3°C 49.8°F9.9°C 58% 1.6 mph N2.6 kmh N 3.8 mph6.1 kmh 29.91 in1012.9 mb 0.00 in0.0 mm 0.00 in0.0 mm 0.00 in0.0 mm
04:53 AM 64.9°F18.3°C 49.8°F9.9°C 58% 2.2 mph N3.5 kmh N 3.8 mph6.1 kmh 29.91 in1012.9 mb 0.00 in0.0 mm 0.00 in0.0 mm 0.00 in0.0 mm
04:54 AM 64.9°F18.3°C 49.8°F9.9°C 58% 1.6 mph N2.6 kmh N 3.8 mph6.1 kmh 29.91 in1012.9 mb 0.00 in0.0 mm 0.00 in0.0 mm 0.00 in0.0 mm
04:55 AM 64.9°F18.3°C 49.8°F9.9°C 58% 1.6 mph N2.6 kmh N 3.8 mph6.1 kmh 29.91 in1012.9 mb 0.00 in0.0 mm 0.00 in0.0 mm 0.00 in0.0 mm
04:56 AM 64.9°F18.3°C 49.8°F9.9°C 58% 1.6 mph N2.6 kmh N 3.8 mph6.1 kmh 29.91 in1012.9 mb 0.00 in0.0 mm 0.00 in0.0 mm 0.00 in0.0 mm
04:57 AM 64.9°F18.3°C 49.8°F9.9°C 58% 1.6 mph N2.6 kmh N 3.8 mph6.1 kmh 29.91 in1012.9 mb 0.00 in0.0 mm 0.00 in0.0 mm 0.00 in0.0 mm
04:58 AM 64.9°F18.3°C 49.8°F9.9°C 58% 1.6 mph N2.6 kmh N 3.8 mph6.1 kmh 29.91 in1012.9 mb 0.00 in0.0 mm 0.00 in0.0 mm 0.00 in0.0 mm
04:59 AM 64.9°F18.3°C 49.8°F9.9°C 58% 2.2 mph N3.5 kmh N 3.8 mph6.1 kmh 29.91 in1012.9 mb 0.00 in0.0 mm 0.00 in0.0 mm 0.00 in0.0 mm
05:00 AM 64.9°F18.3°C 49.8°F9.9°C 58% 1.6 mph N2.6 kmh N 3.8 mph6.1 kmh 29.92 in1013.2 mb 0.00 in0.0 mm 0.00 in0.0 mm 0.00 in0.0 mm
05:01 AM 64.9°F18.3°C 49.8°F9.9°C 58% 0.7 mph N1.1 kmh N 3.8 mph6.1 kmh 29.91 in1012.9 mb 0.00 in0.0 mm 0.00 in0.0 mm 0.00 in0.0 mm
05:02 AM 64.9°F18.3°C 49.8°F9.9°C 58% 1.6 mph N2.6 kmh N 3.1 mph5.0 kmh 29.91 in1012.9 mb 0.00 in0.0 mm 0.00 in0.0 mm 0.00 in0.0 mm
05:03 AM 64.9°F18.3°C 49.8°F9.9°C 58% 1.6 mph N2.6 kmh N 3.1 mph5.0 kmh 29.91 in1012.9 mb 0.00 in0.0 mm 0.00 in0.0 mm 0.00 in0.0 mm
05:04 AM 64.9°F18.3°C 49.8°F9.9°C 58% 0.7 mph N1.1 kmh N 3.1 mph5.0 kmh 29.92 in1013.2 mb 0.00 in0.0 mm 0.00 in0.0 mm 0.00 in0.0 mm
05:05 AM 64.9°F18.3°C 49.8°F9.9°C 58% 1.6 mph N2.6 kmh N 3.1 mph5.0 kmh 29.91 in1012.9 mb 0.00 in0.0 mm 0.00 in0.0 mm 0.00 in0.0 mm
05:06 AM 64.9°F18.3°C 49.8°F9.9°C 58% 1.6 mph N2.6 kmh N 3.1 mph5.0 kmh 29.91 in1012.9 mb 0.00 in0.0 mm 0.00 in0.0 mm 0.00 in0.0 mm
05:07 AM 64.9°F18.3°C 49.8°F9.9°C 58% 1.6 mph N2.6 kmh N 3.8 mph6.1 kmh 29.91 in1012.9 mb 0.00 in0.0 mm 0.00 in0.0 mm 0.00 in0.0 mm
05:08 AM 64.9°F18.3°C 49.8°F9.9°C 58% 1.6 mph N2.6 kmh N 3.8 mph6.1 kmh 29.92 in1013.2 mb 0.00 in0.0 mm 0.00 in0.0 mm 0.00 in0.0 mm
05:09 AM 64.8°F18.2°C 49.7°F9.8°C 58% 3.1 mph N5.0 kmh N 3.8 mph6.1 kmh 29.91 in1012.9 mb 0.00 in0.0 mm 0.00 in0.0 mm 0.00 in0.0 mm
05:10 AM 64.8°F18.2°C 49.7°F9.8°C 58% 2.2 mph N3.5 kmh N 4.5 mph7.2 kmh 29.91 in1012.9 mb 0.00 in0.0 mm 0.00 in0.0 mm 0.00 in0.0 mm
05:11 AM 64.8°F18.2°C 49.7°F9.8°C 58% 1.6 mph N2.6 kmh N 4.5 mph7.2 kmh 29.91 in1012.9 mb 0.00 in0.0 mm 0.00 in0.0 mm 0.00 in0.0 mm
05:12 AM 64.8°F18.2°C 50.1°F10.1°C 59% 1.6 mph N2.6 kmh N 4.5 mph7.2 kmh 29.91 in1012.9 mb 0.00 in0.0 mm 0.00 in0.0 mm 0.00 in0.0 mm
05:13 AM 64.8°F18.2°C 50.1°F10.1°C 59% 1.6 mph N2.6 kmh N 4.5 mph7.2 kmh 29.92 in1013.2 mb 0.00 in0.0 mm 0.00 in0.0 mm 0.00 in0.0 mm
05:14 AM 64.8°F18.2°C 50.1°F10.1°C 59% 1.6 mph N2.6 kmh N 4.5 mph7.2 kmh 29.92 in1013.2 mb 0.00 in0.0 mm 0.00 in0.0 mm 0.00 in0.0 mm
05:15 AM 64.8°F18.2°C 50.1°F10.1°C 59% 1.6 mph N2.6 kmh N 4.5 mph7.2 kmh 29.92 in1013.2 mb 0.00 in0.0 mm 0.00 in0.0 mm 0.00 in0.0 mm
05:16 AM 64.8°F18.2°C 50.1°F10.1°C 59% 1.6 mph N2.6 kmh N 4.5 mph7.2 kmh 29.92 in1013.2 mb 0.00 in0.0 mm 0.00 in0.0 mm 0.00 in0.0 mm
05:17 AM 64.8°F18.2°C 50.1°F10.1°C 59% 2.2 mph N3.5 kmh N 4.5 mph7.2 kmh 29.92 in1013.2 mb 0.00 in0.0 mm 0.00 in0.0 mm 0.00 in0.0 mm
05:18 AM 64.8°F18.2°C 50.1°F10.1°C 59% 0.7 mph N1.1 kmh N 4.5 mph7.2 kmh 29.92 in1013.2 mb 0.00 in0.0 mm 0.00 in0.0 mm 0.00 in0.0 mm
05:19 AM 64.8°F18.2°C 50.1°F10.1°C 59% 1.6 mph N2.6 kmh N 4.5 mph7.2 kmh 29.91 in1012.9 mb 0.00 in0.0 mm 0.00 in0.0 mm 0.00 in0.0 mm
05:20 AM 64.8°F18.2°C 50.1°F10.1°C 59% Calm Calm 4.5 mph7.2 kmh 29.91 in1012.9 mb 0.00 in0.0 mm 0.00 in0.0 mm 0.00 in0.0 mm
05:21 AM 64.8°F18.2°C 50.1°F10.1°C 59% 3.1 mph NNW5.0 kmh NNW 3.8 mph6.1 kmh 29.91 in1012.9 mb 0.00 in0.0 mm 0.00 in0.0 mm 0.00 in0.0 mm
05:22 AM 64.6°F18.1°C 49.9°F9.9°C 59% 3.1 mph NNW5.0 kmh NNW 3.8 mph6.1 kmh 29.91 in1012.9 mb 0.00 in0.0 mm 0.00 in0.0 mm 0.00 in0.0 mm
05:23 AM 64.6°F18.1°C 49.9°F9.9°C 59% 1.6 mph N2.6 kmh N 3.8 mph6.1 kmh 29.91 in1012.9 mb 0.00 in0.0 mm 0.00 in0.0 mm 0.00 in0.0 mm
05:24 AM 64.8°F18.2°C 50.1°F10.1°C 59% 2.2 mph N3.5 kmh N 3.8 mph6.1 kmh 29.92 in1013.2 mb 0.00 in0.0 mm 0.00 in0.0 mm 0.00 in0.0 mm
05:25 AM 64.8°F18.2°C 50.1°F10.1°C 59% 2.2 mph N3.5 kmh N 3.8 mph6.1 kmh 29.91 in1012.9 mb 0.00 in0.0 mm 0.00 in0.0 mm 0.00 in0.0 mm
05:26 AM 64.8°F18.2°C 50.1°F10.1°C 59% 2.2 mph NNW3.5 kmh NNW 3.8 mph6.1 kmh 29.92 in1013.2 mb 0.00 in0.0 mm 0.00 in0.0 mm 0.00 in0.0 mm
05:27 AM 64.8°F18.2°C 50.1°F10.1°C 59% 2.2 mph NNW3.5 kmh NNW 3.8 mph6.1 kmh 29.92 in1013.2 mb 0.00 in0.0 mm 0.00 in0.0 mm 0.00 in0.0 mm
05:28 AM 64.6°F18.1°C 49.9°F9.9°C 59% 2.2 mph NNW3.5 kmh NNW 3.8 mph6.1 kmh 29.92 in1013.2 mb 0.00 in0.0 mm 0.00 in0.0 mm 0.00 in0.0 mm
05:29 AM 64.6°F18.1°C 49.9°F9.9°C 59% 2.2 mph N3.5 kmh N 3.8 mph6.1 kmh 29.91 in1012.9 mb 0.00 in0.0 mm 0.00 in0.0 mm 0.00 in0.0 mm
05:30 AM 64.6°F18.1°C 50.4°F10.2°C 60% 2.2 mph N3.5 kmh N 3.8 mph6.1 kmh 29.92 in1013.2 mb 0.00 in0.0 mm 0.00 in0.0 mm 0.00 in0.0 mm
05:31 AM 64.6°F18.1°C 50.4°F10.2°C 60% 1.6 mph N2.6 kmh N 3.8 mph6.1 kmh 29.91 in1012.9 mb 0.00 in0.0 mm 0.00 in0.0 mm 0.00 in0.0 mm
05:32 AM 64.6°F18.1°C 50.4°F10.2°C 60% 2.2 mph NNW3.5 kmh NNW 3.8 mph6.1 kmh 29.92 in1013.2 mb 0.00 in0.0 mm 0.00 in0.0 mm 0.00 in0.0 mm
05:33 AM 64.6°F18.1°C 50.4°F10.2°C 60% 2.2 mph NNW3.5 kmh NNW 3.8 mph6.1 kmh 29.92 in1013.2 mb 0.00 in0.0 mm 0.00 in0.0 mm 0.00 in0.0 mm
05:34 AM 64.6°F18.1°C 50.4°F10.2°C 60% 1.6 mph NNW2.6 kmh NNW 3.8 mph6.1 kmh 29.92 in1013.2 mb 0.00 in0.0 mm 0.00 in0.0 mm 0.00 in0.0 mm
05:35 AM 64.6°F18.1°C 50.4°F10.2°C 60% 2.2 mph NNW3.5 kmh NNW 3.8 mph6.1 kmh 29.92 in1013.2 mb 0.00 in0.0 mm 0.00 in0.0 mm 0.00 in0.0 mm
05:36 AM 64.6°F18.1°C 50.4°F10.2°C 60% 0.7 mph NNW1.1 kmh NNW 3.8 mph6.1 kmh 29.92 in1013.2 mb 0.00 in0.0 mm 0.00 in0.0 mm 0.00 in0.0 mm
05:37 AM 64.6°F18.1°C 50.4°F10.2°C 60% 1.6 mph N2.6 kmh N 3.8 mph6.1 kmh 29.92 in1013.2 mb 0.00 in0.0 mm 0.00 in0.0 mm 0.00 in0.0 mm
05:38 AM 64.6°F18.1°C 50.4°F10.2°C 60% 2.2 mph NNW3.5 kmh NNW 3.8 mph6.1 kmh 29.91 in1012.9 mb 0.00 in0.0 mm 0.00 in0.0 mm 0.00 in0.0 mm
05:39 AM 64.6°F18.1°C 50.4°F10.2°C 60% 3.1 mph NNW5.0 kmh NNW 5.4 mph8.7 kmh 29.91 in1012.9 mb 0.00 in0.0 mm 0.00 in0.0 mm 0.00 in0.0 mm
05:40 AM 64.6°F18.1°C 50.4°F10.2°C 60% 1.6 mph NNW2.6 kmh NNW 5.4 mph8.7 kmh 29.92 in1013.2 mb 0.00 in0.0 mm 0.00 in0.0 mm 0.00 in0.0 mm
05:41 AM 64.6°F18.1°C 50.4°F10.2°C 60% 2.2 mph N3.5 kmh N 5.4 mph8.7 kmh 29.91 in1012.9 mb 0.00 in0.0 mm 0.00 in0.0 mm 0.00 in0.0 mm
05:42 AM 64.6°F18.1°C 50.4°F10.2°C 60% 1.6 mph N2.6 kmh N 5.4 mph8.7 kmh 29.92 in1013.2 mb 0.00 in0.0 mm 0.00 in0.0 mm 0.00 in0.0 mm
05:43 AM 64.6°F18.1°C 50.4°F10.2°C 60% 2.2 mph N3.5 kmh N 5.4 mph8.7 kmh 29.92 in1013.2 mb 0.00 in0.0 mm 0.00 in0.0 mm 0.00 in0.0 mm
05:44 AM 64.6°F18.1°C 50.4°F10.2°C 60% 1.6 mph N2.6 kmh N 5.4 mph8.7 kmh 29.92 in1013.2 mb 0.00 in0.0 mm 0.00 in0.0 mm 0.00 in0.0 mm
05:45 AM 64.6°F18.1°C 50.4°F10.2°C 60% 2.2 mph N3.5 kmh N 5.4 mph8.7 kmh 29.92 in1013.2 mb 0.00 in0.0 mm 0.00 in0.0 mm 0.00 in0.0 mm
05:46 AM 64.8°F18.2°C 50.6°F10.3°C 60% 0.7 mph N1.1 kmh N 5.4 mph8.7 kmh 29.92 in1013.2 mb 0.00 in0.0 mm 0.00 in0.0 mm 0.00 in0.0 mm
05:47 AM 64.8°F18.2°C 50.6°F10.3°C 60% 1.6 mph N2.6 kmh N 5.4 mph8.7 kmh 29.92 in1013.2 mb 0.00 in0.0 mm 0.00 in0.0 mm 0.00 in0.0 mm
05:48 AM 64.8°F18.2°C 50.6°F10.3°C 60% 1.6 mph N2.6 kmh N 5.4 mph8.7 kmh 29.91 in1012.9 mb 0.00 in0.0 mm 0.00 in0.0 mm 0.00 in0.0 mm
05:49 AM 64.8°F18.2°C 50.6°F10.3°C 60% 2.2 mph N3.5 kmh N 5.4 mph8.7 kmh 29.91 in1012.9 mb 0.00 in0.0 mm 0.00 in0.0 mm 0.00 in0.0 mm
05:50 AM 64.8°F18.2°C 50.6°F10.3°C 60% 1.6 mph N2.6 kmh N 4.5 mph7.2 kmh 29.91 in1012.9 mb 0.00 in0.0 mm 0.00 in0.0 mm 0.00 in0.0 mm
05:51 AM 64.8°F18.2°C 51.0°F10.6°C 61% 1.6 mph N2.6 kmh N 4.5 mph7.2 kmh 29.91 in1012.9 mb 0.00 in0.0 mm 0.00 in0.0 mm 0.00 in0.0 mm
05:52 AM 64.8°F18.2°C 51.0°F10.6°C 61% 0.7 mph N1.1 kmh N 4.5 mph7.2 kmh 29.92 in1013.2 mb 0.00 in0.0 mm 0.00 in0.0 mm 0.00 in0.0 mm
05:53 AM 64.8°F18.2°C 51.0°F10.6°C 61% 0.7 mph N1.1 kmh N 4.5 mph7.2 kmh 29.91 in1012.9 mb 0.00 in0.0 mm 0.00 in0.0 mm 0.00 in0.0 mm
05:54 AM 64.6°F18.1°C 50.8°F10.4°C 61% 2.2 mph N3.5 kmh N 4.5 mph7.2 kmh 29.92 in1013.2 mb 0.00 in0.0 mm 0.00 in0.0 mm 0.00 in0.0 mm
05:55 AM 64.6°F18.1°C 50.8°F10.4°C 61% 2.2 mph N3.5 kmh N 3.8 mph6.1 kmh 29.92 in1013.2 mb 0.00 in0.0 mm 0.00 in0.0 mm 0.00 in0.0 mm
05:56 AM 64.6°F18.1°C 50.8°F10.4°C 61% 2.2 mph N3.5 kmh N 3.1 mph5.0 kmh 29.92 in1013.2 mb 0.00 in0.0 mm 0.00 in0.0 mm 0.00 in0.0 mm
05:57 AM 64.6°F18.1°C 50.8°F10.4°C 61% 1.6 mph N2.6 kmh N 3.1 mph5.0 kmh 29.91 in1012.9 mb 0.00 in0.0 mm 0.00 in0.0 mm 0.00 in0.0 mm
05:58 AM 64.6°F18.1°C 50.8°F10.4°C 61% 1.6 mph N2.6 kmh N 3.1 mph5.0 kmh 29.92 in1013.2 mb 0.00 in0.0 mm 0.00 in0.0 mm 0.00 in0.0 mm
05:59 AM 64.6°F18.1°C 50.8°F10.4°C 61% 2.2 mph N3.5 kmh N 3.1 mph5.0 kmh 29.91 in1012.9 mb 0.00 in0.0 mm 0.00 in0.0 mm 0.00 in0.0 mm
06:00 AM 64.6°F18.1°C 50.8°F10.4°C 61% 2.2 mph N3.5 kmh N 3.1 mph5.0 kmh 29.92 in1013.2 mb 0.00 in0.0 mm 0.00 in0.0 mm 0.00 in0.0 mm
06:01 AM 64.6°F18.1°C 50.8°F10.4°C 61% 2.2 mph N3.5 kmh N 3.8 mph6.1 kmh 29.92 in1013.2 mb 0.00 in0.0 mm 0.00 in0.0 mm 0.00 in0.0 mm
06:02 AM 64.6°F18.1°C 50.8°F10.4°C 61% 1.6 mph NNW2.6 kmh NNW 3.8 mph6.1 kmh 29.91 in1012.9 mb 0.00 in0.0 mm 0.00 in0.0 mm 0.00 in0.0 mm
06:03 AM 64.6°F18.1°C 50.8°F10.4°C 61% 0.7 mph NNW1.1 kmh NNW 3.8 mph6.1 kmh 29.91 in1012.9 mb 0.00 in0.0 mm 0.00 in0.0 mm 0.00 in0.0 mm
06:04 AM 64.6°F18.1°C 50.8°F10.4°C 61% 0.7 mph NNW1.1 kmh NNW 3.8 mph6.1 kmh 29.91 in1012.9 mb 0.00 in0.0 mm 0.00 in0.0 mm 0.00 in0.0 mm
06:05 AM 64.6°F18.1°C 50.8°F10.4°C 61% 0.7 mph NNW1.1 kmh NNW 3.8 mph6.1 kmh 29.92 in1013.2 mb 0.00 in0.0 mm 0.00 in0.0 mm 0.00 in0.0 mm
06:06 AM 64.6°F18.1°C 50.8°F10.4°C 61% Calm Calm 3.8 mph6.1 kmh 29.91 in1012.9 mb 0.00 in0.0 mm 0.00 in0.0 mm 0.00 in0.0 mm
06:07 AM 64.6°F18.1°C 51.3°F10.7°C 62% 1.6 mph N2.6 kmh N 3.8 mph6.1 kmh 29.92 in1013.2 mb 0.00 in0.0 mm 0.00 in0.0 mm 0.00 in0.0 mm
06:08 AM 64.6°F18.1°C 51.3°F10.7°C 62% 1.6 mph N2.6 kmh N 3.8 mph6.1 kmh 29.92 in1013.2 mb 0.00 in0.0 mm 0.00 in0.0 mm 0.00 in0.0 mm
06:09 AM 64.6°F18.1°C 51.3°F10.7°C 62% 2.2 mph N3.5 kmh N 3.8 mph6.1 kmh 29.92 in1013.2 mb 0.00 in0.0 mm 0.00 in0.0 mm 0.00 in0.0 mm
06:10 AM 64.6°F18.1°C 51.3°F10.7°C 62% 1.6 mph N2.6 kmh N 3.8 mph6.1 kmh 29.91 in1012.9 mb 0.00 in0.0 mm 0.00 in0.0 mm 0.00 in0.0 mm
06:11 AM 64.6°F18.1°C 51.3°F10.7°C 62% 1.6 mph N2.6 kmh N 3.8 mph6.1 kmh 29.93 in1013.5 mb 0.00 in0.0 mm 0.00 in0.0 mm 0.00 in0.0 mm
06:12 AM 64.6°F18.1°C 51.3°F10.7°C 62% 1.6 mph N2.6 kmh N 3.8 mph6.1 kmh 29.92 in1013.2 mb 0.00 in0.0 mm 0.00 in0.0 mm 0.00 in0.0 mm
06:13 AM 64.6°F18.1°C 51.3°F10.7°C 62% 0.7 mph N1.1 kmh N 3.8 mph6.1 kmh 29.92 in1013.2 mb 0.00 in0.0 mm 0.00 in0.0 mm 0.00 in0.0 mm
06:14 AM 64.8°F18.2°C 51.9°F11.1°C 63% 0.7 mph N1.1 kmh N 3.8 mph6.1 kmh 29.92 in1013.2 mb 0.00 in0.0 mm 0.00 in0.0 mm 0.00 in0.0 mm
06:15 AM 64.9°F18.3°C 52.1°F11.2°C 63% 0.7 mph N1.1 kmh N 3.8 mph6.1 kmh 29.92 in1013.2 mb 0.00 in0.0 mm 0.00 in0.0 mm 0.00 in0.0 mm
06:16 AM 65.1°F18.4°C 52.2°F11.2°C 63% 2.2 mph N3.5 kmh N 3.8 mph6.1 kmh 29.93 in1013.5 mb 0.00 in0.0 mm 0.00 in0.0 mm 0.00 in0.0 mm
06:17 AM 65.3°F18.5°C 52.4°F11.3°C 63% 1.6 mph N2.6 kmh N 3.8 mph6.1 kmh 29.92 in1013.2 mb 0.00 in0.0 mm 0.00 in0.0 mm 0.00 in0.0 mm
06:18 AM 65.3°F18.5°C 52.4°F11.3°C 63% 1.6 mph N2.6 kmh N 3.8 mph6.1 kmh 29.92 in1013.2 mb 0.00 in0.0 mm 0.00 in0.0 mm 0.00 in0.0 mm
06:19 AM 65.3°F18.5°C 52.4°F11.3°C 63% 0.7 mph N1.1 kmh N 3.8 mph6.1 kmh 29.93 in1013.5 mb 0.00 in0.0 mm 0.00 in0.0 mm 0.00 in0.0 mm
06:20 AM 65.3°F18.5°C 52.4°F11.3°C 63% 1.6 mph N2.6 kmh N 3.8 mph6.1 kmh 29.92 in1013.2 mb 0.00 in0.0 mm 0.00 in0.0 mm 0.00 in0.0 mm
06:21 AM 65.3°F18.5°C 52.4°F11.3°C 63% 1.6 mph N2.6 kmh N 3.8 mph6.1 kmh 29.93 in1013.5 mb 0.00 in0.0 mm 0.00 in0.0 mm 0.00 in0.0 mm
06:22 AM 65.1°F18.4°C 52.2°F11.2°C 63% 2.2 mph N3.5 kmh N 4.5 mph7.2 kmh 29.92 in1013.2 mb 0.00 in0.0 mm 0.00 in0.0 mm 0.00 in0.0 mm
06:23 AM 65.1°F18.4°C 52.2°F11.2°C 63% 2.2 mph N3.5 kmh N 4.5 mph7.2 kmh 29.93 in1013.5 mb 0.00 in0.0 mm 0.00 in0.0 mm 0.00 in0.0 mm
06:24 AM 65.1°F18.4°C 52.2°F11.2°C 63% 1.6 mph NNW2.6 kmh NNW 4.5 mph7.2 kmh 29.93 in1013.5 mb 0.00 in0.0 mm 0.00 in0.0 mm 0.00 in0.0 mm
06:25 AM 65.1°F18.4°C 52.7°F11.5°C 64% 0.7 mph NNW1.1 kmh NNW 4.5 mph7.2 kmh 29.92 in1013.2 mb 0.00 in0.0 mm 0.00 in0.0 mm 0.00 in0.0 mm
06:26 AM 65.5°F18.6°C 53.0°F11.7°C 64% 1.6 mph NNW2.6 kmh NNW 4.5 mph7.2 kmh 29.92 in1013.2 mb 0.00 in0.0 mm 0.00 in0.0 mm 0.00 in0.0 mm
06:27 AM 65.8°F18.8°C 53.3°F11.8°C 64% 1.6 mph NNW2.6 kmh NNW 4.5 mph7.2 kmh 29.92 in1013.2 mb 0.00 in0.0 mm 0.00 in0.0 mm 0.00 in0.0 mm
06:28 AM 66.0°F18.9°C 53.5°F11.9°C 64% 1.6 mph NNW2.6 kmh NNW 4.5 mph7.2 kmh 29.93 in1013.5 mb 0.00 in0.0 mm 0.00 in0.0 mm 0.00 in0.0 mm
06:29 AM 66.2°F19.0°C 53.3°F11.8°C 63% 1.6 mph NNW2.6 kmh NNW 4.5 mph7.2 kmh 29.93 in1013.5 mb 0.00 in0.0 mm 0.00 in0.0 mm 0.00 in0.0 mm
06:30 AM 66.7°F19.3°C 53.3°F11.8°C 62% 1.6 mph NNW2.6 kmh NNW 4.5 mph7.2 kmh 29.92 in1013.2 mb 0.00 in0.0 mm 0.00 in0.0 mm 0.00 in0.0 mm
06:31 AM 66.9°F19.4°C 53.5°F11.9°C 62% 2.2 mph NNW3.5 kmh NNW 4.5 mph7.2 kmh 29.93 in1013.5 mb 0.00 in0.0 mm 0.00 in0.0 mm 0.00 in0.0 mm
06:32 AM 66.9°F19.4°C 53.5°F11.9°C 62% 1.6 mph N2.6 kmh N 4.5 mph7.2 kmh 29.93 in1013.5 mb 0.00 in0.0 mm 0.00 in0.0 mm 0.00 in0.0 mm
06:33 AM 67.3°F19.6°C 53.8°F12.1°C 62% 1.6 mph N2.6 kmh N 3.8 mph6.1 kmh 29.93 in1013.5 mb 0.00 in0.0 mm 0.00 in0.0 mm 0.00 in0.0 mm
06:34 AM 67.6°F19.8°C 53.7°F12.1°C 61% 2.2 mph N3.5 kmh N 3.8 mph6.1 kmh 29.93 in1013.5 mb 0.00 in0.0 mm 0.00 in0.0 mm 0.00 in0.0 mm
06:35 AM 67.8°F19.9°C 53.9°F12.2°C 61% 2.2 mph N3.5 kmh N 3.8 mph6.1 kmh 29.93 in1013.5 mb 0.00 in0.0 mm 0.00 in0.0 mm 0.00 in0.0 mm
06:36 AM 67.8°F19.9°C 53.9°F12.2°C 61% 1.6 mph N2.6 kmh N 3.8 mph6.1 kmh 29.93 in1013.5 mb 0.00 in0.0 mm 0.00 in0.0 mm 0.00 in0.0 mm
06:37 AM 67.8°F19.9°C 53.9°F12.2°C 61% 3.1 mph N5.0 kmh N 3.8 mph6.1 kmh 29.93 in1013.5 mb 0.00 in0.0 mm 0.00 in0.0 mm 0.00 in0.0 mm
06:38 AM 68.0°F20.0°C 53.6°F12.0°C 60% 1.6 mph N2.6 kmh N 3.8 mph6.1 kmh 29.93 in1013.5 mb 0.00 in0.0 mm 0.00 in0.0 mm 0.00 in0.0 mm
06:39 AM 68.0°F20.0°C 53.6°F12.0°C 60% 2.2 mph N3.5 kmh N 3.8 mph6.1 kmh 29.93 in1013.5 mb 0.00 in0.0 mm 0.00 in0.0 mm 0.00 in0.0 mm
06:40 AM 68.2°F20.1°C 53.8°F12.1°C 60% 1.6 mph N2.6 kmh N 3.8 mph6.1 kmh 29.93 in1013.5 mb 0.00 in0.0 mm 0.00 in0.0 mm 0.00 in0.0 mm
06:41 AM 68.2°F20.1°C 54.2°F12.3°C 61% 1.6 mph N2.6 kmh N 3.8 mph6.1 kmh 29.93 in1013.5 mb 0.00 in0.0 mm 0.00 in0.0 mm 0.00 in0.0 mm
06:42 AM 68.4°F20.2°C 54.4°F12.4°C 61% 1.6 mph N2.6 kmh N 3.8 mph6.1 kmh 29.93 in1013.5 mb 0.00 in0.0 mm 0.00 in0.0 mm 0.00 in0.0 mm
06:43 AM 68.5°F20.3°C 54.6°F12.6°C 61% 2.2 mph NNW3.5 kmh NNW 4.5 mph7.2 kmh 29.93 in1013.5 mb 0.00 in0.0 mm 0.00 in0.0 mm 0.00 in0.0 mm
06:44 AM 68.5°F20.3°C 54.6°F12.6°C 61% 3.8 mph NNW6.1 kmh NNW 4.5 mph7.2 kmh 29.93 in1013.5 mb 0.00 in0.0 mm 0.00 in0.0 mm 0.00 in0.0 mm
06:45 AM 68.7°F20.4°C 54.8°F12.7°C 61% 1.6 mph NW2.6 kmh NW 4.5 mph7.2 kmh 29.93 in1013.5 mb 0.00 in0.0 mm 0.00 in0.0 mm 0.00 in0.0 mm
06:46 AM 68.9°F20.5°C 54.9°F12.7°C 61% 3.1 mph NW5.0 kmh NW 4.5 mph7.2 kmh 29.93 in1013.5 mb 0.00 in0.0 mm 0.00 in0.0 mm 0.00 in0.0 mm
06:47 AM 68.9°F20.5°C 54.9°F12.7°C 61% 3.8 mph NW6.1 kmh NW 5.4 mph8.7 kmh 29.93 in1013.5 mb 0.00 in0.0 mm 0.00 in0.0 mm 0.00 in0.0 mm
06:48 AM 68.9°F20.5°C 54.9°F12.7°C 61% 2.2 mph NW3.5 kmh NW 5.4 mph8.7 kmh 29.93 in1013.5 mb 0.00 in0.0 mm 0.00 in0.0 mm 0.00 in0.0 mm
06:49 AM 68.9°F20.5°C 55.4°F13.0°C 62% 3.1 mph NW5.0 kmh NW 6.0 mph9.7 kmh 29.93 in1013.5 mb 0.00 in0.0 mm 0.00 in0.0 mm 0.00 in0.0 mm
06:50 AM 68.9°F20.5°C 55.4°F13.0°C 62% 3.1 mph NW5.0 kmh NW 6.0 mph9.7 kmh 29.93 in1013.5 mb 0.00 in0.0 mm 0.00 in0.0 mm 0.00 in0.0 mm
06:51 AM 68.9°F20.5°C 55.4°F13.0°C 62% 2.2 mph NW3.5 kmh NW 6.0 mph9.7 kmh 29.94 in1013.9 mb 0.00 in0.0 mm 0.00 in0.0 mm 0.00 in0.0 mm
06:52 AM 68.9°F20.5°C 55.4°F13.0°C 62% 3.8 mph NNW6.1 kmh NNW 6.0 mph9.7 kmh 29.94 in1013.9 mb 0.00 in0.0 mm 0.00 in0.0 mm 0.00 in0.0 mm
06:53 AM 68.9°F20.5°C 55.4°F13.0°C 62% 3.1 mph NNW5.0 kmh NNW 6.0 mph9.7 kmh 29.93 in1013.5 mb 0.00 in0.0 mm 0.00 in0.0 mm 0.00 in0.0 mm
06:54 AM 68.9°F20.5°C 55.8°F13.2°C 63% 4.5 mph NNW7.2 kmh NNW 6.0 mph9.7 kmh 29.94 in1013.9 mb 0.00 in0.0 mm 0.00 in0.0 mm 0.00 in0.0 mm
06:55 AM 68.9°F20.5°C 55.8°F13.2°C 63% 3.1 mph N5.0 kmh N 6.0 mph9.7 kmh 29.93 in1013.5 mb 0.00 in0.0 mm 0.00 in0.0 mm 0.00 in0.0 mm
06:56 AM 68.7°F20.4°C 55.6°F13.1°C 63% 3.8 mph N6.1 kmh N 6.0 mph9.7 kmh 29.93 in1013.5 mb 0.00 in0.0 mm 0.00 in0.0 mm 0.00 in0.0 mm
06:57 AM 68.7°F20.4°C 55.6°F13.1°C 63% 2.2 mph N3.5 kmh N 6.0 mph9.7 kmh 29.93 in1013.5 mb 0.00 in0.0 mm 0.00 in0.0 mm 0.00 in0.0 mm
06:58 AM 68.9°F20.5°C 55.8°F13.2°C 63% 3.8 mph N6.1 kmh N 6.0 mph9.7 kmh 29.93 in1013.5 mb 0.00 in0.0 mm 0.00 in0.0 mm 0.00 in0.0 mm
06:59 AM 68.9°F20.5°C 55.8°F13.2°C 63% 3.8 mph N6.1 kmh N 6.0 mph9.7 kmh 29.93 in1013.5 mb 0.00 in0.0 mm 0.00 in0.0 mm 0.00 in0.0 mm
07:00 AM 69.1°F20.6°C 56.0°F13.3°C 63% 3.8 mph N6.1 kmh N 6.0 mph9.7 kmh 29.94 in1013.9 mb 0.00 in0.0 mm 0.00 in0.0 mm 0.00 in0.0 mm
07:01 AM 69.1°F20.6°C 56.0°F13.3°C 63% 3.8 mph N6.1 kmh N 6.0 mph9.7 kmh 29.93 in1013.5 mb 0.00 in0.0 mm 0.00 in0.0 mm 0.00 in0.0 mm
07:02 AM 69.1°F20.6°C 56.0°F13.3°C 63% 3.8 mph N6.1 kmh N 6.0 mph9.7 kmh 29.94 in1013.9 mb 0.00 in0.0 mm 0.00 in0.0 mm 0.00 in0.0 mm
07:03 AM 69.3°F20.7°C 56.2°F13.4°C 63% 3.8 mph N6.1 kmh N 6.0 mph9.7 kmh 29.94 in1013.9 mb 0.00 in0.0 mm 0.00 in0.0 mm 0.00 in0.0 mm
07:04 AM 69.3°F20.7°C 56.2°F13.4°C 63% 3.1 mph N5.0 kmh N 6.0 mph9.7 kmh 29.94 in1013.9 mb 0.00 in0.0 mm 0.00 in0.0 mm 0.00 in0.0 mm
07:05 AM 69.3°F20.7°C 56.2°F13.4°C 63% 3.8 mph N6.1 kmh N 6.9 mph11.1 kmh 29.94 in1013.9 mb 0.00 in0.0 mm 0.00 in0.0 mm 0.00 in0.0 mm
07:06 AM 69.4°F20.8°C 56.3°F13.5°C 63% 3.1 mph N5.0 kmh N 6.9 mph11.1 kmh 29.93 in1013.5 mb 0.00 in0.0 mm 0.00 in0.0 mm 0.00 in0.0 mm
07:07 AM 69.4°F20.8°C 56.3°F13.5°C 63% 3.8 mph N6.1 kmh N 6.9 mph11.1 kmh 29.94 in1013.9 mb 0.00 in0.0 mm 0.00 in0.0 mm 0.00 in0.0 mm
07:08 AM 69.4°F20.8°C 56.3°F13.5°C 63% 3.8 mph N6.1 kmh N 6.9 mph11.1 kmh 29.94 in1013.9 mb 0.00 in0.0 mm 0.00 in0.0 mm 0.00 in0.0 mm
07:09 AM 69.4°F20.8°C 56.3°F13.5°C 63% 3.1 mph N5.0 kmh N 6.9 mph11.1 kmh 29.93 in1013.5 mb 0.00 in0.0 mm 0.00 in0.0 mm 0.00 in0.0 mm
07:10 AM 69.6°F20.9°C 56.5°F13.6°C 63% 4.5 mph N7.2 kmh N 6.9 mph11.1 kmh 29.94 in1013.9 mb 0.00 in0.0 mm 0.00 in0.0 mm 0.00 in0.0 mm
07:11 AM 69.6°F20.9°C 56.5°F13.6°C 63% 3.8 mph N6.1 kmh N 6.9 mph11.1 kmh 29.94 in1013.9 mb 0.00 in0.0 mm 0.00 in0.0 mm 0.00 in0.0 mm
07:12 AM 69.6°F20.9°C 56.5°F13.6°C 63% 3.8 mph N6.1 kmh N 6.9 mph11.1 kmh 29.93 in1013.5 mb 0.00 in0.0 mm 0.00 in0.0 mm 0.00 in0.0 mm
07:13 AM 69.8°F21.0°C 56.2°F13.4°C 62% 4.5 mph N7.2 kmh N 6.9 mph11.1 kmh 29.94 in1013.9 mb 0.00 in0.0 mm 0.00 in0.0 mm 0.00 in0.0 mm
07:14 AM 69.8°F21.0°C 56.2°F13.4°C 62% 4.5 mph N7.2 kmh N 7.6 mph12.2 kmh 29.94 in1013.9 mb 0.00 in0.0 mm 0.00 in0.0 mm 0.00 in0.0 mm
07:15 AM 69.8°F21.0°C 56.2°F13.4°C 62% 5.4 mph N8.7 kmh N 7.6 mph12.2 kmh 29.94 in1013.9 mb 0.00 in0.0 mm 0.00 in0.0 mm 0.00 in0.0 mm
07:16 AM 69.8°F21.0°C 56.2°F13.4°C 62% 6.9 mph N11.1 kmh N 7.6 mph12.2 kmh 29.94 in1013.9 mb 0.00 in0.0 mm 0.00 in0.0 mm 0.00 in0.0 mm
07:17 AM 69.8°F21.0°C 56.2°F13.4°C 62% 4.5 mph N7.2 kmh N 7.6 mph12.2 kmh 29.93 in1013.5 mb 0.00 in0.0 mm 0.00 in0.0 mm 0.00 in0.0 mm
07:18 AM 69.8°F21.0°C 56.2°F13.4°C 62% 6.0 mph N9.7 kmh N 9.8 mph15.8 kmh 29.94 in1013.9 mb 0.00 in0.0 mm 0.00 in0.0 mm 0.00 in0.0 mm
07:19 AM 69.8°F21.0°C 55.8°F13.2°C 61% 5.4 mph NNW8.7 kmh NNW 9.8 mph15.8 kmh 29.93 in1013.5 mb 0.00 in0.0 mm 0.00 in0.0 mm 0.00 in0.0 mm
07:20 AM 69.8°F21.0°C 55.8°F13.2°C 61% 4.5 mph NNW7.2 kmh NNW 9.8 mph15.8 kmh 29.94 in1013.9 mb 0.00 in0.0 mm 0.00 in0.0 mm 0.00 in0.0 mm
07:21 AM 69.8°F21.0°C 55.8°F13.2°C 61% 4.5 mph NNW7.2 kmh NNW 9.8 mph15.8 kmh 29.94 in1013.9 mb 0.00 in0.0 mm 0.00 in0.0 mm 0.00 in0.0 mm
07:22 AM 70.0°F21.1°C 55.9°F13.3°C 61% 3.8 mph NNW6.1 kmh NNW 9.8 mph15.8 kmh 29.93 in1013.5 mb 0.00 in0.0 mm 0.00 in0.0 mm 0.00 in0.0 mm
07:23 AM 70.0°F21.1°C 55.9°F13.3°C 61% 6.9 mph N11.1 kmh N 9.8 mph15.8 kmh 29.94 in1013.9 mb 0.00 in0.0 mm 0.00 in0.0 mm 0.00 in0.0 mm
07:24 AM 70.2°F21.2°C 56.1°F13.4°C 61% 4.5 mph N7.2 kmh N 9.8 mph15.8 kmh 29.94 in1013.9 mb 0.00 in0.0 mm 0.00 in0.0 mm 0.00 in0.0 mm
07:25 AM 70.2°F21.2°C 55.7°F13.2°C 60% 4.5 mph N7.2 kmh N 9.8 mph15.8 kmh 29.93 in1013.5 mb 0.00 in0.0 mm 0.00 in0.0 mm 0.00 in0.0 mm
07:26 AM 70.3°F21.3°C 55.8°F13.2°C 60% 5.4 mph N8.7 kmh N 9.8 mph15.8 kmh 29.93 in1013.5 mb 0.00 in0.0 mm 0.00 in0.0 mm 0.00 in0.0 mm
07:27 AM 70.3°F21.3°C 55.8°F13.2°C 60% 3.8 mph N6.1 kmh N 9.8 mph15.8 kmh 29.93 in1013.5 mb 0.00 in0.0 mm 0.00 in0.0 mm 0.00 in0.0 mm
07:28 AM 70.3°F21.3°C 55.8°F13.2°C 60% 4.5 mph N7.2 kmh N 9.8 mph15.8 kmh 29.94 in1013.9 mb 0.00 in0.0 mm 0.00 in0.0 mm 0.00 in0.0 mm
07:29 AM 70.5°F21.4°C 56.0°F13.3°C 60% 3.1 mph N5.0 kmh N 9.8 mph15.8 kmh 29.93 in1013.5 mb 0.00 in0.0 mm 0.00 in0.0 mm 0.00 in0.0 mm
07:30 AM 70.9°F21.6°C 56.8°F13.8°C 61% 4.5 mph N7.2 kmh N 9.8 mph15.8 kmh 29.94 in1013.9 mb 0.00 in0.0 mm 0.00 in0.0 mm 0.00 in0.0 mm
07:31 AM 70.9°F21.6°C 56.3°F13.5°C 60% 5.4 mph N8.7 kmh N 11.4 mph18.3 kmh 29.94 in1013.9 mb 0.00 in0.0 mm 0.00 in0.0 mm 0.00 in0.0 mm
07:32 AM 71.1°F21.7°C 56.5°F13.6°C 60% 7.6 mph N12.2 kmh N 11.4 mph18.3 kmh 29.94 in1013.9 mb 0.00 in0.0 mm 0.00 in0.0 mm 0.00 in0.0 mm
07:33 AM 71.1°F21.7°C 56.0°F13.3°C 59% 5.4 mph N8.7 kmh N 11.4 mph18.3 kmh 29.94 in1013.9 mb 0.00 in0.0 mm 0.00 in0.0 mm 0.00 in0.0 mm
07:34 AM 70.9°F21.6°C 55.9°F13.3°C 59% 7.6 mph N12.2 kmh N 11.4 mph18.3 kmh 29.94 in1013.9 mb 0.00 in0.0 mm 0.00 in0.0 mm 0.00 in0.0 mm
07:35 AM 70.9°F21.6°C 55.9°F13.3°C 59% 3.8 mph N6.1 kmh N 11.4 mph18.3 kmh 29.93 in1013.5 mb 0.00 in0.0 mm 0.00 in0.0 mm 0.00 in0.0 mm
07:36 AM 71.1°F21.7°C 56.0°F13.3°C 59% 6.9 mph N11.1 kmh N 11.4 mph18.3 kmh 29.94 in1013.9 mb 0.00 in0.0 mm 0.00 in0.0 mm 0.00 in0.0 mm
07:37 AM 71.1°F21.7°C 55.6°F13.1°C 58% 5.4 mph N8.7 kmh N 11.4 mph18.3 kmh 29.94 in1013.9 mb 0.00 in0.0 mm 0.00 in0.0 mm 0.00 in0.0 mm
07:38 AM 71.1°F21.7°C 55.6°F13.1°C 58% 5.4 mph N8.7 kmh N 11.4 mph18.3 kmh 29.94 in1013.9 mb 0.00 in0.0 mm 0.00 in0.0 mm 0.00 in0.0 mm
07:39 AM 71.2°F21.8°C 55.7°F13.2°C 58% 6.0 mph N9.7 kmh N 11.4 mph18.3 kmh 29.93 in1013.5 mb 0.00 in0.0 mm 0.00 in0.0 mm 0.00 in0.0 mm
07:40 AM 71.2°F21.8°C 55.3°F12.9°C 57% 4.5 mph N7.2 kmh N 11.4 mph18.3 kmh 29.93 in1013.5 mb 0.00 in0.0 mm 0.00 in0.0 mm 0.00 in0.0 mm
07:41 AM 71.2°F21.8°C 55.3°F12.9°C 57% 4.5 mph N7.2 kmh N 11.4 mph18.3 kmh 29.93 in1013.5 mb 0.00 in0.0 mm 0.00 in0.0 mm 0.00 in0.0 mm
07:42 AM 71.6°F22.0°C 55.1°F12.8°C 56% 6.0 mph N9.7 kmh N 11.4 mph18.3 kmh 29.93 in1013.5 mb 0.00 in0.0 mm 0.00 in0.0 mm 0.00 in0.0 mm
07:43 AM 71.6°F22.0°C 55.1°F12.8°C 56% 7.6 mph N12.2 kmh N 11.4 mph18.3 kmh 29.94 in1013.9 mb 0.00 in0.0 mm 0.00 in0.0 mm 0.00 in0.0 mm
07:44 AM 71.6°F22.0°C 54.6°F12.6°C 55% 5.4 mph N8.7 kmh N 11.4 mph18.3 kmh 29.94 in1013.9 mb 0.00 in0.0 mm 0.00 in0.0 mm 0.00 in0.0 mm
07:45 AM 71.6°F22.0°C 54.6°F12.6°C 55% 4.5 mph N7.2 kmh N 11.4 mph18.3 kmh 29.94 in1013.9 mb 0.00 in0.0 mm 0.00 in0.0 mm 0.00 in0.0 mm
07:46 AM 71.8°F22.1°C 54.8°F12.7°C 55% 6.0 mph N9.7 kmh N 11.4 mph18.3 kmh 29.94 in1013.9 mb 0.00 in0.0 mm 0.00 in0.0 mm 0.00 in0.0 mm
07:47 AM 71.8°F22.1°C 54.8°F12.7°C 55% 7.6 mph N12.2 kmh N 11.4 mph18.3 kmh 29.94 in1013.9 mb 0.00 in0.0 mm 0.00 in0.0 mm 0.00 in0.0 mm
07:48 AM 71.8°F22.1°C 54.8°F12.7°C 55% 6.0 mph N9.7 kmh N 11.4 mph18.3 kmh 29.94 in1013.9 mb 0.00 in0.0 mm 0.00 in0.0 mm 0.00 in0.0 mm
07:49 AM 71.8°F22.1°C 54.8°F12.7°C 55% 4.5 mph N7.2 kmh N 11.4 mph18.3 kmh 29.94 in1013.9 mb 0.00 in0.0 mm 0.00 in0.0 mm 0.00 in0.0 mm
07:50 AM 72.0°F22.2°C 54.9°F12.7°C 55% 6.0 mph N9.7 kmh N 11.4 mph18.3 kmh 29.93 in1013.5 mb 0.00 in0.0 mm 0.00 in0.0 mm 0.00 in0.0 mm
07:51 AM 72.0°F22.2°C 54.9°F12.7°C 55% 4.5 mph N7.2 kmh N 11.4 mph18.3 kmh 29.93 in1013.5 mb 0.00 in0.0 mm 0.00 in0.0 mm 0.00 in0.0 mm
07:52 AM 72.1°F22.3°C 55.1°F12.8°C 55% 7.6 mph N12.2 kmh N 12.1 mph19.5 kmh 29.94 in1013.9 mb 0.00 in0.0 mm 0.00 in0.0 mm 0.00 in0.0 mm
07:53 AM 72.0°F22.2°C 54.4°F12.4°C 54% 8.3 mph N13.4 kmh N 12.1 mph19.5 kmh 29.93 in1013.5 mb 0.00 in0.0 mm 0.00 in0.0 mm 0.00 in0.0 mm
07:54 AM 72.0°F22.2°C 53.9°F12.2°C 53% 5.4 mph N8.7 kmh N 12.1 mph19.5 kmh 29.94 in1013.9 mb 0.00 in0.0 mm 0.00 in0.0 mm 0.00 in0.0 mm
07:55 AM 72.0°F22.2°C 53.9°F12.2°C 53% 9.2 mph N14.8 kmh N 12.1 mph19.5 kmh 29.94 in1013.9 mb 0.00 in0.0 mm 0.00 in0.0 mm 0.00 in0.0 mm
07:56 AM 72.0°F22.2°C 53.9°F12.2°C 53% 6.0 mph N9.7 kmh N 12.1 mph19.5 kmh 29.94 in1013.9 mb 0.00 in0.0 mm 0.00 in0.0 mm 0.00 in0.0 mm
07:57 AM 72.0°F22.2°C 53.9°F12.2°C 53% 6.0 mph N9.7 kmh N 12.1 mph19.5 kmh 29.94 in1013.9 mb 0.00 in0.0 mm 0.00 in0.0 mm 0.00 in0.0 mm
07:58 AM 72.1°F22.3°C 54.1°F12.3°C 53% 5.4 mph N8.7 kmh N 12.1 mph19.5 kmh 29.94 in1013.9 mb 0.00 in0.0 mm 0.00 in0.0 mm 0.00 in0.0 mm
07:59 AM 72.1°F22.3°C 54.1°F12.3°C 53% 3.8 mph N6.1 kmh N 12.1 mph19.5 kmh 29.95 in1014.2 mb 0.00 in0.0 mm 0.00 in0.0 mm 0.00 in0.0 mm
08:00 AM 72.3°F22.4°C 54.3°F12.4°C 53% 5.4 mph N8.7 kmh N 12.1 mph19.5 kmh 29.94 in1013.9 mb 0.00 in0.0 mm 0.00 in0.0 mm 0.00 in0.0 mm
08:01 AM 72.5°F22.5°C 54.4°F12.4°C 53% 6.0 mph N9.7 kmh N 12.1 mph19.5 kmh 29.94 in1013.9 mb 0.00 in0.0 mm 0.00 in0.0 mm 0.00 in0.0 mm
08:02 AM 72.7°F22.6°C 54.1°F12.3°C 52% 8.3 mph N13.4 kmh N 12.1 mph19.5 kmh 29.94 in1013.9 mb 0.00 in0.0 mm 0.00 in0.0 mm 0.00 in0.0 mm
08:03 AM 72.7°F22.6°C 54.1°F12.3°C 52% 8.3 mph N13.4 kmh N 12.1 mph19.5 kmh 29.94 in1013.9 mb 0.00 in0.0 mm 0.00 in0.0 mm 0.00 in0.0 mm
08:04 AM 72.5°F22.5°C 53.9°F12.2°C 52% 7.6 mph N12.2 kmh N 12.1 mph19.5 kmh 29.94 in1013.9 mb 0.00 in0.0 mm 0.00 in0.0 mm 0.00 in0.0 mm
08:05 AM 72.5°F22.5°C 53.9°F12.2°C 52% 6.9 mph N11.1 kmh N 12.1 mph19.5 kmh 29.94 in1013.9 mb 0.00 in0.0 mm 0.00 in0.0 mm 0.00 in0.0 mm
08:06 AM 72.5°F22.5°C 53.4°F11.9°C 51% 4.5 mph N7.2 kmh N 12.1 mph19.5 kmh 29.94 in1013.9 mb 0.00 in0.0 mm 0.00 in0.0 mm 0.00 in0.0 mm
08:07 AM 72.5°F22.5°C 53.4°F11.9°C 51% 4.5 mph N7.2 kmh N 12.1 mph19.5 kmh 29.94 in1013.9 mb 0.00 in0.0 mm 0.00 in0.0 mm 0.00 in0.0 mm
08:08 AM 72.5°F22.5°C 53.4°F11.9°C 51% 6.0 mph N9.7 kmh N 12.1 mph19.5 kmh 29.94 in1013.9 mb 0.00 in0.0 mm 0.00 in0.0 mm 0.00 in0.0 mm
08:09 AM 72.7°F22.6°C 54.1°F12.3°C 52% 6.9 mph N11.1 kmh N 12.1 mph19.5 kmh 29.94 in1013.9 mb 0.00 in0.0 mm 0.00 in0.0 mm 0.00 in0.0 mm
08:10 AM 72.9°F22.7°C 54.2°F12.3°C 52% 4.5 mph N7.2 kmh N 12.1 mph19.5 kmh 29.94 in1013.9 mb 0.00 in0.0 mm 0.00 in0.0 mm 0.00 in0.0 mm
08:11 AM 72.9°F22.7°C 54.2°F12.3°C 52% 6.0 mph N9.7 kmh N 12.1 mph19.5 kmh 29.94 in1013.9 mb 0.00 in0.0 mm 0.00 in0.0 mm 0.00 in0.0 mm
08:12 AM 72.9°F22.7°C 54.2°F12.3°C 52% 6.0 mph N9.7 kmh N 12.1 mph19.5 kmh 29.95 in1014.2 mb 0.00 in0.0 mm 0.00 in0.0 mm 0.00 in0.0 mm
08:13 AM 73.0°F22.8°C 53.9°F12.2°C 51% 7.6 mph N12.2 kmh N 12.1 mph19.5 kmh 29.95 in1014.2 mb 0.00 in0.0 mm 0.00 in0.0 mm 0.00 in0.0 mm
08:14 AM 73.0°F22.8°C 53.9°F12.2°C 51% 7.6 mph N12.2 kmh N 12.1 mph19.5 kmh 29.95 in1014.2 mb 0.00 in0.0 mm 0.00 in0.0 mm 0.00 in0.0 mm
08:15 AM 73.0°F22.8°C 53.3°F11.8°C 50% 9.2 mph N14.8 kmh N 14.5 mph23.3 kmh 29.95 in1014.2 mb 0.00 in0.0 mm 0.00 in0.0 mm 0.00 in0.0 mm
08:16 AM 72.9°F22.7°C 52.6°F11.4°C 49% 4.5 mph N7.2 kmh N 14.5 mph23.3 kmh 29.94 in1013.9 mb 0.00 in0.0 mm 0.00 in0.0 mm 0.00 in0.0 mm
08:17 AM 72.9°F22.7°C 52.6°F11.4°C 49% 4.5 mph N7.2 kmh N 14.5 mph23.3 kmh 29.94 in1013.9 mb 0.00 in0.0 mm 0.00 in0.0 mm 0.00 in0.0 mm
08:18 AM 73.0°F22.8°C 53.9°F12.2°C 51% 8.3 mph N13.4 kmh N 14.5 mph23.3 kmh 29.95 in1014.2 mb 0.00 in0.0 mm 0.00 in0.0 mm 0.00 in0.0 mm
08:19 AM 73.0°F22.8°C 52.8°F11.6°C 49% 6.9 mph N11.1 kmh N 14.5 mph23.3 kmh 29.95 in1014.2 mb 0.00 in0.0 mm 0.00 in0.0 mm 0.00 in0.0 mm
08:20 AM 73.0°F22.8°C 52.8°F11.6°C 49% 4.5 mph N7.2 kmh N 14.5 mph23.3 kmh 29.95 in1014.2 mb 0.00 in0.0 mm 0.00 in0.0 mm 0.00 in0.0 mm
08:21 AM 73.0°F22.8°C 52.8°F11.6°C 49% 7.6 mph NNW12.2 kmh NNW 14.5 mph23.3 kmh 29.94 in1013.9 mb 0.00 in0.0 mm 0.00 in0.0 mm 0.00 in0.0 mm
08:22 AM 73.0°F22.8°C 52.8°F11.6°C 49% 6.0 mph NNW9.7 kmh NNW 14.5 mph23.3 kmh 29.95 in1014.2 mb 0.00 in0.0 mm 0.00 in0.0 mm 0.00 in0.0 mm
08:23 AM 73.2°F22.9°C 52.9°F11.6°C 49% 8.3 mph NNW13.4 kmh NNW 14.5 mph23.3 kmh 29.95 in1014.2 mb 0.00 in0.0 mm 0.00 in0.0 mm 0.00 in0.0 mm
08:24 AM 73.2°F22.9°C 52.9°F11.6°C 49% 6.9 mph NNW11.1 kmh NNW 14.5 mph23.3 kmh 29.95 in1014.2 mb 0.00 in0.0 mm 0.00 in0.0 mm 0.00 in0.0 mm
08:25 AM 73.0°F22.8°C 52.8°F11.6°C 49% 6.0 mph NW9.7 kmh NW 14.5 mph23.3 kmh 29.95 in1014.2 mb 0.00 in0.0 mm 0.00 in0.0 mm 0.00 in0.0 mm
08:26 AM 73.2°F22.9°C 53.5°F11.9°C 50% 8.3 mph NW13.4 kmh NW 13.0 mph20.9 kmh 29.95 in1014.2 mb 0.00 in0.0 mm 0.00 in0.0 mm 0.00 in0.0 mm
08:27 AM 73.2°F22.9°C 52.9°F11.6°C 49% 8.3 mph NW13.4 kmh NW 13.0 mph20.9 kmh 29.95 in1014.2 mb 0.00 in0.0 mm 0.00 in0.0 mm 0.00 in0.0 mm
08:28 AM 73.2°F22.9°C 52.9°F11.6°C 49% 6.9 mph NW11.1 kmh NW 13.0 mph20.9 kmh 29.95 in1014.2 mb 0.00 in0.0 mm 0.00 in0.0 mm 0.00 in0.0 mm
08:29 AM 73.2°F22.9°C 52.9°F11.6°C 49% 8.3 mph NW13.4 kmh NW 13.0 mph20.9 kmh 29.95 in1014.2 mb 0.00 in0.0 mm 0.00 in0.0 mm 0.00 in0.0 mm
08:30 AM 73.2°F22.9°C 52.4°F11.3°C 48% 7.6 mph NW12.2 kmh NW 13.0 mph20.9 kmh 29.95 in1014.2 mb 0.00 in0.0 mm 0.00 in0.0 mm 0.00 in0.0 mm
08:31 AM 73.0°F22.8°C 52.2°F11.2°C 48% 7.6 mph NNW12.2 kmh NNW 13.0 mph20.9 kmh 29.95 in1014.2 mb 0.00 in0.0 mm 0.00 in0.0 mm 0.00 in0.0 mm
08:32 AM 73.2°F22.9°C 52.9°F11.6°C 49% 8.3 mph NNW13.4 kmh NNW 13.0 mph20.9 kmh 29.94 in1013.9 mb 0.00 in0.0 mm 0.00 in0.0 mm 0.00 in0.0 mm
08:33 AM 73.2°F22.9°C 52.4°F11.3°C 48% 7.6 mph NNW12.2 kmh NNW 13.6 mph21.9 kmh 29.95 in1014.2 mb 0.00 in0.0 mm 0.00 in0.0 mm 0.00 in0.0 mm
08:34 AM 73.2°F22.9°C 52.9°F11.6°C 49% 6.0 mph N9.7 kmh N 13.6 mph21.9 kmh 29.95 in1014.2 mb 0.00 in0.0 mm 0.00 in0.0 mm 0.00 in0.0 mm
08:35 AM 73.2°F22.9°C 52.9°F11.6°C 49% 6.0 mph N9.7 kmh N 13.6 mph21.9 kmh 29.95 in1014.2 mb 0.00 in0.0 mm 0.00 in0.0 mm 0.00 in0.0 mm
08:36 AM 73.2°F22.9°C 52.9°F11.6°C 49% 9.8 mph N15.8 kmh N 13.6 mph21.9 kmh 29.95 in1014.2 mb 0.00 in0.0 mm 0.00 in0.0 mm 0.00 in0.0 mm
08:37 AM 73.2°F22.9°C 52.9°F11.6°C 49% 11.4 mph N18.3 kmh N 14.5 mph23.3 kmh 29.95 in1014.2 mb 0.00 in0.0 mm 0.00 in0.0 mm 0.00 in0.0 mm
08:38 AM 73.2°F22.9°C 52.9°F11.6°C 49% 7.6 mph N12.2 kmh N 14.5 mph23.3 kmh 29.95 in1014.2 mb 0.00 in0.0 mm 0.00 in0.0 mm 0.00 in0.0 mm
08:39 AM 73.2°F22.9°C 52.9°F11.6°C 49% 9.2 mph N14.8 kmh N 14.5 mph23.3 kmh 29.95 in1014.2 mb 0.00 in0.0 mm 0.00 in0.0 mm 0.00 in0.0 mm
08:40 AM 73.2°F22.9°C 52.9°F11.6°C 49% 9.8 mph N15.8 kmh N 14.5 mph23.3 kmh 29.95 in1014.2 mb 0.00 in0.0 mm 0.00 in0.0 mm 0.00 in0.0 mm
08:41 AM 73.2°F22.9°C 52.9°F11.6°C 49% 8.3 mph N13.4 kmh N 14.5 mph23.3 kmh 29.95 in1014.2 mb 0.00 in0.0 mm 0.00 in0.0 mm 0.00 in0.0 mm
08:42 AM 73.2°F22.9°C 52.9°F11.6°C 49% 6.0 mph N9.7 kmh N 14.5 mph23.3 kmh 29.95 in1014.2 mb 0.00 in0.0 mm 0.00 in0.0 mm 0.00 in0.0 mm
08:43 AM 73.4°F23.0°C 53.1°F11.7°C 49% 8.3 mph N13.4 kmh N 14.5 mph23.3 kmh 29.95 in1014.2 mb 0.00 in0.0 mm 0.00 in0.0 mm 0.00 in0.0 mm
08:44 AM 73.6°F23.1°C 52.7°F11.5°C 48% 5.4 mph N8.7 kmh N 14.5 mph23.3 kmh 29.95 in1014.2 mb 0.00 in0.0 mm 0.00 in0.0 mm 0.00 in0.0 mm
08:45 AM 73.6°F23.1°C 52.7°F11.5°C 48% 5.4 mph N8.7 kmh N 14.5 mph23.3 kmh 29.95 in1014.2 mb 0.00 in0.0 mm 0.00 in0.0 mm 0.00 in0.0 mm
08:46 AM 73.9°F23.3°C 53.0°F11.7°C 48% 6.0 mph N9.7 kmh N 14.5 mph23.3 kmh 29.95 in1014.2 mb 0.00 in0.0 mm 0.00 in0.0 mm 0.00 in0.0 mm
08:47 AM 73.9°F23.3°C 53.0°F11.7°C 48% 8.3 mph N13.4 kmh N 13.6 mph21.9 kmh 29.95 in1014.2 mb 0.00 in0.0 mm 0.00 in0.0 mm 0.00 in0.0 mm
08:48 AM 74.1°F23.4°C 53.2°F11.8°C 48% 8.3 mph N13.4 kmh N 13.6 mph21.9 kmh 29.95 in1014.2 mb 0.00 in0.0 mm 0.00 in0.0 mm 0.00 in0.0 mm
08:49 AM 74.1°F23.4°C 52.6°F11.4°C 47% 9.8 mph N15.8 kmh N 15.2 mph24.5 kmh 29.95 in1014.2 mb 0.00 in0.0 mm 0.00 in0.0 mm 0.00 in0.0 mm
08:50 AM 73.9°F23.3°C 52.5°F11.4°C 47% 8.3 mph N13.4 kmh N 15.2 mph24.5 kmh 29.94 in1013.9 mb 0.00 in0.0 mm 0.00 in0.0 mm 0.00 in0.0 mm
08:51 AM 73.9°F23.3°C 52.5°F11.4°C 47% 6.9 mph N11.1 kmh N 15.2 mph24.5 kmh 29.95 in1014.2 mb 0.00 in0.0 mm 0.00 in0.0 mm 0.00 in0.0 mm
08:52 AM 73.9°F23.3°C 52.5°F11.4°C 47% 9.2 mph N14.8 kmh N 15.2 mph24.5 kmh 29.95 in1014.2 mb 0.00 in0.0 mm 0.00 in0.0 mm 0.00 in0.0 mm
08:53 AM 74.1°F23.4°C 52.6°F11.4°C 47% 10.7 mph N17.2 kmh N 15.2 mph24.5 kmh 29.95 in1014.2 mb 0.00 in0.0 mm 0.00 in0.0 mm 0.00 in0.0 mm
08:54 AM 73.9°F23.3°C 51.9°F11.1°C 46% 6.0 mph N9.7 kmh N 15.2 mph24.5 kmh 29.95 in1014.2 mb 0.00 in0.0 mm 0.00 in0.0 mm 0.00 in0.0 mm
08:55 AM 73.8°F23.2°C 51.7°F10.9°C 46% 5.4 mph N8.7 kmh N 15.2 mph24.5 kmh 29.95 in1014.2 mb 0.00 in0.0 mm 0.00 in0.0 mm 0.00 in0.0 mm
08:56 AM 73.9°F23.3°C 51.9°F11.1°C 46% 6.9 mph N11.1 kmh N 15.2 mph24.5 kmh 29.95 in1014.2 mb 0.00 in0.0 mm 0.00 in0.0 mm 0.00 in0.0 mm
08:57 AM 73.9°F23.3°C 51.9°F11.1°C 46% 7.6 mph N12.2 kmh N 15.2 mph24.5 kmh 29.95 in1014.2 mb 0.00 in0.0 mm 0.00 in0.0 mm 0.00 in0.0 mm
08:58 AM 74.1°F23.4°C 51.5°F10.8°C 45% 10.7 mph N17.2 kmh N 18.3 mph29.5 kmh 29.94 in1013.9 mb 0.00 in0.0 mm 0.00 in0.0 mm 0.00 in0.0 mm
08:59 AM 74.1°F23.4°C 51.5°F10.8°C 45% 7.6 mph N12.2 kmh N 18.3 mph29.5 kmh 29.95 in1014.2 mb 0.00 in0.0 mm 0.00 in0.0 mm 0.00 in0.0 mm
09:00 AM 74.1°F23.4°C 51.5°F10.8°C 45% 8.3 mph N13.4 kmh N 18.3 mph29.5 kmh 29.95 in1014.2 mb 0.00 in0.0 mm 0.00 in0.0 mm 0.00 in0.0 mm
09:01 AM 74.1°F23.4°C 51.5°F10.8°C 45% 7.6 mph N12.2 kmh N 18.3 mph29.5 kmh 29.94 in1013.9 mb 0.00 in0.0 mm 0.00 in0.0 mm 0.00 in0.0 mm
09:02 AM 74.5°F23.6°C 51.8°F11.0°C 45% 8.3 mph N13.4 kmh N 18.3 mph29.5 kmh 29.95 in1014.2 mb 0.00 in0.0 mm 0.00 in0.0 mm 0.00 in0.0 mm
09:03 AM 74.7°F23.7°C 51.9°F11.1°C 45% 10.7 mph N17.2 kmh N 18.3 mph29.5 kmh 29.95 in1014.2 mb 0.00 in0.0 mm 0.00 in0.0 mm 0.00 in0.0 mm
09:04 AM 74.7°F23.7°C 51.3°F10.7°C 44% 9.8 mph N15.8 kmh N 18.3 mph29.5 kmh 29.94 in1013.9 mb 0.00 in0.0 mm 0.00 in0.0 mm 0.00 in0.0 mm
09:05 AM 74.5°F23.6°C 51.2°F10.7°C 44% 6.0 mph N9.7 kmh N 18.3 mph29.5 kmh 29.95 in1014.2 mb 0.00 in0.0 mm 0.00 in0.0 mm 0.00 in0.0 mm
09:06 AM 74.7°F23.7°C 51.3°F10.7°C 44% 11.4 mph N18.3 kmh N 18.3 mph29.5 kmh 29.95 in1014.2 mb 0.00 in0.0 mm 0.00 in0.0 mm 0.00 in0.0 mm
09:07 AM 74.7°F23.7°C 51.3°F10.7°C 44% 11.4 mph N18.3 kmh N 18.3 mph29.5 kmh 29.95 in1014.2 mb 0.00 in0.0 mm 0.00 in0.0 mm 0.00 in0.0 mm
09:09 AM 74.5°F23.6°C 51.2°F10.7°C 44% 10.7 mph N17.2 kmh N 18.3 mph29.5 kmh 29.95 in1014.2 mb 0.00 in0.0 mm 0.00 in0.0 mm 0.00 in0.0 mm
09:10 AM 74.5°F23.6°C 51.2°F10.7°C 44% 9.2 mph N14.8 kmh N 18.3 mph29.5 kmh 29.95 in1014.2 mb 0.00 in0.0 mm 0.00 in0.0 mm 0.00 in0.0 mm
09:11 AM 74.7°F23.7°C 51.3°F10.7°C 44% 7.6 mph N12.2 kmh N 18.3 mph29.5 kmh 29.95 in1014.2 mb 0.00 in0.0 mm 0.00 in0.0 mm 0.00 in0.0 mm
09:12 AM 74.8°F23.8°C 51.5°F10.8°C 44% 7.6 mph N12.2 kmh N 18.3 mph29.5 kmh 29.95 in1014.2 mb 0.00 in0.0 mm 0.00 in0.0 mm 0.00 in0.0 mm
09:13 AM 74.8°F23.8°C 51.5°F10.8°C 44% 7.6 mph N12.2 kmh N 18.3 mph29.5 kmh 29.95 in1014.2 mb 0.00 in0.0 mm 0.00 in0.0 mm 0.00 in0.0 mm
09:14 AM 75.2°F24.0°C 50.6°F10.3°C 42% 6.0 mph N9.7 kmh N 18.3 mph29.5 kmh 29.94 in1013.9 mb 0.00 in0.0 mm 0.00 in0.0 mm 0.00 in0.0 mm
09:15 AM 75.4°F24.1°C 50.7°F10.4°C 42% 4.5 mph N7.2 kmh N 18.3 mph29.5 kmh 29.95 in1014.2 mb 0.00 in0.0 mm 0.00 in0.0 mm 0.00 in0.0 mm
09:16 AM 75.6°F24.2°C 51.5°F10.8°C 43% 9.8 mph N15.8 kmh N 18.3 mph29.5 kmh 29.95 in1014.2 mb 0.00 in0.0 mm 0.00 in0.0 mm 0.00 in0.0 mm
09:17 AM 75.9°F24.4°C 51.2°F10.7°C 42% 9.8 mph N15.8 kmh N 17.5 mph28.2 kmh 29.95 in1014.2 mb 0.00 in0.0 mm 0.00 in0.0 mm 0.00 in0.0 mm
09:18 AM 75.7°F24.3°C 50.4°F10.2°C 41% 9.8 mph N15.8 kmh N 15.2 mph24.5 kmh 29.95 in1014.2 mb 0.00 in0.0 mm 0.00 in0.0 mm 0.00 in0.0 mm
09:19 AM 75.7°F24.3°C 51.1°F10.6°C 42% 9.2 mph N14.8 kmh N 15.2 mph24.5 kmh 29.95 in1014.2 mb 0.00 in0.0 mm 0.00 in0.0 mm 0.00 in0.0 mm
09:20 AM 75.6°F24.2°C 50.9°F10.5°C 42% 9.2 mph N14.8 kmh N 15.2 mph24.5 kmh 29.95 in1014.2 mb 0.00 in0.0 mm 0.00 in0.0 mm 0.00 in0.0 mm
09:21 AM 75.6°F24.2°C 50.9°F10.5°C 42% 9.8 mph NNW15.8 kmh NNW 15.2 mph24.5 kmh 29.95 in1014.2 mb 0.00 in0.0 mm 0.00 in0.0 mm 0.00 in0.0 mm
09:22 AM 75.4°F24.1°C 50.7°F10.4°C 42% 9.2 mph N14.8 kmh N 15.2 mph24.5 kmh 29.95 in1014.2 mb 0.00 in0.0 mm 0.00 in0.0 mm 0.00 in0.0 mm
09:23 AM 75.4°F24.1°C 50.7°F10.4°C 42% 7.6 mph N12.2 kmh N 15.2 mph24.5 kmh 29.95 in1014.2 mb 0.00 in0.0 mm 0.00 in0.0 mm 0.00 in0.0 mm
09:24 AM 75.4°F24.1°C 51.4°F10.8°C 43% 9.2 mph N14.8 kmh N 15.2 mph24.5 kmh 29.94 in1013.9 mb 0.00 in0.0 mm 0.00 in0.0 mm 0.00 in0.0 mm
09:25 AM 75.4°F24.1°C 50.7°F10.4°C 42% 6.9 mph N11.1 kmh N 15.2 mph24.5 kmh 29.95 in1014.2 mb 0.00 in0.0 mm 0.00 in0.0 mm 0.00 in0.0 mm
09:26 AM 75.6°F24.2°C 48.9°F9.4°C 39% 8.3 mph N13.4 kmh N 15.2 mph24.5 kmh 29.95 in1014.2 mb 0.00 in0.0 mm 0.00 in0.0 mm 0.00 in0.0 mm
09:27 AM 75.7°F24.3°C 49.7°F9.8°C 40% 9.2 mph NNW14.8 kmh NNW 14.5 mph23.3 kmh 29.95 in1014.2 mb 0.00 in0.0 mm 0.00 in0.0 mm 0.00 in0.0 mm
09:28 AM 75.7°F24.3°C 49.1°F9.5°C 39% 8.3 mph NNW13.4 kmh NNW 14.5 mph23.3 kmh 29.95 in1014.2 mb 0.00 in0.0 mm 0.00 in0.0 mm 0.00 in0.0 mm
09:29 AM 75.9°F24.4°C 49.2°F9.6°C 39% 6.9 mph N11.1 kmh N 14.5 mph23.3 kmh 29.95 in1014.2 mb 0.00 in0.0 mm 0.00 in0.0 mm 0.00 in0.0 mm
09:30 AM 75.9°F24.4°C 49.2°F9.6°C 39% 9.8 mph NNW15.8 kmh NNW 14.5 mph23.3 kmh 29.95 in1014.2 mb 0.00 in0.0 mm 0.00 in0.0 mm 0.00 in0.0 mm
09:31 AM 76.1°F24.5°C 49.4°F9.7°C 39% 9.2 mph N14.8 kmh N 14.5 mph23.3 kmh 29.95 in1014.2 mb 0.00 in0.0 mm 0.00 in0.0 mm 0.00 in0.0 mm
09:32 AM 76.1°F24.5°C 48.7°F9.3°C 38% 9.2 mph NNW14.8 kmh NNW 14.5 mph23.3 kmh 29.95 in1014.2 mb 0.00 in0.0 mm 0.00 in0.0 mm 0.00 in0.0 mm
09:33 AM 76.1°F24.5°C 48.7°F9.3°C 38% 12.1 mph NNW19.5 kmh NNW 15.9 mph25.6 kmh 29.95 in1014.2 mb 0.00 in0.0 mm 0.00 in0.0 mm 0.00 in0.0 mm
09:34 AM 76.3°F24.6°C 48.1°F8.9°C 37% 10.7 mph NNW17.2 kmh NNW 15.9 mph25.6 kmh 29.95 in1014.2 mb 0.00 in0.0 mm 0.00 in0.0 mm 0.00 in0.0 mm
09:35 AM 76.1°F24.5°C 48.0°F8.9°C 37% 8.3 mph NNW13.4 kmh NNW 15.9 mph25.6 kmh 29.95 in1014.2 mb 0.00 in0.0 mm 0.00 in0.0 mm 0.00 in0.0 mm
09:36 AM 76.1°F24.5°C 48.0°F8.9°C 37% 13.6 mph NNW21.9 kmh NNW 17.4 mph28.0 kmh 29.95 in1014.2 mb 0.00 in0.0 mm 0.00 in0.0 mm 0.00 in0.0 mm
09:37 AM 76.1°F24.5°C 48.0°F8.9°C 37% 8.3 mph NNW13.4 kmh NNW 17.4 mph28.0 kmh 29.94 in1013.9 mb 0.00 in0.0 mm 0.00 in0.0 mm 0.00 in0.0 mm
09:38 AM 76.1°F24.5°C 48.7°F9.3°C 38% 9.8 mph NNW15.8 kmh NNW 17.4 mph28.0 kmh 29.94 in1013.9 mb 0.00 in0.0 mm 0.00 in0.0 mm 0.00 in0.0 mm
09:39 AM 76.1°F24.5°C 48.7°F9.3°C 38% 14.5 mph NNW23.3 kmh NNW 18.3 mph29.5 kmh 29.94 in1013.9 mb 0.00 in0.0 mm 0.00 in0.0 mm 0.00 in0.0 mm
09:40 AM 75.9°F24.4°C 48.5°F9.2°C 38% 11.4 mph N18.3 kmh N 18.3 mph29.5 kmh 29.95 in1014.2 mb 0.00 in0.0 mm 0.00 in0.0 mm 0.00 in0.0 mm
09:41 AM 75.9°F24.4°C 48.5°F9.2°C 38% 9.8 mph N15.8 kmh N 18.3 mph29.5 kmh 29.95 in1014.2 mb 0.00 in0.0 mm 0.00 in0.0 mm 0.00 in0.0 mm
09:42 AM 75.9°F24.4°C 47.8°F8.8°C 37% 11.4 mph N18.3 kmh N 18.3 mph29.5 kmh 29.95 in1014.2 mb 0.00 in0.0 mm 0.00 in0.0 mm 0.00 in0.0 mm
09:43 AM 75.9°F24.4°C 48.5°F9.2°C 38% 11.4 mph N18.3 kmh N 18.3 mph29.5 kmh 29.94 in1013.9 mb 0.00 in0.0 mm 0.00 in0.0 mm 0.00 in0.0 mm
09:44 AM 75.7°F24.3°C 48.4°F9.1°C 38% 8.3 mph N13.4 kmh N 18.3 mph29.5 kmh 29.94 in1013.9 mb 0.00 in0.0 mm 0.00 in0.0 mm 0.00 in0.0 mm
09:45 AM 75.7°F24.3°C 48.4°F9.1°C 38% 9.2 mph N14.8 kmh N 18.3 mph29.5 kmh 29.94 in1013.9 mb 0.00 in0.0 mm 0.00 in0.0 mm 0.00 in0.0 mm
09:46 AM 76.1°F24.5°C 49.4°F9.7°C 39% 6.0 mph N9.7 kmh N 18.3 mph29.5 kmh 29.95 in1014.2 mb 0.00 in0.0 mm 0.00 in0.0 mm 0.00 in0.0 mm
09:47 AM 76.3°F24.6°C 49.5°F9.7°C 39% 6.0 mph N9.7 kmh N 18.3 mph29.5 kmh 29.95 in1014.2 mb 0.00 in0.0 mm 0.00 in0.0 mm 0.00 in0.0 mm
09:48 AM 76.6°F24.8°C 49.9°F9.9°C 39% 6.0 mph NNE9.7 kmh NNE 18.3 mph29.5 kmh 29.94 in1013.9 mb 0.00 in0.0 mm 0.00 in0.0 mm 0.00 in0.0 mm
09:49 AM 76.8°F24.9°C 50.0°F10.0°C 39% 10.7 mph N17.2 kmh N 18.3 mph29.5 kmh 29.95 in1014.2 mb 0.00 in0.0 mm 0.00 in0.0 mm 0.00 in0.0 mm
09:50 AM 77.0°F25.0°C 48.8°F9.3°C 37% 9.2 mph N14.8 kmh N 18.3 mph29.5 kmh 29.94 in1013.9 mb 0.00 in0.0 mm 0.00 in0.0 mm 0.00 in0.0 mm
09:51 AM 77.0°F25.0°C 48.8°F9.3°C 37% 6.9 mph N11.1 kmh N 18.3 mph29.5 kmh 29.95 in1014.2 mb 0.00 in0.0 mm 0.00 in0.0 mm 0.00 in0.0 mm
09:52 AM 77.0°F25.0°C 48.8°F9.3°C 37% 9.2 mph N14.8 kmh N 15.9 mph25.6 kmh 29.95 in1014.2 mb 0.00 in0.0 mm 0.00 in0.0 mm 0.00 in0.0 mm
09:53 AM 77.2°F25.1°C 48.9°F9.4°C 37% 8.3 mph N13.4 kmh N 15.9 mph25.6 kmh 29.95 in1014.2 mb 0.00 in0.0 mm 0.00 in0.0 mm 0.00 in0.0 mm
09:54 AM 77.2°F25.1°C 47.4°F8.6°C 35% 8.3 mph N13.4 kmh N 15.9 mph25.6 kmh 29.95 in1014.2 mb 0.00 in0.0 mm 0.00 in0.0 mm 0.00 in0.0 mm
09:55 AM 77.0°F25.0°C 47.3°F8.5°C 35% 9.8 mph N15.8 kmh N 15.9 mph25.6 kmh 29.95 in1014.2 mb 0.00 in0.0 mm 0.00 in0.0 mm 0.00 in0.0 mm
09:56 AM 77.2°F25.1°C 47.4°F8.6°C 35% 9.8 mph N15.8 kmh N 15.9 mph25.6 kmh 29.94 in1013.9 mb 0.00 in0.0 mm 0.00 in0.0 mm 0.00 in0.0 mm
09:57 AM 77.2°F25.1°C 46.7°F8.2°C 34% 9.2 mph N14.8 kmh N 15.9 mph25.6 kmh 29.94 in1013.9 mb 0.00 in0.0 mm 0.00 in0.0 mm 0.00 in0.0 mm
09:58 AM 77.2°F25.1°C 46.7°F8.2°C 34% 9.8 mph N15.8 kmh N 16.8 mph27.0 kmh 29.95 in1014.2 mb 0.00 in0.0 mm 0.00 in0.0 mm 0.00 in0.0 mm
09:59 AM 77.2°F25.1°C 46.7°F8.2°C 34% 11.4 mph N18.3 kmh N 16.8 mph27.0 kmh 29.96 in1014.6 mb 0.00 in0.0 mm 0.00 in0.0 mm 0.00 in0.0 mm
10:00 AM 77.2°F25.1°C 46.7°F8.2°C 34% 9.2 mph N14.8 kmh N 16.8 mph27.0 kmh 29.95 in1014.2 mb 0.00 in0.0 mm 0.00 in0.0 mm 0.00 in0.0 mm
10:01 AM 77.2°F25.1°C 45.9°F7.7°C 33% 10.7 mph N17.2 kmh N 16.8 mph27.0 kmh 29.95 in1014.2 mb 0.00 in0.0 mm 0.00 in0.0 mm 0.00 in0.0 mm
10:02 AM 77.2°F25.1°C 45.9°F7.7°C 33% 13.0 mph N20.9 kmh N 17.4 mph28.0 kmh 29.95 in1014.2 mb 0.00 in0.0 mm 0.00 in0.0 mm 0.00 in0.0 mm
10:03 AM 77.2°F25.1°C 45.9°F7.7°C 33% 7.6 mph N12.2 kmh N 17.4 mph28.0 kmh 29.95 in1014.2 mb 0.00 in0.0 mm 0.00 in0.0 mm 0.00 in0.0 mm
10:04 AM 77.0°F25.0°C 45.7°F7.6°C 33% 12.1 mph N19.5 kmh N 17.4 mph28.0 kmh 29.94 in1013.9 mb 0.00 in0.0 mm 0.00 in0.0 mm 0.00 in0.0 mm
10:05 AM 77.0°F25.0°C 45.7°F7.6°C 33% 11.4 mph N18.3 kmh N 17.4 mph28.0 kmh 29.94 in1013.9 mb 0.00 in0.0 mm 0.00 in0.0 mm 0.00 in0.0 mm
10:06 AM 77.0°F25.0°C 46.5°F8.1°C 34% 10.7 mph N17.2 kmh N 17.4 mph28.0 kmh 29.94 in1013.9 mb 0.00 in0.0 mm 0.00 in0.0 mm 0.00 in0.0 mm
10:07 AM 77.0°F25.0°C 46.5°F8.1°C 34% 10.7 mph N17.2 kmh N 17.4 mph28.0 kmh 29.95 in1014.2 mb 0.00 in0.0 mm 0.00 in0.0 mm 0.00 in0.0 mm
10:08 AM 77.0°F25.0°C 46.5°F8.1°C 34% 10.7 mph N17.2 kmh N 17.4 mph28.0 kmh 29.94 in1013.9 mb 0.00 in0.0 mm 0.00 in0.0 mm 0.00 in0.0 mm
10:09 AM 77.0°F25.0°C 45.7°F7.6°C 33% 13.0 mph N20.9 kmh N 19.7 mph31.7 kmh 29.95 in1014.2 mb 0.00 in0.0 mm 0.00 in0.0 mm 0.00 in0.0 mm
10:10 AM 77.0°F25.0°C 45.7°F7.6°C 33% 9.2 mph N14.8 kmh N 19.7 mph31.7 kmh 29.95 in1014.2 mb 0.00 in0.0 mm 0.00 in0.0 mm 0.00 in0.0 mm
10:11 AM 77.0°F25.0°C 45.7°F7.6°C 33% 10.7 mph N17.2 kmh N 19.7 mph31.7 kmh 29.95 in1014.2 mb 0.00 in0.0 mm 0.00 in0.0 mm 0.00 in0.0 mm
10:12 AM 77.2°F25.1°C 46.7°F8.2°C 34% 9.8 mph N15.8 kmh N 19.7 mph31.7 kmh 29.95 in1014.2 mb 0.00 in0.0 mm 0.00 in0.0 mm 0.00 in0.0 mm
10:13 AM 77.2°F25.1°C 46.7°F8.2°C 34% 9.8 mph N15.8 kmh N 19.7 mph31.7 kmh 29.95 in1014.2 mb 0.00 in0.0 mm 0.00 in0.0 mm 0.00 in0.0 mm
10:14 AM 77.4°F25.2°C 46.8°F8.2°C 34% 13.6 mph N21.9 kmh N 19.7 mph31.7 kmh 29.95 in1014.2 mb 0.00 in0.0 mm 0.00 in0.0 mm 0.00 in0.0 mm
10:15 AM 77.4°F25.2°C 46.0°F7.8°C 33% 10.7 mph N17.2 kmh N 19.7 mph31.7 kmh 29.95 in1014.2 mb 0.00 in0.0 mm 0.00 in0.0 mm 0.00 in0.0 mm
10:16 AM 77.4°F25.2°C 46.0°F7.8°C 33% 10.7 mph N17.2 kmh N 19.7 mph31.7 kmh 29.95 in1014.2 mb 0.00 in0.0 mm 0.00 in0.0 mm 0.00 in0.0 mm
10:17 AM 77.4°F25.2°C 44.4°F6.9°C 31% 11.4 mph N18.3 kmh N 19.7 mph31.7 kmh 29.95 in1014.2 mb 0.00 in0.0 mm 0.00 in0.0 mm 0.00 in0.0 mm
10:18 AM 77.4°F25.2°C 43.5°F6.4°C 30% 8.3 mph N13.4 kmh N 19.7 mph31.7 kmh 29.95 in1014.2 mb 0.00 in0.0 mm 0.00 in0.0 mm 0.00 in0.0 mm
10:19 AM 77.4°F25.2°C 43.5°F6.4°C 30% 12.1 mph N19.5 kmh N 16.8 mph27.0 kmh 29.95 in1014.2 mb 0.00 in0.0 mm 0.00 in0.0 mm 0.00 in0.0 mm
10:20 AM 77.5°F25.3°C 44.6°F7.0°C 31% 10.7 mph N17.2 kmh N 16.8 mph27.0 kmh 29.95 in1014.2 mb 0.00 in0.0 mm 0.00 in0.0 mm 0.00 in0.0 mm
10:21 AM 77.4°F25.2°C 44.4°F6.9°C 31% 9.2 mph N14.8 kmh N 16.8 mph27.0 kmh 29.95 in1014.2 mb 0.00 in0.0 mm 0.00 in0.0 mm 0.00 in0.0 mm
10:22 AM 77.5°F25.3°C 46.2°F7.9°C 33% 11.4 mph N18.3 kmh N 16.8 mph27.0 kmh 29.95 in1014.2 mb 0.00 in0.0 mm 0.00 in0.0 mm 0.00 in0.0 mm
10:23 AM 77.5°F25.3°C 46.2°F7.9°C 33% 11.4 mph N18.3 kmh N 17.4 mph28.0 kmh 29.96 in1014.6 mb 0.00 in0.0 mm 0.00 in0.0 mm 0.00 in0.0 mm
10:24 AM 77.5°F25.3°C 46.2°F7.9°C 33% 13.0 mph N20.9 kmh N 17.4 mph28.0 kmh 29.95 in1014.2 mb 0.00 in0.0 mm 0.00 in0.0 mm 0.00 in0.0 mm
10:25 AM 77.5°F25.3°C 46.2°F7.9°C 33% 8.3 mph N13.4 kmh N 17.4 mph28.0 kmh 29.94 in1013.9 mb 0.00 in0.0 mm 0.00 in0.0 mm 0.00 in0.0 mm
10:26 AM 77.5°F25.3°C 46.2°F7.9°C 33% 8.3 mph N13.4 kmh N 17.4 mph28.0 kmh 29.95 in1014.2 mb 0.00 in0.0 mm 0.00 in0.0 mm 0.00 in0.0 mm
10:27 AM 77.5°F25.3°C 46.2°F7.9°C 33% 8.3 mph N13.4 kmh N 17.4 mph28.0 kmh 29.95 in1014.2 mb 0.00 in0.0 mm 0.00 in0.0 mm 0.00 in0.0 mm
10:28 AM 77.5°F25.3°C 45.4°F7.4°C 32% 8.3 mph N13.4 kmh N 17.4 mph28.0 kmh 29.95 in1014.2 mb 0.00 in0.0 mm 0.00 in0.0 mm 0.00 in0.0 mm
10:29 AM 77.7°F25.4°C 46.4°F8.0°C 33% 10.7 mph N17.2 kmh N 17.4 mph28.0 kmh 29.95 in1014.2 mb 0.00 in0.0 mm 0.00 in0.0 mm 0.00 in0.0 mm
10:30 AM 77.7°F25.4°C 46.4°F8.0°C 33% 9.8 mph N15.8 kmh N 17.4 mph28.0 kmh 29.94 in1013.9 mb 0.00 in0.0 mm 0.00 in0.0 mm 0.00 in0.0 mm
10:31 AM 77.7°F25.4°C 46.4°F8.0°C 33% 9.2 mph N14.8 kmh N 17.4 mph28.0 kmh 29.95 in1014.2 mb 0.00 in0.0 mm 0.00 in0.0 mm 0.00 in0.0 mm
10:32 AM 77.7°F25.4°C 46.4°F8.0°C 33% 8.3 mph N13.4 kmh N 17.4 mph28.0 kmh 29.96 in1014.6 mb 0.00 in0.0 mm 0.00 in0.0 mm 0.00 in0.0 mm
10:33 AM 77.7°F25.4°C 47.2°F8.4°C 34% 7.6 mph N12.2 kmh N 17.4 mph28.0 kmh 29.95 in1014.2 mb 0.00 in0.0 mm 0.00 in0.0 mm 0.00 in0.0 mm
10:34 AM 77.9°F25.5°C 47.3°F8.5°C 34% 10.7 mph N17.2 kmh N 16.8 mph27.0 kmh 29.94 in1013.9 mb 0.00 in0.0 mm 0.00 in0.0 mm 0.00 in0.0 mm
10:35 AM 77.9°F25.5°C 47.3°F8.5°C 34% 13.0 mph N20.9 kmh N 17.4 mph28.0 kmh 29.95 in1014.2 mb 0.00 in0.0 mm 0.00 in0.0 mm 0.00 in0.0 mm
10:36 AM 77.9°F25.5°C 46.5°F8.1°C 33% 10.7 mph N17.2 kmh N 17.4 mph28.0 kmh 29.95 in1014.2 mb 0.00 in0.0 mm 0.00 in0.0 mm 0.00 in0.0 mm
10:37 AM 77.9°F25.5°C 47.3°F8.5°C 34% 10.7 mph N17.2 kmh N 17.4 mph28.0 kmh 29.95 in1014.2 mb 0.00 in0.0 mm 0.00 in0.0 mm 0.00 in0.0 mm
10:38 AM 77.9°F25.5°C 46.5°F8.1°C 33% 9.8 mph N15.8 kmh N 17.4 mph28.0 kmh 29.95 in1014.2 mb 0.00 in0.0 mm 0.00 in0.0 mm 0.00 in0.0 mm
10:39 AM 77.9°F25.5°C 47.3°F8.5°C 34% 11.4 mph N18.3 kmh N 17.4 mph28.0 kmh 29.95 in1014.2 mb 0.00 in0.0 mm 0.00 in0.0 mm 0.00 in0.0 mm
10:40 AM 77.9°F25.5°C 47.3°F8.5°C 34% 7.6 mph N12.2 kmh N 17.4 mph28.0 kmh 29.95 in1014.2 mb 0.00 in0.0 mm 0.00 in0.0 mm 0.00 in0.0 mm
10:41 AM 78.1°F25.6°C 47.5°F8.6°C 34% 5.4 mph NNE8.7 kmh NNE 17.4 mph28.0 kmh 29.95 in1014.2 mb 0.00 in0.0 mm 0.00 in0.0 mm 0.00 in0.0 mm
10:42 AM 78.3°F25.7°C 47.6°F8.7°C 34% 6.9 mph N11.1 kmh N 17.4 mph28.0 kmh 29.94 in1013.9 mb 0.00 in0.0 mm 0.00 in0.0 mm 0.00 in0.0 mm
10:43 AM 78.3°F25.7°C 47.6°F8.7°C 34% 9.8 mph N15.8 kmh N 17.4 mph28.0 kmh 29.94 in1013.9 mb 0.00 in0.0 mm 0.00 in0.0 mm 0.00 in0.0 mm
10:44 AM 78.3°F25.7°C 47.6°F8.7°C 34% 6.9 mph N11.1 kmh N 17.4 mph28.0 kmh 29.95 in1014.2 mb 0.00 in0.0 mm 0.00 in0.0 mm 0.00 in0.0 mm
10:45 AM 78.3°F25.7°C 47.6°F8.7°C 34% 4.5 mph N7.2 kmh N 17.4 mph28.0 kmh 29.95 in1014.2 mb 0.00 in0.0 mm 0.00 in0.0 mm 0.00 in0.0 mm
10:46 AM 78.8°F26.0°C 48.1°F8.9°C 34% 7.6 mph N12.2 kmh N 17.4 mph28.0 kmh 29.95 in1014.2 mb 0.00 in0.0 mm 0.00 in0.0 mm 0.00 in0.0 mm
10:47 AM 79.0°F26.1°C 48.3°F9.1°C 34% 7.6 mph N12.2 kmh N 17.4 mph28.0 kmh 29.95 in1014.2 mb 0.00 in0.0 mm 0.00 in0.0 mm 0.00 in0.0 mm
10:48 AM 79.2°F26.2°C 48.4°F9.1°C 34% 6.9 mph N11.1 kmh N 17.4 mph28.0 kmh 29.94 in1013.9 mb 0.00 in0.0 mm 0.00 in0.0 mm 0.00 in0.0 mm
10:49 AM 79.2°F26.2°C 48.4°F9.1°C 34% 8.3 mph N13.4 kmh N 17.4 mph28.0 kmh 29.95 in1014.2 mb 0.00 in0.0 mm 0.00 in0.0 mm 0.00 in0.0 mm
10:50 AM 78.8°F26.0°C 48.1°F8.9°C 34% 8.3 mph N13.4 kmh N 15.9 mph25.6 kmh 29.95 in1014.2 mb 0.00 in0.0 mm 0.00 in0.0 mm 0.00 in0.0 mm
10:51 AM 78.8°F26.0°C 48.1°F8.9°C 34% 6.0 mph N9.7 kmh N 15.9 mph25.6 kmh 29.94 in1013.9 mb 0.00 in0.0 mm 0.00 in0.0 mm 0.00 in0.0 mm
10:52 AM 78.8°F26.0°C 48.1°F8.9°C 34% 8.3 mph N13.4 kmh N 15.9 mph25.6 kmh 29.94 in1013.9 mb 0.00 in0.0 mm 0.00 in0.0 mm 0.00 in0.0 mm
10:53 AM 78.8°F26.0°C 48.1°F8.9°C 34% 10.7 mph N17.2 kmh N 15.9 mph25.6 kmh 29.95 in1014.2 mb 0.00 in0.0 mm 0.00 in0.0 mm 0.00 in0.0 mm
10:54 AM 78.8°F26.0°C 48.1°F8.9°C 34% 11.4 mph N18.3 kmh N 15.9 mph25.6 kmh 29.95 in1014.2 mb 0.00 in0.0 mm 0.00 in0.0 mm 0.00 in0.0 mm
10:55 AM 78.8°F26.0°C 47.3°F8.5°C 33% 9.2 mph N14.8 kmh N 15.9 mph25.6 kmh 29.94 in1013.9 mb 0.00 in0.0 mm 0.00 in0.0 mm 0.00 in0.0 mm
10:56 AM 78.6°F25.9°C 47.9°F8.8°C 34% 10.7 mph N17.2 kmh N 15.9 mph25.6 kmh 29.94 in1013.9 mb 0.00 in0.0 mm 0.00 in0.0 mm 0.00 in0.0 mm
10:57 AM 78.3°F25.7°C 47.6°F8.7°C 34% 11.4 mph NNW18.3 kmh NNW 15.9 mph25.6 kmh 29.94 in1013.9 mb 0.00 in0.0 mm 0.00 in0.0 mm 0.00 in0.0 mm
10:58 AM 78.1°F25.6°C 47.5°F8.6°C 34% 12.1 mph NNW19.5 kmh NNW 15.9 mph25.6 kmh 29.95 in1014.2 mb 0.00 in0.0 mm 0.00 in0.0 mm 0.00 in0.0 mm
10:59 AM 78.1°F25.6°C 47.5°F8.6°C 34% 10.7 mph NNW17.2 kmh NNW 15.9 mph25.6 kmh 29.94 in1013.9 mb 0.00 in0.0 mm 0.00 in0.0 mm 0.00 in0.0 mm
11:00 AM 77.9°F25.5°C 47.3°F8.5°C 34% 6.0 mph NNW9.7 kmh NNW 15.9 mph25.6 kmh 29.95 in1014.2 mb 0.00 in0.0 mm 0.00 in0.0 mm 0.00 in0.0 mm
11:01 AM 78.1°F25.6°C 48.2°F9.0°C 35% 5.4 mph NNW8.7 kmh NNW 15.9 mph25.6 kmh 29.95 in1014.2 mb 0.00 in0.0 mm 0.00 in0.0 mm 0.00 in0.0 mm
11:02 AM 78.3°F25.7°C 49.2°F9.6°C 36% 11.4 mph N18.3 kmh N 15.9 mph25.6 kmh 29.95 in1014.2 mb 0.00 in0.0 mm 0.00 in0.0 mm 0.00 in0.0 mm
11:03 AM 78.3°F25.7°C 48.4°F9.1°C 35% 9.2 mph N14.8 kmh N 15.9 mph25.6 kmh 29.95 in1014.2 mb 0.00 in0.0 mm 0.00 in0.0 mm 0.00 in0.0 mm
11:04 AM 78.3°F25.7°C 47.6°F8.7°C 34% 9.8 mph N15.8 kmh N 15.9 mph25.6 kmh 29.94 in1013.9 mb 0.00 in0.0 mm 0.00 in0.0 mm 0.00 in0.0 mm
11:05 AM 78.3°F25.7°C 47.6°F8.7°C 34% 9.8 mph N15.8 kmh N 15.9 mph25.6 kmh 29.94 in1013.9 mb 0.00 in0.0 mm 0.00 in0.0 mm 0.00 in0.0 mm
11:06 AM 78.1°F25.6°C 47.5°F8.6°C 34% 9.2 mph N14.8 kmh N 15.9 mph25.6 kmh 29.94 in1013.9 mb 0.00 in0.0 mm 0.00 in0.0 mm 0.00 in0.0 mm
11:07 AM 78.1°F25.6°C 48.2°F9.0°C 35% 7.6 mph N12.2 kmh N 15.9 mph25.6 kmh 29.94 in1013.9 mb 0.00 in0.0 mm 0.00 in0.0 mm 0.00 in0.0 mm
11:08 AM 78.3°F25.7°C 48.4°F9.1°C 35% 13.6 mph N21.9 kmh N 16.8 mph27.0 kmh 29.94 in1013.9 mb 0.00 in0.0 mm 0.00 in0.0 mm 0.00 in0.0 mm
11:09 AM 78.3°F25.7°C 47.6°F8.7°C 34% 9.2 mph N14.8 kmh N 16.8 mph27.0 kmh 29.94 in1013.9 mb 0.00 in0.0 mm 0.00 in0.0 mm 0.00 in0.0 mm
11:10 AM 78.1°F25.6°C 47.5°F8.6°C 34% 12.1 mph N19.5 kmh N 16.8 mph27.0 kmh 29.94 in1013.9 mb 0.00 in0.0 mm 0.00 in0.0 mm 0.00 in0.0 mm
11:11 AM 78.1°F25.6°C 47.5°F8.6°C 34% 11.4 mph NNE18.3 kmh NNE 16.8 mph27.0 kmh 29.94 in1013.9 mb 0.00 in0.0 mm 0.00 in0.0 mm 0.00 in0.0 mm
11:12 AM 78.1°F25.6°C 47.5°F8.6°C 34% 8.3 mph NNE13.4 kmh NNE 16.8 mph27.0 kmh 29.94 in1013.9 mb 0.00 in0.0 mm 0.00 in0.0 mm 0.00 in0.0 mm
11:13 AM 78.1°F25.6°C 47.5°F8.6°C 34% 10.7 mph NNE17.2 kmh NNE 16.8 mph27.0 kmh 29.94 in1013.9 mb 0.00 in0.0 mm 0.00 in0.0 mm 0.00 in0.0 mm
11:14 AM 78.1°F25.6°C 47.5°F8.6°C 34% 6.0 mph NNE9.7 kmh NNE 17.4 mph28.0 kmh 29.94 in1013.9 mb 0.00 in0.0 mm 0.00 in0.0 mm 0.00 in0.0 mm
11:15 AM 78.1°F25.6°C 47.5°F8.6°C 34% 11.4 mph NNE18.3 kmh NNE 17.4 mph28.0 kmh 29.94 in1013.9 mb 0.00 in0.0 mm 0.00 in0.0 mm 0.00 in0.0 mm
11:16 AM 78.3°F25.7°C 47.6°F8.7°C 34% 6.0 mph NNE9.7 kmh NNE 17.4 mph28.0 kmh 29.94 in1013.9 mb 0.00 in0.0 mm 0.00 in0.0 mm 0.00 in0.0 mm
11:17 AM 78.3°F25.7°C 47.6°F8.7°C 34% 6.9 mph NNE11.1 kmh NNE 17.4 mph28.0 kmh 29.93 in1013.5 mb 0.00 in0.0 mm 0.00 in0.0 mm 0.00 in0.0 mm
11:18 AM 78.3°F25.7°C 48.4°F9.1°C 35% 12.1 mph NNE19.5 kmh NNE 17.4 mph28.0 kmh 29.94 in1013.9 mb 0.00 in0.0 mm 0.00 in0.0 mm 0.00 in0.0 mm
11:19 AM 78.3°F25.7°C 47.6°F8.7°C 34% 8.3 mph N13.4 kmh N 17.4 mph28.0 kmh 29.94 in1013.9 mb 0.00 in0.0 mm 0.00 in0.0 mm 0.00 in0.0 mm
11:20 AM 78.3°F25.7°C 47.6°F8.7°C 34% 9.2 mph N14.8 kmh N 17.4 mph28.0 kmh 29.94 in1013.9 mb 0.00 in0.0 mm 0.00 in0.0 mm 0.00 in0.0 mm
11:21 AM 78.3°F25.7°C 47.6°F8.7°C 34% 9.2 mph N14.8 kmh N 17.4 mph28.0 kmh 29.94 in1013.9 mb 0.00 in0.0 mm 0.00 in0.0 mm 0.00 in0.0 mm
11:22 AM 78.3°F25.7°C 47.6°F8.7°C 34% 8.3 mph N13.4 kmh N 17.4 mph28.0 kmh 29.94 in1013.9 mb 0.00 in0.0 mm 0.00 in0.0 mm 0.00 in0.0 mm
11:23 AM 78.3°F25.7°C 48.4°F9.1°C 35% 9.8 mph NNE15.8 kmh NNE 17.4 mph28.0 kmh 29.94 in1013.9 mb 0.00 in0.0 mm 0.00 in0.0 mm 0.00 in0.0 mm
11:24 AM 78.3°F25.7°C 49.2°F9.6°C 36% 9.2 mph NNE14.8 kmh NNE 15.9 mph25.6 kmh 29.94 in1013.9 mb 0.00 in0.0 mm 0.00 in0.0 mm 0.00 in0.0 mm
11:25 AM 78.3°F25.7°C 49.2°F9.6°C 36% 9.8 mph NNE15.8 kmh NNE 15.9 mph25.6 kmh 29.94 in1013.9 mb 0.00 in0.0 mm 0.00 in0.0 mm 0.00 in0.0 mm
11:26 AM 78.3°F25.7°C 49.2°F9.6°C 36% 5.4 mph NNE8.7 kmh NNE 15.9 mph25.6 kmh 29.93 in1013.5 mb 0.00 in0.0 mm 0.00 in0.0 mm 0.00 in0.0 mm
11:27 AM 78.3°F25.7°C 49.2°F9.6°C 36% 4.5 mph NNE7.2 kmh NNE 15.9 mph25.6 kmh 29.93 in1013.5 mb 0.00 in0.0 mm 0.00 in0.0 mm 0.00 in0.0 mm
11:28 AM 78.6°F25.9°C 49.5°F9.7°C 36% 6.0 mph NNE9.7 kmh NNE 15.9 mph25.6 kmh 29.94 in1013.9 mb 0.00 in0.0 mm 0.00 in0.0 mm 0.00 in0.0 mm
11:29 AM 78.8°F26.0°C 48.1°F8.9°C 34% 9.2 mph NNE14.8 kmh NNE 15.2 mph24.5 kmh 29.93 in1013.5 mb 0.00 in0.0 mm 0.00 in0.0 mm 0.00 in0.0 mm
11:30 AM 79.0°F26.1°C 48.3°F9.1°C 34% 7.6 mph NE12.2 kmh NE 15.2 mph24.5 kmh 29.93 in1013.5 mb 0.00 in0.0 mm 0.00 in0.0 mm 0.00 in0.0 mm
11:31 AM 79.0°F26.1°C 48.3°F9.1°C 34% 7.6 mph NE12.2 kmh NE 15.2 mph24.5 kmh 29.94 in1013.9 mb 0.00 in0.0 mm 0.00 in0.0 mm 0.00 in0.0 mm
11:32 AM 79.0°F26.1°C 48.3°F9.1°C 34% 9.2 mph NE14.8 kmh NE 15.2 mph24.5 kmh 29.94 in1013.9 mb 0.00 in0.0 mm 0.00 in0.0 mm 0.00 in0.0 mm
11:33 AM 79.2°F26.2°C 47.6°F8.7°C 33% 12.1 mph NNE19.5 kmh NNE 15.2 mph24.5 kmh 29.94 in1013.9 mb 0.00 in0.0 mm 0.00 in0.0 mm 0.00 in0.0 mm
11:34 AM 79.0°F26.1°C 48.3°F9.1°C 34% 10.7 mph NNE17.2 kmh NNE 16.8 mph27.0 kmh 29.93 in1013.5 mb 0.00 in0.0 mm 0.00 in0.0 mm 0.00 in0.0 mm
11:35 AM 78.8°F26.0°C 48.1°F8.9°C 34% 11.4 mph NNE18.3 kmh NNE 16.8 mph27.0 kmh 29.94 in1013.9 mb 0.00 in0.0 mm 0.00 in0.0 mm 0.00 in0.0 mm
11:36 AM 78.6°F25.9°C 47.9°F8.8°C 34% 13.6 mph NNE21.9 kmh NNE 17.4 mph28.0 kmh 29.93 in1013.5 mb 0.00 in0.0 mm 0.00 in0.0 mm 0.00 in0.0 mm
11:37 AM 78.6°F25.9°C 47.9°F8.8°C 34% 13.0 mph NNE20.9 kmh NNE 18.3 mph29.5 kmh 29.94 in1013.9 mb 0.00 in0.0 mm 0.00 in0.0 mm 0.00 in0.0 mm
11:38 AM 78.3°F25.7°C 47.6°F8.7°C 34% 12.1 mph NNE19.5 kmh NNE 18.3 mph29.5 kmh 29.94 in1013.9 mb 0.00 in0.0 mm 0.00 in0.0 mm 0.00 in0.0 mm
11:39 AM 78.1°F25.6°C 47.5°F8.6°C 34% 11.4 mph N18.3 kmh N 18.3 mph29.5 kmh 29.94 in1013.9 mb 0.00 in0.0 mm 0.00 in0.0 mm 0.00 in0.0 mm
11:40 AM 77.9°F25.5°C 48.1°F8.9°C 35% 11.4 mph NNE18.3 kmh NNE 18.3 mph29.5 kmh 29.93 in1013.5 mb 0.00 in0.0 mm 0.00 in0.0 mm 0.00 in0.0 mm
11:41 AM 77.9°F25.5°C 48.1°F8.9°C 35% 9.8 mph N15.8 kmh N 18.3 mph29.5 kmh 29.93 in1013.5 mb 0.00 in0.0 mm 0.00 in0.0 mm 0.00 in0.0 mm
11:42 AM 77.9°F25.5°C 48.8°F9.3°C 36% 8.3 mph N13.4 kmh N 18.3 mph29.5 kmh 29.93 in1013.5 mb 0.00 in0.0 mm 0.00 in0.0 mm 0.00 in0.0 mm
11:43 AM 77.9°F25.5°C 48.8°F9.3°C 36% 13.0 mph N20.9 kmh N 18.3 mph29.5 kmh 29.94 in1013.9 mb 0.00 in0.0 mm 0.00 in0.0 mm 0.00 in0.0 mm
11:44 AM 78.1°F25.6°C 48.2°F9.0°C 35% 9.8 mph N15.8 kmh N 18.3 mph29.5 kmh 29.93 in1013.5 mb 0.00 in0.0 mm 0.00 in0.0 mm 0.00 in0.0 mm
11:45 AM 78.1°F25.6°C 47.5°F8.6°C 34% 8.3 mph N13.4 kmh N 18.3 mph29.5 kmh 29.93 in1013.5 mb 0.00 in0.0 mm 0.00 in0.0 mm 0.00 in0.0 mm
11:46 AM 77.9°F25.5°C 48.1°F8.9°C 35% 7.6 mph N12.2 kmh N 18.3 mph29.5 kmh 29.94 in1013.9 mb 0.00 in0.0 mm 0.00 in0.0 mm 0.00 in0.0 mm
11:47 AM 78.1°F25.6°C 48.2°F9.0°C 35% 10.7 mph N17.2 kmh N 16.8 mph27.0 kmh 29.94 in1013.9 mb 0.00 in0.0 mm 0.00 in0.0 mm 0.00 in0.0 mm
11:48 AM 78.1°F25.6°C 48.2°F9.0°C 35% 9.2 mph NNE14.8 kmh NNE 16.8 mph27.0 kmh 29.94 in1013.9 mb 0.00 in0.0 mm 0.00 in0.0 mm 0.00 in0.0 mm
11:49 AM 78.1°F25.6°C 48.2°F9.0°C 35% 11.4 mph NNE18.3 kmh NNE 17.4 mph28.0 kmh 29.93 in1013.5 mb 0.00 in0.0 mm 0.00 in0.0 mm 0.00 in0.0 mm
11:50 AM 77.9°F25.5°C 48.1°F8.9°C 35% 9.8 mph NNE15.8 kmh NNE 17.4 mph28.0 kmh 29.94 in1013.9 mb 0.00 in0.0 mm 0.00 in0.0 mm 0.00 in0.0 mm
11:51 AM 77.9°F25.5°C 48.1°F8.9°C 35% 9.8 mph NNE15.8 kmh NNE 17.4 mph28.0 kmh 29.93 in1013.5 mb 0.00 in0.0 mm 0.00 in0.0 mm 0.00 in0.0 mm
11:52 AM 77.9°F25.5°C 48.1°F8.9°C 35% 11.4 mph NNE18.3 kmh NNE 17.4 mph28.0 kmh 29.94 in1013.9 mb 0.00 in0.0 mm 0.00 in0.0 mm 0.00 in0.0 mm
11:53 AM 77.9°F25.5°C 48.1°F8.9°C 35% 12.1 mph NNE19.5 kmh NNE 18.3 mph29.5 kmh 29.93 in1013.5 mb 0.00 in0.0 mm 0.00 in0.0 mm 0.00 in0.0 mm
11:54 AM 77.9°F25.5°C 47.3°F8.5°C 34% 11.4 mph NNE18.3 kmh NNE 18.3 mph29.5 kmh 29.93 in1013.5 mb 0.00 in0.0 mm 0.00 in0.0 mm 0.00 in0.0 mm
11:55 AM 77.9°F25.5°C 48.1°F8.9°C 35% 10.7 mph NNE17.2 kmh NNE 18.3 mph29.5 kmh 29.93 in1013.5 mb 0.00 in0.0 mm 0.00 in0.0 mm 0.00 in0.0 mm
11:56 AM 77.7°F25.4°C 47.9°F8.8°C 35% 12.1 mph NNE19.5 kmh NNE 18.3 mph29.5 kmh 29.93 in1013.5 mb 0.00 in0.0 mm 0.00 in0.0 mm 0.00 in0.0 mm
11:57 AM 77.9°F25.5°C 48.1°F8.9°C 35% 13.0 mph NNE20.9 kmh NNE 18.3 mph29.5 kmh 29.93 in1013.5 mb 0.00 in0.0 mm 0.00 in0.0 mm 0.00 in0.0 mm
11:58 AM 77.9°F25.5°C 47.3°F8.5°C 34% 12.1 mph NNE19.5 kmh NNE 18.3 mph29.5 kmh 29.93 in1013.5 mb 0.00 in0.0 mm 0.00 in0.0 mm 0.00 in0.0 mm
11:59 AM 77.9°F25.5°C 47.3°F8.5°C 34% 9.8 mph NNE15.8 kmh NNE 18.3 mph29.5 kmh 29.93 in1013.5 mb 0.00 in0.0 mm 0.00 in0.0 mm 0.00 in0.0 mm
12:00 PM 77.9°F25.5°C 48.1°F8.9°C 35% 10.7 mph NNE17.2 kmh NNE 18.3 mph29.5 kmh 29.93 in1013.5 mb 0.00 in0.0 mm 0.00 in0.0 mm 0.00 in0.0 mm
12:01 PM 77.9°F25.5°C 48.1°F8.9°C 35% 13.6 mph NNE21.9 kmh NNE 18.3 mph29.5 kmh 29.93 in1013.5 mb 0.00 in0.0 mm 0.00 in0.0 mm 0.00 in0.0 mm
12:02 PM 77.9°F25.5°C 47.3°F8.5°C 34% 10.7 mph NNE17.2 kmh NNE 18.3 mph29.5 kmh 29.93 in1013.5 mb 0.00 in0.0 mm 0.00 in0.0 mm 0.00 in0.0 mm
12:03 PM 77.9°F25.5°C 47.3°F8.5°C 34% 12.1 mph NNE19.5 kmh NNE 17.4 mph28.0 kmh 29.93 in1013.5 mb 0.00 in0.0 mm 0.00 in0.0 mm 0.00 in0.0 mm
12:04 PM 77.9°F25.5°C 47.3°F8.5°C 34% 11.4 mph NNE18.3 kmh NNE 17.4 mph28.0 kmh 29.93 in1013.5 mb 0.00 in0.0 mm 0.00 in0.0 mm 0.00 in0.0 mm
12:05 PM 77.9°F25.5°C 47.3°F8.5°C 34% 11.4 mph NNE18.3 kmh NNE 17.4 mph28.0 kmh 29.93 in1013.5 mb 0.00 in0.0 mm 0.00 in0.0 mm 0.00 in0.0 mm
12:06 PM 77.7°F25.4°C 47.2°F8.4°C 34% 13.6 mph N21.9 kmh N 17.4 mph28.0 kmh 29.93 in1013.5 mb 0.00 in0.0 mm 0.00 in0.0 mm 0.00 in0.0 mm
12:07 PM 77.7°F25.4°C 47.9°F8.8°C 35% 9.8 mph N15.8 kmh N 17.4 mph28.0 kmh 29.93 in1013.5 mb 0.00 in0.0 mm 0.00 in0.0 mm 0.00 in0.0 mm
12:08 PM 77.7°F25.4°C 47.9°F8.8°C 35% 7.6 mph N12.2 kmh N 17.4 mph28.0 kmh 29.93 in1013.5 mb 0.00 in0.0 mm 0.00 in0.0 mm 0.00 in0.0 mm
12:09 PM 77.7°F25.4°C 47.9°F8.8°C 35% 13.0 mph N20.9 kmh N 17.4 mph28.0 kmh 29.93 in1013.5 mb 0.00 in0.0 mm 0.00 in0.0 mm 0.00 in0.0 mm
12:10 PM 77.9°F25.5°C 48.1°F8.9°C 35% 9.8 mph N15.8 kmh N 17.4 mph28.0 kmh 29.93 in1013.5 mb 0.00 in0.0 mm 0.00 in0.0 mm 0.00 in0.0 mm
12:11 PM 77.9°F25.5°C 48.1°F8.9°C 35% 9.2 mph N14.8 kmh N 17.4 mph28.0 kmh 29.93 in1013.5 mb 0.00 in0.0 mm 0.00 in0.0 mm 0.00 in0.0 mm
12:12 PM 77.9°F25.5°C 48.1°F8.9°C 35% 9.2 mph N14.8 kmh N 17.4 mph28.0 kmh 29.93 in1013.5 mb 0.00 in0.0 mm 0.00 in0.0 mm 0.00 in0.0 mm
12:13 PM 78.1°F25.6°C 48.2°F9.0°C 35% 8.3 mph N13.4 kmh N 17.4 mph28.0 kmh 29.93 in1013.5 mb 0.00 in0.0 mm 0.00 in0.0 mm 0.00 in0.0 mm
12:14 PM 78.1°F25.6°C 48.2°F9.0°C 35% 12.1 mph N19.5 kmh N 18.3 mph29.5 kmh 29.93 in1013.5 mb 0.00 in0.0 mm 0.00 in0.0 mm 0.00 in0.0 mm
12:15 PM 78.1°F25.6°C 47.5°F8.6°C 34% 11.4 mph N18.3 kmh N 18.3 mph29.5 kmh 29.93 in1013.5 mb 0.00 in0.0 mm 0.00 in0.0 mm 0.00 in0.0 mm
12:16 PM 78.1°F25.6°C 47.5°F8.6°C 34% 11.4 mph N18.3 kmh N 18.3 mph29.5 kmh 29.92 in1013.2 mb 0.00 in0.0 mm 0.00 in0.0 mm 0.00 in0.0 mm
12:17 PM 78.1°F25.6°C 47.5°F8.6°C 34% 10.7 mph N17.2 kmh N 19.7 mph31.7 kmh 29.93 in1013.5 mb 0.00 in0.0 mm 0.00 in0.0 mm 0.00 in0.0 mm
12:18 PM 78.1°F25.6°C 47.5°F8.6°C 34% 6.9 mph NNE11.1 kmh NNE 19.7 mph31.7 kmh 29.93 in1013.5 mb 0.00 in0.0 mm 0.00 in0.0 mm 0.00 in0.0 mm
12:19 PM 78.3°F25.7°C 48.4°F9.1°C 35% 11.4 mph NNE18.3 kmh NNE 19.7 mph31.7 kmh 29.92 in1013.2 mb 0.00 in0.0 mm 0.00 in0.0 mm 0.00 in0.0 mm
12:20 PM 78.3°F25.7°C 48.4°F9.1°C 35% 9.8 mph NNE15.8 kmh NNE 19.7 mph31.7 kmh 29.93 in1013.5 mb 0.00 in0.0 mm 0.00 in0.0 mm 0.00 in0.0 mm
12:21 PM 78.3°F25.7°C 48.4°F9.1°C 35% 11.4 mph NNE18.3 kmh NNE 19.7 mph31.7 kmh 29.93 in1013.5 mb 0.00 in0.0 mm 0.00 in0.0 mm 0.00 in0.0 mm
12:22 PM 78.3°F25.7°C 47.6°F8.7°C 34% 8.3 mph NNE13.4 kmh NNE 19.7 mph31.7 kmh 29.93 in1013.5 mb 0.00 in0.0 mm 0.00 in0.0 mm 0.00 in0.0 mm
12:23 PM 78.1°F25.6°C 47.5°F8.6°C 34% 9.2 mph NNE14.8 kmh NNE 19.7 mph31.7 kmh 29.92 in1013.2 mb 0.00 in0.0 mm 0.00 in0.0 mm 0.00 in0.0 mm
12:24 PM 78.3°F25.7°C 48.4°F9.1°C 35% 9.8 mph NNE15.8 kmh NNE 19.7 mph31.7 kmh 29.93 in1013.5 mb 0.00 in0.0 mm 0.00 in0.0 mm 0.00 in0.0 mm
12:25 PM 78.3°F25.7°C 48.4°F9.1°C 35% 9.2 mph NNE14.8 kmh NNE 19.7 mph31.7 kmh 29.92 in1013.2 mb 0.00 in0.0 mm 0.00 in0.0 mm 0.00 in0.0 mm
12:26 PM 78.3°F25.7°C 47.6°F8.7°C 34% 9.2 mph NNE14.8 kmh NNE 19.7 mph31.7 kmh 29.93 in1013.5 mb 0.00 in0.0 mm 0.00 in0.0 mm 0.00 in0.0 mm
12:27 PM 78.1°F25.6°C 47.5°F8.6°C 34% 10.7 mph NNE17.2 kmh NNE 16.8 mph27.0 kmh 29.92 in1013.2 mb 0.00 in0.0 mm 0.00 in0.0 mm 0.00 in0.0 mm
12:28 PM 78.1°F25.6°C 47.5°F8.6°C 34% 8.3 mph NNE13.4 kmh NNE 16.8 mph27.0 kmh 29.92 in1013.2 mb 0.00 in0.0 mm 0.00 in0.0 mm 0.00 in0.0 mm
12:29 PM 78.3°F25.7°C 48.4°F9.1°C 35% 9.8 mph NNE15.8 kmh NNE 17.4 mph28.0 kmh 29.92 in1013.2 mb 0.00 in0.0 mm 0.00 in0.0 mm 0.00 in0.0 mm
12:30 PM 78.3°F25.7°C 47.6°F8.7°C 34% 12.1 mph NNE19.5 kmh NNE 17.4 mph28.0 kmh 29.92 in1013.2 mb 0.00 in0.0 mm 0.00 in0.0 mm 0.00 in0.0 mm
12:31 PM 78.3°F25.7°C 47.6°F8.7°C 34% 11.4 mph NNE18.3 kmh NNE 17.4 mph28.0 kmh 29.92 in1013.2 mb 0.00 in0.0 mm 0.00 in0.0 mm 0.00 in0.0 mm
12:32 PM 78.1°F25.6°C 47.5°F8.6°C 34% 13.6 mph NNE21.9 kmh NNE 17.4 mph28.0 kmh 29.92 in1013.2 mb 0.00 in0.0 mm 0.00 in0.0 mm 0.00 in0.0 mm
12:33 PM 78.1°F25.6°C 47.5°F8.6°C 34% 9.2 mph NNE14.8 kmh NNE 17.4 mph28.0 kmh 29.92 in1013.2 mb 0.00 in0.0 mm 0.00 in0.0 mm 0.00 in0.0 mm
12:34 PM 78.3°F25.7°C 47.6°F8.7°C 34% 15.2 mph NNE24.5 kmh NNE 20.6 mph33.2 kmh 29.92 in1013.2 mb 0.00 in0.0 mm 0.00 in0.0 mm 0.00 in0.0 mm
12:35 PM 78.3°F25.7°C 47.6°F8.7°C 34% 13.0 mph NNE20.9 kmh NNE 20.6 mph33.2 kmh 29.93 in1013.5 mb 0.00 in0.0 mm 0.00 in0.0 mm 0.00 in0.0 mm
12:36 PM 78.3°F25.7°C 47.6°F8.7°C 34% 9.8 mph NNE15.8 kmh NNE 20.6 mph33.2 kmh 29.92 in1013.2 mb 0.00 in0.0 mm 0.00 in0.0 mm 0.00 in0.0 mm
12:37 PM 78.3°F25.7°C 47.6°F8.7°C 34% 6.0 mph NNE9.7 kmh NNE 20.6 mph33.2 kmh 29.92 in1013.2 mb 0.00 in0.0 mm 0.00 in0.0 mm 0.00 in0.0 mm
12:38 PM 78.3°F25.7°C 48.4°F9.1°C 35% 9.8 mph NNE15.8 kmh NNE 20.6 mph33.2 kmh 29.92 in1013.2 mb 0.00 in0.0 mm 0.00 in0.0 mm 0.00 in0.0 mm
12:39 PM 78.3°F25.7°C 48.4°F9.1°C 35% 9.2 mph NNE14.8 kmh NNE 20.6 mph33.2 kmh 29.92 in1013.2 mb 0.00 in0.0 mm 0.00 in0.0 mm 0.00 in0.0 mm
12:40 PM 78.3°F25.7°C 48.4°F9.1°C 35% 10.7 mph NNE17.2 kmh NNE 20.6 mph33.2 kmh 29.92 in1013.2 mb 0.00 in0.0 mm 0.00 in0.0 mm 0.00 in0.0 mm
12:41 PM 78.3°F25.7°C 48.4°F9.1°C 35% 11.4 mph NNE18.3 kmh NNE 20.6 mph33.2 kmh 29.92 in1013.2 mb 0.00 in0.0 mm 0.00 in0.0 mm 0.00 in0.0 mm
12:42 PM 78.3°F25.7°C 47.6°F8.7°C 34% 11.4 mph NNE18.3 kmh NNE 20.6 mph33.2 kmh 29.92 in1013.2 mb 0.00 in0.0 mm 0.00 in0.0 mm 0.00 in0.0 mm
12:43 PM 78.3°F25.7°C 48.4°F9.1°C 35% 8.3 mph NNE13.4 kmh NNE 20.6 mph33.2 kmh 29.92 in1013.2 mb 0.00 in0.0 mm 0.00 in0.0 mm 0.00 in0.0 mm
12:44 PM 78.3°F25.7°C 48.4°F9.1°C 35% 12.1 mph NNE19.5 kmh NNE 20.6 mph33.2 kmh 29.92 in1013.2 mb 0.00 in0.0 mm 0.00 in0.0 mm 0.00 in0.0 mm
12:45 PM 78.3°F25.7°C 47.6°F8.7°C 34% 12.1 mph NNE19.5 kmh NNE 19.7 mph31.7 kmh 29.92 in1013.2 mb 0.00 in0.0 mm 0.00 in0.0 mm 0.00 in0.0 mm
12:46 PM 77.9°F25.5°C 47.3°F8.5°C 34% 10.7 mph NNE17.2 kmh NNE 19.7 mph31.7 kmh 29.92 in1013.2 mb 0.00 in0.0 mm 0.00 in0.0 mm 0.00 in0.0 mm
12:47 PM 77.9°F25.5°C 47.3°F8.5°C 34% 14.5 mph NNE23.3 kmh NNE 19.7 mph31.7 kmh 29.92 in1013.2 mb 0.00 in0.0 mm 0.00 in0.0 mm 0.00 in0.0 mm
12:48 PM 77.9°F25.5°C 47.3°F8.5°C 34% 9.2 mph NNE14.8 kmh NNE 19.7 mph31.7 kmh 29.92 in1013.2 mb 0.00 in0.0 mm 0.00 in0.0 mm 0.00 in0.0 mm
12:49 PM 77.9°F25.5°C 47.3°F8.5°C 34% 10.7 mph NNE17.2 kmh NNE 19.7 mph31.7 kmh 29.91 in1012.9 mb 0.00 in0.0 mm 0.00 in0.0 mm 0.00 in0.0 mm
12:50 PM 77.9°F25.5°C 48.1°F8.9°C 35% 10.7 mph NNE17.2 kmh NNE 19.7 mph31.7 kmh 29.92 in1013.2 mb 0.00 in0.0 mm 0.00 in0.0 mm 0.00 in0.0 mm
12:51 PM 78.1°F25.6°C 48.2°F9.0°C 35% 9.8 mph NNE15.8 kmh NNE 19.7 mph31.7 kmh 29.92 in1013.2 mb 0.00 in0.0 mm 0.00 in0.0 mm 0.00 in0.0 mm
12:52 PM 78.1°F25.6°C 47.5°F8.6°C 34% 9.8 mph NNE15.8 kmh NNE 19.7 mph31.7 kmh 29.92 in1013.2 mb 0.00 in0.0 mm 0.00 in0.0 mm 0.00 in0.0 mm
12:53 PM 78.3°F25.7°C 47.6°F8.7°C 34% 12.1 mph NNE19.5 kmh NNE 19.7 mph31.7 kmh 29.92 in1013.2 mb 0.00 in0.0 mm 0.00 in0.0 mm 0.00 in0.0 mm
12:54 PM 78.3°F25.7°C 47.6°F8.7°C 34% 6.0 mph N9.7 kmh N 19.7 mph31.7 kmh 29.91 in1012.9 mb 0.00 in0.0 mm 0.00 in0.0 mm 0.00 in0.0 mm
12:55 PM 78.3°F25.7°C 48.4°F9.1°C 35% 10.7 mph NNE17.2 kmh NNE 19.0 mph30.6 kmh 29.91 in1012.9 mb 0.00 in0.0 mm 0.00 in0.0 mm 0.00 in0.0 mm
12:56 PM 78.3°F25.7°C 48.4°F9.1°C 35% 13.6 mph NNE21.9 kmh NNE 19.0 mph30.6 kmh 29.92 in1013.2 mb 0.00 in0.0 mm 0.00 in0.0 mm 0.00 in0.0 mm
12:57 PM 78.3°F25.7°C 48.4°F9.1°C 35% 12.1 mph NNE19.5 kmh NNE 19.0 mph30.6 kmh 29.91 in1012.9 mb 0.00 in0.0 mm 0.00 in0.0 mm 0.00 in0.0 mm
12:58 PM 78.3°F25.7°C 47.6°F8.7°C 34% 10.7 mph NNE17.2 kmh NNE 18.3 mph29.5 kmh 29.91 in1012.9 mb 0.00 in0.0 mm 0.00 in0.0 mm 0.00 in0.0 mm
12:59 PM 78.3°F25.7°C 48.4°F9.1°C 35% 10.7 mph NNE17.2 kmh NNE 18.3 mph29.5 kmh 29.91 in1012.9 mb 0.00 in0.0 mm 0.00 in0.0 mm 0.00 in0.0 mm
01:00 PM 78.3°F25.7°C 48.4°F9.1°C 35% 10.7 mph NNE17.2 kmh NNE 18.3 mph29.5 kmh 29.92 in1013.2 mb 0.00 in0.0 mm 0.00 in0.0 mm 0.00 in0.0 mm
01:01 PM 78.3°F25.7°C 47.6°F8.7°C 34% 11.4 mph NNE18.3 kmh NNE 19.0 mph30.6 kmh 29.91 in1012.9 mb 0.00 in0.0 mm 0.00 in0.0 mm 0.00 in0.0 mm
01:02 PM 78.3°F25.7°C 47.6°F8.7°C 34% 9.8 mph N15.8 kmh N 19.0 mph30.6 kmh 29.91 in1012.9 mb 0.00 in0.0 mm 0.00 in0.0 mm 0.00 in0.0 mm
01:03 PM 78.3°F25.7°C 48.4°F9.1°C 35% 9.2 mph N14.8 kmh N 19.0 mph30.6 kmh 29.91 in1012.9 mb 0.00 in0.0 mm 0.00 in0.0 mm 0.00 in0.0 mm
01:04 PM 78.3°F25.7°C 48.4°F9.1°C 35% 9.2 mph N14.8 kmh N 19.0 mph30.6 kmh 29.91 in1012.9 mb 0.00 in0.0 mm 0.00 in0.0 mm 0.00 in0.0 mm
01:05 PM 78.3°F25.7°C 48.4°F9.1°C 35% 13.6 mph N21.9 kmh N 19.0 mph30.6 kmh 29.91 in1012.9 mb 0.00 in0.0 mm 0.00 in0.0 mm 0.00 in0.0 mm
01:06 PM 78.3°F25.7°C 47.6°F8.7°C 34% 13.0 mph N20.9 kmh N 19.0 mph30.6 kmh 29.91 in1012.9 mb 0.00 in0.0 mm 0.00 in0.0 mm 0.00 in0.0 mm
01:07 PM 78.3°F25.7°C 47.6°F8.7°C 34% 7.6 mph N12.2 kmh N 19.0 mph30.6 kmh 29.91 in1012.9 mb 0.00 in0.0 mm 0.00 in0.0 mm 0.00 in0.0 mm
01:08 PM 78.6°F25.9°C 48.7°F9.3°C 35% 7.6 mph N12.2 kmh N 19.0 mph30.6 kmh 29.91 in1012.9 mb 0.00 in0.0 mm 0.00 in0.0 mm 0.00 in0.0 mm
01:09 PM 78.8°F26.0°C 48.1°F8.9°C 34% 8.3 mph NNE13.4 kmh NNE 19.0 mph30.6 kmh 29.91 in1012.9 mb 0.00 in0.0 mm 0.00 in0.0 mm 0.00 in0.0 mm
01:10 PM 79.3°F26.3°C 48.6°F9.2°C 34% 10.7 mph NNE17.2 kmh NNE 19.0 mph30.6 kmh 29.91 in1012.9 mb 0.00 in0.0 mm 0.00 in0.0 mm 0.00 in0.0 mm
01:11 PM 79.3°F26.3°C 47.8°F8.8°C 33% 9.2 mph NNE14.8 kmh NNE 19.0 mph30.6 kmh 29.91 in1012.9 mb 0.00 in0.0 mm 0.00 in0.0 mm 0.00 in0.0 mm
01:12 PM 79.3°F26.3°C 47.8°F8.8°C 33% 9.2 mph NNE14.8 kmh NNE 19.0 mph30.6 kmh 29.91 in1012.9 mb 0.00 in0.0 mm 0.00 in0.0 mm 0.00 in0.0 mm
01:13 PM 79.3°F26.3°C 47.8°F8.8°C 33% 7.6 mph NNE12.2 kmh NNE 19.0 mph30.6 kmh 29.90 in1012.5 mb 0.00 in0.0 mm 0.00 in0.0 mm 0.00 in0.0 mm
01:14 PM 79.2°F26.2°C 47.6°F8.7°C 33% 14.5 mph NNE23.3 kmh NNE 20.6 mph33.2 kmh 29.91 in1012.9 mb 0.00 in0.0 mm 0.00 in0.0 mm 0.00 in0.0 mm
01:15 PM 79.0°F26.1°C 46.6°F8.1°C 32% 9.2 mph N14.8 kmh N 20.6 mph33.2 kmh 29.91 in1012.9 mb 0.00 in0.0 mm 0.00 in0.0 mm 0.00 in0.0 mm
01:16 PM 78.6°F25.9°C 47.9°F8.8°C 34% 9.8 mph N15.8 kmh N 20.6 mph33.2 kmh 29.91 in1012.9 mb 0.00 in0.0 mm 0.00 in0.0 mm 0.00 in0.0 mm
01:17 PM 78.6°F25.9°C 47.9°F8.8°C 34% 10.7 mph N17.2 kmh N 20.6 mph33.2 kmh 29.91 in1012.9 mb 0.00 in0.0 mm 0.00 in0.0 mm 0.00 in0.0 mm
01:18 PM 78.6°F25.9°C 47.9°F8.8°C 34% 13.0 mph N20.9 kmh N 20.6 mph33.2 kmh 29.91 in1012.9 mb 0.00 in0.0 mm 0.00 in0.0 mm 0.00 in0.0 mm
01:19 PM 78.3°F25.7°C 48.4°F9.1°C 35% 12.1 mph N19.5 kmh N 20.6 mph33.2 kmh 29.91 in1012.9 mb 0.00 in0.0 mm 0.00 in0.0 mm 0.00 in0.0 mm
01:20 PM 78.3°F25.7°C 48.4°F9.1°C 35% 9.2 mph N14.8 kmh N 20.6 mph33.2 kmh 29.91 in1012.9 mb 0.00 in0.0 mm 0.00 in0.0 mm 0.00 in0.0 mm
01:21 PM 78.3°F25.7°C 48.4°F9.1°C 35% 13.0 mph N20.9 kmh N 20.6 mph33.2 kmh 29.91 in1012.9 mb 0.00 in0.0 mm 0.00 in0.0 mm 0.00 in0.0 mm
01:22 PM 78.3°F25.7°C 48.4°F9.1°C 35% 13.0 mph NNE20.9 kmh NNE 20.6 mph33.2 kmh 29.90 in1012.5 mb 0.00 in0.0 mm 0.00 in0.0 mm 0.00 in0.0 mm
01:23 PM 78.6°F25.9°C 48.7°F9.3°C 35% 9.8 mph N15.8 kmh N 20.6 mph33.2 kmh 29.90 in1012.5 mb 0.00 in0.0 mm 0.00 in0.0 mm 0.00 in0.0 mm
01:24 PM 78.6°F25.9°C 47.9°F8.8°C 34% 13.0 mph NNE20.9 kmh NNE 20.6 mph33.2 kmh 29.91 in1012.9 mb 0.00 in0.0 mm 0.00 in0.0 mm 0.00 in0.0 mm
01:25 PM 78.6°F25.9°C 47.9°F8.8°C 34% 13.0 mph NNE20.9 kmh NNE 20.6 mph33.2 kmh 29.90 in1012.5 mb 0.00 in0.0 mm 0.00 in0.0 mm 0.00 in0.0 mm
01:26 PM 78.6°F25.9°C 47.9°F8.8°C 34% 13.0 mph NNE20.9 kmh NNE 20.6 mph33.2 kmh 29.90 in1012.5 mb 0.00 in0.0 mm 0.00 in0.0 mm 0.00 in0.0 mm
01:27 PM 78.6°F25.9°C 47.9°F8.8°C 34% 10.7 mph NNE17.2 kmh NNE 20.6 mph33.2 kmh 29.90 in1012.5 mb 0.00 in0.0 mm 0.00 in0.0 mm 0.00 in0.0 mm
01:28 PM 78.3°F25.7°C 47.6°F8.7°C 34% 9.2 mph NNE14.8 kmh NNE 20.6 mph33.2 kmh 29.90 in1012.5 mb 0.00 in0.0 mm 0.00 in0.0 mm 0.00 in0.0 mm
01:29 PM 78.3°F25.7°C 48.4°F9.1°C 35% 10.7 mph NNE17.2 kmh NNE 20.6 mph33.2 kmh 29.91 in1012.9 mb 0.00 in0.0 mm 0.00 in0.0 mm 0.00 in0.0 mm
01:30 PM 78.3°F25.7°C 48.4°F9.1°C 35% 12.1 mph NNE19.5 kmh NNE 20.6 mph33.2 kmh 29.90 in1012.5 mb 0.00 in0.0 mm 0.00 in0.0 mm 0.00 in0.0 mm
01:31 PM 78.3°F25.7°C 48.4°F9.1°C 35% 13.0 mph NNE20.9 kmh NNE 20.6 mph33.2 kmh 29.91 in1012.9 mb 0.00 in0.0 mm 0.00 in0.0 mm 0.00 in0.0 mm
01:32 PM 78.3°F25.7°C 48.4°F9.1°C 35% 11.4 mph N18.3 kmh N 21.3 mph34.3 kmh 29.90 in1012.5 mb 0.00 in0.0 mm 0.00 in0.0 mm 0.00 in0.0 mm
01:33 PM 78.3°F25.7°C 48.4°F9.1°C 35% 10.7 mph NNE17.2 kmh NNE 21.3 mph34.3 kmh 29.90 in1012.5 mb 0.00 in0.0 mm 0.00 in0.0 mm 0.00 in0.0 mm
01:34 PM 78.3°F25.7°C 49.2°F9.6°C 36% 9.8 mph NNE15.8 kmh NNE 21.3 mph34.3 kmh 29.90 in1012.5 mb 0.00 in0.0 mm 0.00 in0.0 mm 0.00 in0.0 mm
01:35 PM 78.3°F25.7°C 48.4°F9.1°C 35% 9.8 mph NNE15.8 kmh NNE 21.3 mph34.3 kmh 29.90 in1012.5 mb 0.00 in0.0 mm 0.00 in0.0 mm 0.00 in0.0 mm
01:36 PM 78.6°F25.9°C 48.7°F9.3°C 35% 8.3 mph NNE13.4 kmh NNE 21.3 mph34.3 kmh 29.90 in1012.5 mb 0.00 in0.0 mm 0.00 in0.0 mm 0.00 in0.0 mm
01:37 PM 78.6°F25.9°C 48.7°F9.3°C 35% 10.7 mph NNE17.2 kmh NNE 21.3 mph34.3 kmh 29.90 in1012.5 mb 0.00 in0.0 mm 0.00 in0.0 mm 0.00 in0.0 mm
01:38 PM 78.6°F25.9°C 48.7°F9.3°C 35% 12.1 mph NNE19.5 kmh NNE 21.3 mph34.3 kmh 29.90 in1012.5 mb 0.00 in0.0 mm 0.00 in0.0 mm 0.00 in0.0 mm
01:39 PM 78.8°F26.0°C 48.1°F8.9°C 34% 11.4 mph NNE18.3 kmh NNE 21.3 mph34.3 kmh 29.89 in1012.2 mb 0.00 in0.0 mm 0.00 in0.0 mm 0.00 in0.0 mm
01:40 PM 78.8°F26.0°C 48.1°F8.9°C 34% 8.3 mph NNE13.4 kmh NNE 21.3 mph34.3 kmh 29.89 in1012.2 mb 0.00 in0.0 mm 0.00 in0.0 mm 0.00 in0.0 mm
01:41 PM 78.8°F26.0°C 48.1°F8.9°C 34% 9.2 mph NNE14.8 kmh NNE 21.3 mph34.3 kmh 29.89 in1012.2 mb 0.00 in0.0 mm 0.00 in0.0 mm 0.00 in0.0 mm
01:42 PM 79.0°F26.1°C 48.3°F9.1°C 34% 9.8 mph NNE15.8 kmh NNE 19.7 mph31.7 kmh 29.90 in1012.5 mb 0.00 in0.0 mm 0.00 in0.0 mm 0.00 in0.0 mm
01:43 PM 79.2°F26.2°C 48.4°F9.1°C 34% 12.1 mph NNE19.5 kmh NNE 18.3 mph29.5 kmh 29.90 in1012.5 mb 0.00 in0.0 mm 0.00 in0.0 mm 0.00 in0.0 mm
01:44 PM 79.2°F26.2°C 48.4°F9.1°C 34% 6.0 mph NNE9.7 kmh NNE 18.3 mph29.5 kmh 29.89 in1012.2 mb 0.00 in0.0 mm 0.00 in0.0 mm 0.00 in0.0 mm
01:45 PM 79.2°F26.2°C 48.4°F9.1°C 34% 6.0 mph NNE9.7 kmh NNE 18.3 mph29.5 kmh 29.89 in1012.2 mb 0.00 in0.0 mm 0.00 in0.0 mm 0.00 in0.0 mm
01:46 PM 79.3°F26.3°C 48.6°F9.2°C 34% 8.3 mph NNE13.4 kmh NNE 18.3 mph29.5 kmh 29.89 in1012.2 mb 0.00 in0.0 mm 0.00 in0.0 mm 0.00 in0.0 mm
01:47 PM 79.3°F26.3°C 48.6°F9.2°C 34% 9.2 mph N14.8 kmh N 18.3 mph29.5 kmh 29.89 in1012.2 mb 0.00 in0.0 mm 0.00 in0.0 mm 0.00 in0.0 mm
01:48 PM 79.3°F26.3°C 48.6°F9.2°C 34% 9.8 mph N15.8 kmh N 18.3 mph29.5 kmh 29.89 in1012.2 mb 0.00 in0.0 mm 0.00 in0.0 mm 0.00 in0.0 mm
01:49 PM 79.3°F26.3°C 48.6°F9.2°C 34% 14.5 mph N23.3 kmh N 18.3 mph29.5 kmh 29.89 in1012.2 mb 0.00 in0.0 mm 0.00 in0.0 mm 0.00 in0.0 mm
01:50 PM 79.2°F26.2°C 47.6°F8.7°C 33% 12.1 mph N19.5 kmh N 18.3 mph29.5 kmh 29.89 in1012.2 mb 0.00 in0.0 mm 0.00 in0.0 mm 0.00 in0.0 mm
01:51 PM 79.0°F26.1°C 47.5°F8.6°C 33% 8.3 mph N13.4 kmh N 18.3 mph29.5 kmh 29.90 in1012.5 mb 0.00 in0.0 mm 0.00 in0.0 mm 0.00 in0.0 mm
01:52 PM 79.0°F26.1°C 47.5°F8.6°C 33% 8.3 mph N13.4 kmh N 18.3 mph29.5 kmh 29.89 in1012.2 mb 0.00 in0.0 mm 0.00 in0.0 mm 0.00 in0.0 mm
01:53 PM 79.0°F26.1°C 47.5°F8.6°C 33% 11.4 mph N18.3 kmh N 18.3 mph29.5 kmh 29.89 in1012.2 mb 0.00 in0.0 mm 0.00 in0.0 mm 0.00 in0.0 mm
01:54 PM 79.0°F26.1°C 47.5°F8.6°C 33% 8.3 mph N13.4 kmh N 18.3 mph29.5 kmh 29.89 in1012.2 mb 0.00 in0.0 mm 0.00 in0.0 mm 0.00 in0.0 mm
01:55 PM 79.2°F26.2°C 48.4°F9.1°C 34% 15.9 mph N25.6 kmh N 21.3 mph34.3 kmh 29.89 in1012.2 mb 0.00 in0.0 mm 0.00 in0.0 mm 0.00 in0.0 mm
01:56 PM 79.2°F26.2°C 48.4°F9.1°C 34% 11.4 mph NNE18.3 kmh NNE 21.3 mph34.3 kmh 29.89 in1012.2 mb 0.00 in0.0 mm 0.00 in0.0 mm 0.00 in0.0 mm
01:57 PM 79.2°F26.2°C 48.4°F9.1°C 34% 11.4 mph NNE18.3 kmh NNE 21.3 mph34.3 kmh 29.89 in1012.2 mb 0.00 in0.0 mm 0.00 in0.0 mm 0.00 in0.0 mm
01:58 PM 78.8°F26.0°C 48.1°F8.9°C 34% 7.6 mph NNE12.2 kmh NNE 21.3 mph34.3 kmh 29.88 in1011.9 mb 0.00 in0.0 mm 0.00 in0.0 mm 0.00 in0.0 mm
01:59 PM 79.0°F26.1°C 48.3°F9.1°C 34% 7.6 mph NNE12.2 kmh NNE 21.3 mph34.3 kmh 29.89 in1012.2 mb 0.00 in0.0 mm 0.00 in0.0 mm 0.00 in0.0 mm
02:00 PM 79.0°F26.1°C 48.3°F9.1°C 34% 7.6 mph NNE12.2 kmh NNE 21.3 mph34.3 kmh 29.89 in1012.2 mb 0.00 in0.0 mm 0.00 in0.0 mm 0.00 in0.0 mm
02:01 PM 79.2°F26.2°C 48.4°F9.1°C 34% 11.4 mph NNE18.3 kmh NNE 21.3 mph34.3 kmh 29.89 in1012.2 mb 0.00 in0.0 mm 0.00 in0.0 mm 0.00 in0.0 mm
02:02 PM 79.3°F26.3°C 48.6°F9.2°C 34% 8.3 mph NNE13.4 kmh NNE 21.3 mph34.3 kmh 29.89 in1012.2 mb 0.00 in0.0 mm 0.00 in0.0 mm 0.00 in0.0 mm
02:03 PM 79.5°F26.4°C 49.5°F9.7°C 35% 10.7 mph NNE17.2 kmh NNE 21.3 mph34.3 kmh 29.89 in1012.2 mb 0.00 in0.0 mm 0.00 in0.0 mm 0.00 in0.0 mm
02:04 PM 79.7°F26.5°C 48.9°F9.4°C 34% 8.3 mph NNE13.4 kmh NNE 21.3 mph34.3 kmh 29.89 in1012.2 mb 0.00 in0.0 mm 0.00 in0.0 mm 0.00 in0.0 mm
02:05 PM 79.7°F26.5°C 48.9°F9.4°C 34% 10.7 mph NNE17.2 kmh NNE 21.3 mph34.3 kmh 29.89 in1012.2 mb 0.00 in0.0 mm 0.00 in0.0 mm 0.00 in0.0 mm
02:06 PM 79.7°F26.5°C 48.9°F9.4°C 34% 9.2 mph N14.8 kmh N 18.3 mph29.5 kmh 29.89 in1012.2 mb 0.00 in0.0 mm 0.00 in0.0 mm 0.00 in0.0 mm
02:07 PM 79.5°F26.4°C 48.7°F9.3°C 34% 9.2 mph N14.8 kmh N 17.4 mph28.0 kmh 29.88 in1011.9 mb 0.00 in0.0 mm 0.00 in0.0 mm 0.00 in0.0 mm
02:08 PM 79.5°F26.4°C 48.7°F9.3°C 34% 9.8 mph N15.8 kmh N 17.4 mph28.0 kmh 29.88 in1011.9 mb 0.00 in0.0 mm 0.00 in0.0 mm 0.00 in0.0 mm
02:09 PM 79.7°F26.5°C 48.9°F9.4°C 34% 7.6 mph N12.2 kmh N 17.4 mph28.0 kmh 29.88 in1011.9 mb 0.00 in0.0 mm 0.00 in0.0 mm 0.00 in0.0 mm
02:10 PM 79.7°F26.5°C 48.9°F9.4°C 34% 9.8 mph N15.8 kmh N 17.4 mph28.0 kmh 29.88 in1011.9 mb 0.00 in0.0 mm 0.00 in0.0 mm 0.00 in0.0 mm
02:11 PM 79.9°F26.6°C 49.0°F9.4°C 34% 10.7 mph N17.2 kmh N 17.4 mph28.0 kmh 29.87 in1011.5 mb 0.00 in0.0 mm 0.00 in0.0 mm 0.00 in0.0 mm
02:12 PM 79.9°F26.6°C 49.0°F9.4°C 34% 8.3 mph N13.4 kmh N 17.4 mph28.0 kmh 29.88 in1011.9 mb 0.00 in0.0 mm 0.00 in0.0 mm 0.00 in0.0 mm
02:13 PM 79.7°F26.5°C 48.9°F9.4°C 34% 9.8 mph NNE15.8 kmh NNE 16.8 mph27.0 kmh 29.88 in1011.9 mb 0.00 in0.0 mm 0.00 in0.0 mm 0.00 in0.0 mm
02:14 PM 79.7°F26.5°C 49.7°F9.8°C 35% 10.7 mph N17.2 kmh N 16.8 mph27.0 kmh 29.88 in1011.9 mb 0.00 in0.0 mm 0.00 in0.0 mm 0.00 in0.0 mm
02:15 PM 79.7°F26.5°C 48.9°F9.4°C 34% 9.2 mph N14.8 kmh N 16.8 mph27.0 kmh 29.88 in1011.9 mb 0.00 in0.0 mm 0.00 in0.0 mm 0.00 in0.0 mm
02:16 PM 79.7°F26.5°C 48.9°F9.4°C 34% 9.8 mph N15.8 kmh N 16.8 mph27.0 kmh 29.88 in1011.9 mb 0.00 in0.0 mm 0.00 in0.0 mm 0.00 in0.0 mm
02:17 PM 79.7°F26.5°C 48.9°F9.4°C 34% 11.4 mph N18.3 kmh N 16.8 mph27.0 kmh 29.88 in1011.9 mb 0.00 in0.0 mm 0.00 in0.0 mm 0.00 in0.0 mm
02:18 PM 79.7°F26.5°C 48.9°F9.4°C 34% 12.1 mph N19.5 kmh N 16.8 mph27.0 kmh 29.88 in1011.9 mb 0.00 in0.0 mm 0.00 in0.0 mm 0.00 in0.0 mm
02:19 PM 79.7°F26.5°C 48.9°F9.4°C 34% 12.1 mph N19.5 kmh N 16.8 mph27.0 kmh 29.88 in1011.9 mb 0.00 in0.0 mm 0.00 in0.0 mm 0.00 in0.0 mm
02:20 PM 79.5°F26.4°C 48.7°F9.3°C 34% 12.1 mph N19.5 kmh N 16.8 mph27.0 kmh 29.88 in1011.9 mb 0.00 in0.0 mm 0.00 in0.0 mm 0.00 in0.0 mm
02:21 PM 79.3°F26.3°C 48.6°F9.2°C 34% 14.5 mph NNE23.3 kmh NNE 19.0 mph30.6 kmh 29.88 in1011.9 mb 0.00 in0.0 mm 0.00 in0.0 mm 0.00 in0.0 mm
02:22 PM 79.3°F26.3°C 48.6°F9.2°C 34% 10.7 mph NNE17.2 kmh NNE 19.0 mph30.6 kmh 29.88 in1011.9 mb 0.00 in0.0 mm 0.00 in0.0 mm 0.00 in0.0 mm
02:23 PM 79.3°F26.3°C 48.6°F9.2°C 34% 10.7 mph N17.2 kmh N 19.0 mph30.6 kmh 29.87 in1011.5 mb 0.00 in0.0 mm 0.00 in0.0 mm 0.00 in0.0 mm
02:24 PM 79.2°F26.2°C 48.4°F9.1°C 34% 10.7 mph N17.2 kmh N 19.0 mph30.6 kmh 29.88 in1011.9 mb 0.00 in0.0 mm 0.00 in0.0 mm 0.00 in0.0 mm
02:25 PM 79.3°F26.3°C 48.6°F9.2°C 34% 9.2 mph NNE14.8 kmh NNE 19.0 mph30.6 kmh 29.87 in1011.5 mb 0.00 in0.0 mm 0.00 in0.0 mm 0.00 in0.0 mm
02:26 PM 79.5°F26.4°C 48.7°F9.3°C 34% 10.7 mph NNE17.2 kmh NNE 19.0 mph30.6 kmh 29.87 in1011.5 mb 0.00 in0.0 mm 0.00 in0.0 mm 0.00 in0.0 mm
02:27 PM 79.5°F26.4°C 48.7°F9.3°C 34% 9.2 mph NNE14.8 kmh NNE 19.0 mph30.6 kmh 29.87 in1011.5 mb 0.00 in0.0 mm 0.00 in0.0 mm 0.00 in0.0 mm
02:28 PM 79.7°F26.5°C 48.9°F9.4°C 34% 11.4 mph NNE18.3 kmh NNE 19.0 mph30.6 kmh 29.87 in1011.5 mb 0.00 in0.0 mm 0.00 in0.0 mm 0.00 in0.0 mm
02:29 PM 79.7°F26.5°C 48.9°F9.4°C 34% 15.2 mph NNE24.5 kmh NNE 21.3 mph34.3 kmh 29.87 in1011.5 mb 0.00 in0.0 mm 0.00 in0.0 mm 0.00 in0.0 mm
02:30 PM 79.5°F26.4°C 47.9°F8.8°C 33% 10.7 mph NNE17.2 kmh NNE 21.3 mph34.3 kmh 29.87 in1011.5 mb 0.00 in0.0 mm 0.00 in0.0 mm 0.00 in0.0 mm
02:31 PM 79.3°F26.3°C 47.8°F8.8°C 33% 9.2 mph NNE14.8 kmh NNE 21.3 mph34.3 kmh 29.87 in1011.5 mb 0.00 in0.0 mm 0.00 in0.0 mm 0.00 in0.0 mm
02:32 PM 79.2°F26.2°C 47.6°F8.7°C 33% 9.2 mph NNE14.8 kmh NNE 21.3 mph34.3 kmh 29.86 in1011.2 mb 0.00 in0.0 mm 0.00 in0.0 mm 0.00 in0.0 mm
02:33 PM 79.2°F26.2°C 48.4°F9.1°C 34% 10.7 mph NE17.2 kmh NE 21.3 mph34.3 kmh 29.87 in1011.5 mb 0.00 in0.0 mm 0.00 in0.0 mm 0.00 in0.0 mm
02:34 PM 79.2°F26.2°C 48.4°F9.1°C 34% 10.7 mph NE17.2 kmh NE 21.3 mph34.3 kmh 29.87 in1011.5 mb 0.00 in0.0 mm 0.00 in0.0 mm 0.00 in0.0 mm
02:35 PM 79.2°F26.2°C 49.2°F9.6°C 35% 9.8 mph NE15.8 kmh NE 21.3 mph34.3 kmh 29.86 in1011.2 mb 0.00 in0.0 mm 0.00 in0.0 mm 0.00 in0.0 mm
02:36 PM 79.2°F26.2°C 49.2°F9.6°C 35% 13.6 mph NNE21.9 kmh NNE 21.3 mph34.3 kmh 29.86 in1011.2 mb 0.00 in0.0 mm 0.00 in0.0 mm 0.00 in0.0 mm
02:37 PM 79.2°F26.2°C 48.4°F9.1°C 34% 10.7 mph NNE17.2 kmh NNE 21.3 mph34.3 kmh 29.87 in1011.5 mb 0.00 in0.0 mm 0.00 in0.0 mm 0.00 in0.0 mm
02:38 PM 79.2°F26.2°C 48.4°F9.1°C 34% 9.2 mph NNE14.8 kmh NNE 21.3 mph34.3 kmh 29.86 in1011.2 mb 0.00 in0.0 mm 0.00 in0.0 mm 0.00 in0.0 mm
02:39 PM 79.2°F26.2°C 49.2°F9.6°C 35% 6.9 mph NNE11.1 kmh NNE 19.7 mph31.7 kmh 29.86 in1011.2 mb 0.00 in0.0 mm 0.00 in0.0 mm 0.00 in0.0 mm
02:40 PM 79.3°F26.3°C 49.3°F9.6°C 35% 13.0 mph NE20.9 kmh NE 19.7 mph31.7 kmh 29.86 in1011.2 mb 0.00 in0.0 mm 0.00 in0.0 mm 0.00 in0.0 mm
02:41 PM 79.5°F26.4°C 49.5°F9.7°C 35% 8.3 mph NE13.4 kmh NE 19.7 mph31.7 kmh 29.86 in1011.2 mb 0.00 in0.0 mm 0.00 in0.0 mm 0.00 in0.0 mm
02:42 PM 79.9°F26.6°C 49.0°F9.4°C 34% 9.8 mph NE15.8 kmh NE 19.7 mph31.7 kmh 29.86 in1011.2 mb 0.00 in0.0 mm 0.00 in0.0 mm 0.00 in0.0 mm
02:43 PM 79.7°F26.5°C 48.9°F9.4°C 34% 13.0 mph NE20.9 kmh NE 19.7 mph31.7 kmh 29.86 in1011.2 mb 0.00 in0.0 mm 0.00 in0.0 mm 0.00 in0.0 mm
02:44 PM 79.7°F26.5°C 48.1°F8.9°C 33% 10.7 mph NE17.2 kmh NE 19.7 mph31.7 kmh 29.86 in1011.2 mb 0.00 in0.0 mm 0.00 in0.0 mm 0.00 in0.0 mm
02:45 PM 79.5°F26.4°C 47.9°F8.8°C 33% 10.7 mph NE17.2 kmh NE 19.7 mph31.7 kmh 29.86 in1011.2 mb 0.00 in0.0 mm 0.00 in0.0 mm 0.00 in0.0 mm
02:46 PM 79.3°F26.3°C 48.6°F9.2°C 34% 10.7 mph NE17.2 kmh NE 19.7 mph31.7 kmh 29.86 in1011.2 mb 0.00 in0.0 mm 0.00 in0.0 mm 0.00 in0.0 mm
02:47 PM 79.3°F26.3°C 47.8°F8.8°C 33% 13.0 mph NE20.9 kmh NE 19.7 mph31.7 kmh 29.86 in1011.2 mb 0.00 in0.0 mm 0.00 in0.0 mm 0.00 in0.0 mm
02:48 PM 79.3°F26.3°C 47.8°F8.8°C 33% 15.9 mph NE25.6 kmh NE 20.6 mph33.2 kmh 29.86 in1011.2 mb 0.00 in0.0 mm 0.00 in0.0 mm 0.00 in0.0 mm
02:49 PM 79.2°F26.2°C 48.4°F9.1°C 34% 9.8 mph NE15.8 kmh NE 20.6 mph33.2 kmh 29.85 in1010.8 mb 0.00 in0.0 mm 0.00 in0.0 mm 0.00 in0.0 mm
02:50 PM 79.0°F26.1°C 49.0°F9.4°C 35% 9.8 mph NE15.8 kmh NE 20.6 mph33.2 kmh 29.85 in1010.8 mb 0.00 in0.0 mm 0.00 in0.0 mm 0.00 in0.0 mm
02:51 PM 79.2°F26.2°C 48.4°F9.1°C 34% 11.4 mph NNE18.3 kmh NNE 20.6 mph33.2 kmh 29.86 in1011.2 mb 0.00 in0.0 mm 0.00 in0.0 mm 0.00 in0.0 mm
02:53 PM 79.3°F26.3°C 47.8°F8.8°C 33% 13.6 mph NE21.9 kmh NE 22.1 mph35.6 kmh 29.86 in1011.2 mb 0.00 in0.0 mm 0.00 in0.0 mm 0.00 in0.0 mm
02:54 PM 79.2°F26.2°C 47.6°F8.7°C 33% 7.6 mph NNE12.2 kmh NNE 22.1 mph35.6 kmh 29.86 in1011.2 mb 0.00 in0.0 mm 0.00 in0.0 mm 0.00 in0.0 mm
02:55 PM 79.2°F26.2°C 48.4°F9.1°C 34% 9.8 mph N15.8 kmh N 22.1 mph35.6 kmh 29.85 in1010.8 mb 0.00 in0.0 mm 0.00 in0.0 mm 0.00 in0.0 mm
02:56 PM 79.2°F26.2°C 48.4°F9.1°C 34% 9.8 mph N15.8 kmh N 22.1 mph35.6 kmh 29.86 in1011.2 mb 0.00 in0.0 mm 0.00 in0.0 mm 0.00 in0.0 mm
02:57 PM 79.3°F26.3°C 48.6°F9.2°C 34% 11.4 mph N18.3 kmh N 22.1 mph35.6 kmh 29.86 in1011.2 mb 0.00 in0.0 mm 0.00 in0.0 mm 0.00 in0.0 mm
02:58 PM 79.3°F26.3°C 48.6°F9.2°C 34% 16.8 mph NNE27.0 kmh NNE 22.1 mph35.6 kmh 29.85 in1010.8 mb 0.00 in0.0 mm 0.00 in0.0 mm 0.00 in0.0 mm
02:59 PM 79.2°F26.2°C 48.4°F9.1°C 34% 15.9 mph NNE25.6 kmh NNE 22.1 mph35.6 kmh 29.86 in1011.2 mb 0.00 in0.0 mm 0.00 in0.0 mm 0.00 in0.0 mm
03:00 PM 79.0°F26.1°C 48.3°F9.1°C 34% 13.0 mph NNE20.9 kmh NNE 22.1 mph35.6 kmh 29.85 in1010.8 mb 0.00 in0.0 mm 0.00 in0.0 mm 0.00 in0.0 mm
03:02 PM 78.8°F26.0°C 48.1°F8.9°C 34% 9.8 mph NNE15.8 kmh NNE 22.1 mph35.6 kmh 29.85 in1010.8 mb 0.00 in0.0 mm 0.00 in0.0 mm 0.00 in0.0 mm
03:04 PM 79.3°F26.3°C 49.3°F9.6°C 35% 10.7 mph NNE17.2 kmh NNE 21.3 mph34.3 kmh 29.85 in1010.8 mb 0.00 in0.0 mm 0.00 in0.0 mm 0.00 in0.0 mm
03:05 PM 79.3°F26.3°C 48.6°F9.2°C 34% 9.8 mph NNE15.8 kmh NNE 21.3 mph34.3 kmh 29.85 in1010.8 mb 0.00 in0.0 mm 0.00 in0.0 mm 0.00 in0.0 mm
03:06 PM 79.5°F26.4°C 48.7°F9.3°C 34% 13.0 mph NE20.9 kmh NE 21.3 mph34.3 kmh 29.85 in1010.8 mb 0.00 in0.0 mm 0.00 in0.0 mm 0.00 in0.0 mm
03:07 PM 79.3°F26.3°C 48.6°F9.2°C 34% 7.6 mph NE12.2 kmh NE 21.3 mph34.3 kmh 29.85 in1010.8 mb 0.00 in0.0 mm 0.00 in0.0 mm 0.00 in0.0 mm
03:08 PM 79.5°F26.4°C 49.5°F9.7°C 35% 10.7 mph NE17.2 kmh NE 21.3 mph34.3 kmh 29.86 in1011.2 mb 0.00 in0.0 mm 0.00 in0.0 mm 0.00 in0.0 mm
03:09 PM 79.5°F26.4°C 48.7°F9.3°C 34% 11.4 mph NE18.3 kmh NE 19.7 mph31.7 kmh 29.85 in1010.8 mb 0.00 in0.0 mm 0.00 in0.0 mm 0.00 in0.0 mm
03:10 PM 79.5°F26.4°C 48.7°F9.3°C 34% 7.6 mph NE12.2 kmh NE 19.7 mph31.7 kmh 29.85 in1010.8 mb 0.00 in0.0 mm 0.00 in0.0 mm 0.00 in0.0 mm
03:11 PM 79.5°F26.4°C 48.7°F9.3°C 34% 8.3 mph NE13.4 kmh NE 19.7 mph31.7 kmh 29.85 in1010.8 mb 0.00 in0.0 mm 0.00 in0.0 mm 0.00 in0.0 mm
03:12 PM 79.7°F26.5°C 48.9°F9.4°C 34% 9.2 mph NE14.8 kmh NE 19.7 mph31.7 kmh 29.85 in1010.8 mb 0.00 in0.0 mm 0.00 in0.0 mm 0.00 in0.0 mm
03:13 PM 79.9°F26.6°C 49.8°F9.9°C 35% 9.2 mph NE14.8 kmh NE 19.7 mph31.7 kmh 29.85 in1010.8 mb 0.00 in0.0 mm 0.00 in0.0 mm 0.00 in0.0 mm
03:14 PM 80.1°F26.7°C 49.2°F9.6°C 34% 11.4 mph NE18.3 kmh NE 19.7 mph31.7 kmh 29.84 in1010.5 mb 0.00 in0.0 mm 0.00 in0.0 mm 0.00 in0.0 mm
03:15 PM 80.1°F26.7°C 49.2°F9.6°C 34% 8.3 mph NE13.4 kmh NE 19.7 mph31.7 kmh 29.85 in1010.8 mb 0.00 in0.0 mm 0.00 in0.0 mm 0.00 in0.0 mm
03:16 PM 80.1°F26.7°C 49.2°F9.6°C 34% 8.3 mph NE13.4 kmh NE 15.9 mph25.6 kmh 29.85 in1010.8 mb 0.00 in0.0 mm 0.00 in0.0 mm 0.00 in0.0 mm
03:17 PM 80.1°F26.7°C 49.2°F9.6°C 34% 12.1 mph NNE19.5 kmh NNE 16.8 mph27.0 kmh 29.85 in1010.8 mb 0.00 in0.0 mm 0.00 in0.0 mm 0.00 in0.0 mm
03:18 PM 80.2°F26.8°C 49.4°F9.7°C 34% 12.1 mph NNE19.5 kmh NNE 18.3 mph29.5 kmh 29.85 in1010.8 mb 0.00 in0.0 mm 0.00 in0.0 mm 0.00 in0.0 mm
03:19 PM 80.1°F26.7°C 48.4°F9.1°C 33% 13.6 mph NNE21.9 kmh NNE 19.0 mph30.6 kmh 29.85 in1010.8 mb 0.00 in0.0 mm 0.00 in0.0 mm 0.00 in0.0 mm
03:20 PM 80.1°F26.7°C 48.4°F9.1°C 33% 10.7 mph NNE17.2 kmh NNE 19.0 mph30.6 kmh 29.84 in1010.5 mb 0.00 in0.0 mm 0.00 in0.0 mm 0.00 in0.0 mm
03:21 PM 79.9°F26.6°C 48.2°F9.0°C 33% 13.6 mph NNE21.9 kmh NNE 19.0 mph30.6 kmh 29.84 in1010.5 mb 0.00 in0.0 mm 0.00 in0.0 mm 0.00 in0.0 mm
03:22 PM 79.7°F26.5°C 48.9°F9.4°C 34% 7.6 mph NNE12.2 kmh NNE 19.0 mph30.6 kmh 29.84 in1010.5 mb 0.00 in0.0 mm 0.00 in0.0 mm 0.00 in0.0 mm
03:23 PM 79.7°F26.5°C 48.9°F9.4°C 34% 9.8 mph NNE15.8 kmh NNE 19.0 mph30.6 kmh 29.84 in1010.5 mb 0.00 in0.0 mm 0.00 in0.0 mm 0.00 in0.0 mm
03:24 PM 79.7°F26.5°C 48.9°F9.4°C 34% 8.3 mph NNE13.4 kmh NNE 19.0 mph30.6 kmh 29.85 in1010.8 mb 0.00 in0.0 mm 0.00 in0.0 mm 0.00 in0.0 mm
03:25 PM 79.7°F26.5°C 48.9°F9.4°C 34% 9.8 mph NNE15.8 kmh NNE 19.0 mph30.6 kmh 29.84 in1010.5 mb 0.00 in0.0 mm 0.00 in0.0 mm 0.00 in0.0 mm
03:26 PM 79.7°F26.5°C 48.9°F9.4°C 34% 13.0 mph NNE20.9 kmh NNE 19.0 mph30.6 kmh 29.84 in1010.5 mb 0.00 in0.0 mm 0.00 in0.0 mm 0.00 in0.0 mm
03:28 PM 79.5°F26.4°C 48.7°F9.3°C 34% 12.1 mph NNE19.5 kmh NNE 19.0 mph30.6 kmh 29.84 in1010.5 mb 0.00 in0.0 mm 0.00 in0.0 mm 0.00 in0.0 mm
03:29 PM 79.5°F26.4°C 48.7°F9.3°C 34% 9.8 mph NE15.8 kmh NE 19.0 mph30.6 kmh 29.84 in1010.5 mb 0.00 in0.0 mm 0.00 in0.0 mm 0.00 in0.0 mm
03:30 PM 79.5°F26.4°C 48.7°F9.3°C 34% 13.6 mph NE21.9 kmh NE 18.3 mph29.5 kmh 29.84 in1010.5 mb 0.00 in0.0 mm 0.00 in0.0 mm 0.00 in0.0 mm
03:31 PM 79.5°F26.4°C 48.7°F9.3°C 34% 6.9 mph NNE11.1 kmh NNE 18.3 mph29.5 kmh 29.83 in1010.2 mb 0.00 in0.0 mm 0.00 in0.0 mm 0.00 in0.0 mm
03:32 PM 79.5°F26.4°C 48.7°F9.3°C 34% 9.8 mph NNE15.8 kmh NNE 18.3 mph29.5 kmh 29.83 in1010.2 mb 0.00 in0.0 mm 0.00 in0.0 mm 0.00 in0.0 mm
03:33 PM 79.5°F26.4°C 48.7°F9.3°C 34% 12.1 mph NNE19.5 kmh NNE 18.3 mph29.5 kmh 29.84 in1010.5 mb 0.00 in0.0 mm 0.00 in0.0 mm 0.00 in0.0 mm
03:34 PM 79.5°F26.4°C 49.5°F9.7°C 35% 10.7 mph N17.2 kmh N 19.7 mph31.7 kmh 29.83 in1010.2 mb 0.00 in0.0 mm 0.00 in0.0 mm 0.00 in0.0 mm
03:35 PM 79.5°F26.4°C 49.5°F9.7°C 35% 9.8 mph N15.8 kmh N 19.7 mph31.7 kmh 29.84 in1010.5 mb 0.00 in0.0 mm 0.00 in0.0 mm 0.00 in0.0 mm
03:36 PM 79.5°F26.4°C 49.5°F9.7°C 35% 9.8 mph N15.8 kmh N 19.7 mph31.7 kmh 29.84 in1010.5 mb 0.00 in0.0 mm 0.00 in0.0 mm 0.00 in0.0 mm
03:38 PM 79.5°F26.4°C 49.5°F9.7°C 35% 12.1 mph N19.5 kmh N 19.0 mph30.6 kmh 29.84 in1010.5 mb 0.00 in0.0 mm 0.00 in0.0 mm 0.00 in0.0 mm
03:39 PM 79.3°F26.3°C 49.3°F9.6°C 35% 13.6 mph N21.9 kmh N 19.0 mph30.6 kmh 29.83 in1010.2 mb 0.00 in0.0 mm 0.00 in0.0 mm 0.00 in0.0 mm
03:40 PM 79.3°F26.3°C 50.1°F10.1°C 36% 12.1 mph N19.5 kmh N 19.0 mph30.6 kmh 29.84 in1010.5 mb 0.00 in0.0 mm 0.00 in0.0 mm 0.00 in0.0 mm
03:41 PM 79.3°F26.3°C 50.1°F10.1°C 36% 10.7 mph N17.2 kmh N 19.0 mph30.6 kmh 29.84 in1010.5 mb 0.00 in0.0 mm 0.00 in0.0 mm 0.00 in0.0 mm
03:42 PM 79.2°F26.2°C 49.2°F9.6°C 35% 9.2 mph N14.8 kmh N 19.0 mph30.6 kmh 29.83 in1010.2 mb 0.00 in0.0 mm 0.00 in0.0 mm 0.00 in0.0 mm
03:43 PM 79.2°F26.2°C 49.2°F9.6°C 35% 11.4 mph N18.3 kmh N 19.0 mph30.6 kmh 29.83 in1010.2 mb 0.00 in0.0 mm 0.00 in0.0 mm 0.00 in0.0 mm
03:44 PM 79.2°F26.2°C 48.4°F9.1°C 34% 10.7 mph N17.2 kmh N 19.0 mph30.6 kmh 29.84 in1010.5 mb 0.00 in0.0 mm 0.00 in0.0 mm 0.00 in0.0 mm
03:45 PM 79.2°F26.2°C 48.4°F9.1°C 34% 8.3 mph N13.4 kmh N 19.0 mph30.6 kmh 29.83 in1010.2 mb 0.00 in0.0 mm 0.00 in0.0 mm 0.00 in0.0 mm
03:46 PM 79.2°F26.2°C 49.2°F9.6°C 35% 9.2 mph N14.8 kmh N 19.0 mph30.6 kmh 29.83 in1010.2 mb 0.00 in0.0 mm 0.00 in0.0 mm 0.00 in0.0 mm
03:48 PM 79.5°F26.4°C 48.7°F9.3°C 34% 9.8 mph N15.8 kmh N 19.0 mph30.6 kmh 29.83 in1010.2 mb 0.00 in0.0 mm 0.00 in0.0 mm 0.00 in0.0 mm
03:49 PM 79.7°F26.5°C 48.9°F9.4°C 34% 7.6 mph N12.2 kmh N 18.3 mph29.5 kmh 29.82 in1009.8 mb 0.00 in0.0 mm 0.00 in0.0 mm 0.00 in0.0 mm
03:50 PM 79.9°F26.6°C 49.8°F9.9°C 35% 11.4 mph N18.3 kmh N 16.8 mph27.0 kmh 29.83 in1010.2 mb 0.00 in0.0 mm 0.00 in0.0 mm 0.00 in0.0 mm
03:51 PM 80.1°F26.7°C 49.2°F9.6°C 34% 10.7 mph N17.2 kmh N 16.8 mph27.0 kmh 29.83 in1010.2 mb 0.00 in0.0 mm 0.00 in0.0 mm 0.00 in0.0 mm
03:52 PM 80.2°F26.8°C 49.4°F9.7°C 34% 6.0 mph NNE9.7 kmh NNE 16.8 mph27.0 kmh 29.84 in1010.5 mb 0.00 in0.0 mm 0.00 in0.0 mm 0.00 in0.0 mm
03:53 PM 80.1°F26.7°C 49.2°F9.6°C 34% 11.4 mph N18.3 kmh N 16.8 mph27.0 kmh 29.83 in1010.2 mb 0.00 in0.0 mm 0.00 in0.0 mm 0.00 in0.0 mm
03:54 PM 80.1°F26.7°C 49.2°F9.6°C 34% 9.2 mph N14.8 kmh N 16.8 mph27.0 kmh 29.83 in1010.2 mb 0.00 in0.0 mm 0.00 in0.0 mm 0.00 in0.0 mm
03:55 PM 79.9°F26.6°C 49.8°F9.9°C 35% 5.4 mph N8.7 kmh N 15.9 mph25.6 kmh 29.82 in1009.8 mb 0.00 in0.0 mm 0.00 in0.0 mm 0.00 in0.0 mm
03:56 PM 79.9°F26.6°C 49.8°F9.9°C 35% 6.0 mph N9.7 kmh N 15.9 mph25.6 kmh 29.82 in1009.8 mb 0.00 in0.0 mm 0.00 in0.0 mm 0.00 in0.0 mm
03:58 PM 80.4°F26.9°C 50.3°F10.2°C 35% 9.8 mph NNE15.8 kmh NNE 15.2 mph24.5 kmh 29.82 in1009.8 mb 0.00 in0.0 mm 0.00 in0.0 mm 0.00 in0.0 mm
03:59 PM 80.2°F26.8°C 50.1°F10.1°C 35% 9.8 mph NNE15.8 kmh NNE 15.2 mph24.5 kmh 29.83 in1010.2 mb 0.00 in0.0 mm 0.00 in0.0 mm 0.00 in0.0 mm
04:00 PM 80.2°F26.8°C 50.1°F10.1°C 35% 8.3 mph NNE13.4 kmh NNE 15.2 mph24.5 kmh 29.83 in1010.2 mb 0.00 in0.0 mm 0.00 in0.0 mm 0.00 in0.0 mm
04:01 PM 80.2°F26.8°C 50.1°F10.1°C 35% 9.2 mph NNE14.8 kmh NNE 15.2 mph24.5 kmh 29.82 in1009.8 mb 0.00 in0.0 mm 0.00 in0.0 mm 0.00 in0.0 mm
04:02 PM 80.2°F26.8°C 49.4°F9.7°C 34% 8.3 mph NE13.4 kmh NE 15.9 mph25.6 kmh 29.82 in1009.8 mb 0.00 in0.0 mm 0.00 in0.0 mm 0.00 in0.0 mm
04:03 PM 80.2°F26.8°C 49.4°F9.7°C 34% 9.2 mph NE14.8 kmh NE 15.9 mph25.6 kmh 29.81 in1009.5 mb 0.00 in0.0 mm 0.00 in0.0 mm 0.00 in0.0 mm
04:04 PM 80.2°F26.8°C 49.4°F9.7°C 34% 9.8 mph NE15.8 kmh NE 15.9 mph25.6 kmh 29.82 in1009.8 mb 0.00 in0.0 mm 0.00 in0.0 mm 0.00 in0.0 mm
04:05 PM 80.2°F26.8°C 49.4°F9.7°C 34% 6.0 mph NE9.7 kmh NE 15.9 mph25.6 kmh 29.82 in1009.8 mb 0.00 in0.0 mm 0.00 in0.0 mm 0.00 in0.0 mm
04:06 PM 80.2°F26.8°C 49.4°F9.7°C 34% 6.9 mph NE11.1 kmh NE 15.9 mph25.6 kmh 29.82 in1009.8 mb 0.00 in0.0 mm 0.00 in0.0 mm 0.00 in0.0 mm
04:07 PM 80.2°F26.8°C 49.4°F9.7°C 34% 10.7 mph NE17.2 kmh NE 15.9 mph25.6 kmh 29.83 in1010.2 mb 0.00 in0.0 mm 0.00 in0.0 mm 0.00 in0.0 mm
04:09 PM 80.1°F26.7°C 49.2°F9.6°C 34% 12.1 mph NNE19.5 kmh NNE 15.9 mph25.6 kmh 29.82 in1009.8 mb 0.00 in0.0 mm 0.00 in0.0 mm 0.00 in0.0 mm
04:10 PM 79.7°F26.5°C 48.9°F9.4°C 34% 8.3 mph NE13.4 kmh NE 15.9 mph25.6 kmh 29.82 in1009.8 mb 0.00 in0.0 mm 0.00 in0.0 mm 0.00 in0.0 mm
04:11 PM 79.7°F26.5°C 49.7°F9.8°C 35% 11.4 mph NE18.3 kmh NE 15.9 mph25.6 kmh 29.82 in1009.8 mb 0.00 in0.0 mm 0.00 in0.0 mm 0.00 in0.0 mm
04:12 PM 79.7°F26.5°C 49.7°F9.8°C 35% 9.8 mph NE15.8 kmh NE 15.9 mph25.6 kmh 29.83 in1010.2 mb 0.00 in0.0 mm 0.00 in0.0 mm 0.00 in0.0 mm
04:13 PM 79.7°F26.5°C 49.7°F9.8°C 35% 8.3 mph NE13.4 kmh NE 15.9 mph25.6 kmh 29.82 in1009.8 mb 0.00 in0.0 mm 0.00 in0.0 mm 0.00 in0.0 mm
04:14 PM 79.7°F26.5°C 49.7°F9.8°C 35% 9.8 mph NNE15.8 kmh NNE 15.9 mph25.6 kmh 29.82 in1009.8 mb 0.00 in0.0 mm 0.00 in0.0 mm 0.00 in0.0 mm
04:15 PM 79.9°F26.6°C 50.6°F10.3°C 36% 10.7 mph NE17.2 kmh NE 15.9 mph25.6 kmh 29.83 in1010.2 mb 0.00 in0.0 mm 0.00 in0.0 mm 0.00 in0.0 mm
04:16 PM 79.9°F26.6°C 49.8°F9.9°C 35% 11.4 mph NE18.3 kmh NE 16.8 mph27.0 kmh 29.82 in1009.8 mb 0.00 in0.0 mm 0.00 in0.0 mm 0.00 in0.0 mm
04:17 PM 79.9°F26.6°C 49.0°F9.4°C 34% 9.8 mph NE15.8 kmh NE 16.8 mph27.0 kmh 29.82 in1009.8 mb 0.00 in0.0 mm 0.00 in0.0 mm 0.00 in0.0 mm
04:18 PM 79.7°F26.5°C 48.9°F9.4°C 34% 10.7 mph NNE17.2 kmh NNE 16.8 mph27.0 kmh 29.82 in1009.8 mb 0.00 in0.0 mm 0.00 in0.0 mm 0.00 in0.0 mm
04:19 PM 79.7°F26.5°C 48.9°F9.4°C 34% 8.3 mph NNE13.4 kmh NNE 16.8 mph27.0 kmh 29.82 in1009.8 mb 0.00 in0.0 mm 0.00 in0.0 mm 0.00 in0.0 mm
04:20 PM 79.9°F26.6°C 49.0°F9.4°C 34% 9.2 mph NNE14.8 kmh NNE 16.8 mph27.0 kmh 29.81 in1009.5 mb 0.00 in0.0 mm 0.00 in0.0 mm 0.00 in0.0 mm
04:21 PM 79.9°F26.6°C 48.2°F9.0°C 33% 9.8 mph NNE15.8 kmh NNE 16.8 mph27.0 kmh 29.82 in1009.8 mb 0.00 in0.0 mm 0.00 in0.0 mm 0.00 in0.0 mm
04:22 PM 79.7°F26.5°C 48.9°F9.4°C 34% 10.7 mph NNE17.2 kmh NNE 16.8 mph27.0 kmh 29.81 in1009.5 mb 0.00 in0.0 mm 0.00 in0.0 mm 0.00 in0.0 mm
04:23 PM 79.7°F26.5°C 48.9°F9.4°C 34% 7.6 mph NNE12.2 kmh NNE 16.8 mph27.0 kmh 29.82 in1009.8 mb 0.00 in0.0 mm 0.00 in0.0 mm 0.00 in0.0 mm
04:24 PM 79.7°F26.5°C 48.9°F9.4°C 34% 11.4 mph NE18.3 kmh NE 16.8 mph27.0 kmh 29.82 in1009.8 mb 0.00 in0.0 mm 0.00 in0.0 mm 0.00 in0.0 mm
04:25 PM 79.7°F26.5°C 48.9°F9.4°C 34% 10.7 mph NE17.2 kmh NE 16.8 mph27.0 kmh 29.82 in1009.8 mb 0.00 in0.0 mm 0.00 in0.0 mm 0.00 in0.0 mm
04:26 PM 79.7°F26.5°C 48.9°F9.4°C 34% 8.3 mph NE13.4 kmh NE 16.8 mph27.0 kmh 29.82 in1009.8 mb 0.00 in0.0 mm 0.00 in0.0 mm 0.00 in0.0 mm
04:27 PM 79.7°F26.5°C 48.9°F9.4°C 34% 11.4 mph NNE18.3 kmh NNE 15.9 mph25.6 kmh 29.81 in1009.5 mb 0.00 in0.0 mm 0.00 in0.0 mm 0.00 in0.0 mm
04:28 PM 79.7°F26.5°C 48.9°F9.4°C 34% 9.8 mph NNE15.8 kmh NNE 15.9 mph25.6 kmh 29.81 in1009.5 mb 0.00 in0.0 mm 0.00 in0.0 mm 0.00 in0.0 mm
04:29 PM 79.7°F26.5°C 48.9°F9.4°C 34% 9.8 mph NNE15.8 kmh NNE 15.9 mph25.6 kmh 29.81 in1009.5 mb 0.00 in0.0 mm 0.00 in0.0 mm 0.00 in0.0 mm
04:30 PM 79.7°F26.5°C 48.9°F9.4°C 34% 9.2 mph NNE14.8 kmh NNE 15.9 mph25.6 kmh 29.81 in1009.5 mb 0.00 in0.0 mm 0.00 in0.0 mm 0.00 in0.0 mm
04:31 PM 79.7°F26.5°C 48.9°F9.4°C 34% 7.6 mph NNE12.2 kmh NNE 15.9 mph25.6 kmh 29.81 in1009.5 mb 0.00 in0.0 mm 0.00 in0.0 mm 0.00 in0.0 mm
04:32 PM 79.7°F26.5°C 49.7°F9.8°C 35% 9.2 mph NNE14.8 kmh NNE 15.9 mph25.6 kmh 29.82 in1009.8 mb 0.00 in0.0 mm 0.00 in0.0 mm 0.00 in0.0 mm
04:33 PM 79.7°F26.5°C 49.7°F9.8°C 35% 12.1 mph NNE19.5 kmh NNE 15.9 mph25.6 kmh 29.81 in1009.5 mb 0.00 in0.0 mm 0.00 in0.0 mm 0.00 in0.0 mm
04:34 PM 79.7°F26.5°C 48.9°F9.4°C 34% 9.2 mph NNE14.8 kmh NNE 15.9 mph25.6 kmh 29.81 in1009.5 mb 0.00 in0.0 mm 0.00 in0.0 mm 0.00 in0.0 mm
04:35 PM 79.7°F26.5°C 48.9°F9.4°C 34% 9.2 mph NNE14.8 kmh NNE 15.9 mph25.6 kmh 29.81 in1009.5 mb 0.00 in0.0 mm 0.00 in0.0 mm 0.00 in0.0 mm
04:36 PM 79.7°F26.5°C 48.9°F9.4°C 34% 9.8 mph NNE15.8 kmh NNE 15.9 mph25.6 kmh 29.82 in1009.8 mb 0.00 in0.0 mm 0.00 in0.0 mm 0.00 in0.0 mm
04:37 PM 79.5°F26.4°C 49.5°F9.7°C 35% 13.0 mph NNE20.9 kmh NNE 16.8 mph27.0 kmh 29.82 in1009.8 mb 0.00 in0.0 mm 0.00 in0.0 mm 0.00 in0.0 mm
04:38 PM 79.5°F26.4°C 48.7°F9.3°C 34% 9.8 mph NNE15.8 kmh NNE 17.4 mph28.0 kmh 29.81 in1009.5 mb 0.00 in0.0 mm 0.00 in0.0 mm 0.00 in0.0 mm
04:39 PM 79.5°F26.4°C 48.7°F9.3°C 34% 9.2 mph NNE14.8 kmh NNE 17.4 mph28.0 kmh 29.81 in1009.5 mb 0.00 in0.0 mm 0.00 in0.0 mm 0.00 in0.0 mm
04:40 PM 79.5°F26.4°C 48.7°F9.3°C 34% 9.2 mph NNE14.8 kmh NNE 17.4 mph28.0 kmh 29.81 in1009.5 mb 0.00 in0.0 mm 0.00 in0.0 mm 0.00 in0.0 mm
04:41 PM 79.5°F26.4°C 48.7°F9.3°C 34% 9.8 mph NNE15.8 kmh NNE 17.4 mph28.0 kmh 29.81 in1009.5 mb 0.00 in0.0 mm 0.00 in0.0 mm 0.00 in0.0 mm
04:42 PM 79.7°F26.5°C 48.9°F9.4°C 34% 10.7 mph NNE17.2 kmh NNE 17.4 mph28.0 kmh 29.81 in1009.5 mb 0.00 in0.0 mm 0.00 in0.0 mm 0.00 in0.0 mm
04:43 PM 79.9°F26.6°C 48.2°F9.0°C 33% 9.8 mph N15.8 kmh N 17.4 mph28.0 kmh 29.81 in1009.5 mb 0.00 in0.0 mm 0.00 in0.0 mm 0.00 in0.0 mm
04:44 PM 79.9°F26.6°C 48.2°F9.0°C 33% 10.7 mph NNE17.2 kmh NNE 17.4 mph28.0 kmh 29.81 in1009.5 mb 0.00 in0.0 mm 0.00 in0.0 mm 0.00 in0.0 mm
04:45 PM 79.7°F26.5°C 48.1°F8.9°C 33% 9.2 mph NNE14.8 kmh NNE 17.4 mph28.0 kmh 29.81 in1009.5 mb 0.00 in0.0 mm 0.00 in0.0 mm 0.00 in0.0 mm
04:46 PM 79.5°F26.4°C 47.9°F8.8°C 33% 7.6 mph NNE12.2 kmh NNE 17.4 mph28.0 kmh 29.81 in1009.5 mb 0.00 in0.0 mm 0.00 in0.0 mm 0.00 in0.0 mm
04:47 PM 79.7°F26.5°C 48.1°F8.9°C 33% 7.6 mph NNE12.2 kmh NNE 17.4 mph28.0 kmh 29.80 in1009.1 mb 0.00 in0.0 mm 0.00 in0.0 mm 0.00 in0.0 mm
04:48 PM 79.7°F26.5°C 48.1°F8.9°C 33% 9.2 mph NE14.8 kmh NE 16.8 mph27.0 kmh 29.81 in1009.5 mb 0.00 in0.0 mm 0.00 in0.0 mm 0.00 in0.0 mm
04:49 PM 79.7°F26.5°C 48.1°F8.9°C 33% 13.6 mph NNE21.9 kmh NNE 17.4 mph28.0 kmh 29.81 in1009.5 mb 0.00 in0.0 mm 0.00 in0.0 mm 0.00 in0.0 mm
04:50 PM 79.5°F26.4°C 47.9°F8.8°C 33% 11.4 mph NNE18.3 kmh NNE 17.4 mph28.0 kmh 29.80 in1009.1 mb 0.00 in0.0 mm 0.00 in0.0 mm 0.00 in0.0 mm
04:51 PM 79.5°F26.4°C 47.9°F8.8°C 33% 11.4 mph NNE18.3 kmh NNE 17.4 mph28.0 kmh 29.81 in1009.5 mb 0.00 in0.0 mm 0.00 in0.0 mm 0.00 in0.0 mm
04:52 PM 79.5°F26.4°C 47.9°F8.8°C 33% 8.3 mph NNE13.4 kmh NNE 17.4 mph28.0 kmh 29.80 in1009.1 mb 0.00 in0.0 mm 0.00 in0.0 mm 0.00 in0.0 mm
04:53 PM 79.5°F26.4°C 47.9°F8.8°C 33% 8.3 mph NNE13.4 kmh NNE 17.4 mph28.0 kmh 29.81 in1009.5 mb 0.00 in0.0 mm 0.00 in0.0 mm 0.00 in0.0 mm
04:54 PM 79.5°F26.4°C 47.9°F8.8°C 33% 10.7 mph N17.2 kmh N 17.4 mph28.0 kmh 29.81 in1009.5 mb 0.00 in0.0 mm 0.00 in0.0 mm 0.00 in0.0 mm
04:55 PM 79.5°F26.4°C 47.9°F8.8°C 33% 9.8 mph N15.8 kmh N 17.4 mph28.0 kmh 29.80 in1009.1 mb 0.00 in0.0 mm 0.00 in0.0 mm 0.00 in0.0 mm
04:56 PM 79.5°F26.4°C 47.9°F8.8°C 33% 9.2 mph N14.8 kmh N 17.4 mph28.0 kmh 29.81 in1009.5 mb 0.00 in0.0 mm 0.00 in0.0 mm 0.00 in0.0 mm
04:57 PM 79.5°F26.4°C 47.9°F8.8°C 33% 8.3 mph N13.4 kmh N 17.4 mph28.0 kmh 29.81 in1009.5 mb 0.00 in0.0 mm 0.00 in0.0 mm 0.00 in0.0 mm
04:58 PM 79.7°F26.5°C 48.1°F8.9°C 33% 8.3 mph N13.4 kmh N 17.4 mph28.0 kmh 29.81 in1009.5 mb 0.00 in0.0 mm 0.00 in0.0 mm 0.00 in0.0 mm
04:59 PM 79.7°F26.5°C 48.1°F8.9°C 33% 9.8 mph N15.8 kmh N 15.2 mph24.5 kmh 29.80 in1009.1 mb 0.00 in0.0 mm 0.00 in0.0 mm 0.00 in0.0 mm
05:00 PM 79.9°F26.6°C 48.2°F9.0°C 33% 8.3 mph N13.4 kmh N 15.2 mph24.5 kmh 29.80 in1009.1 mb 0.00 in0.0 mm 0.00 in0.0 mm 0.00 in0.0 mm
05:01 PM 79.9°F26.6°C 47.4°F8.6°C 32% 9.8 mph N15.8 kmh N 15.2 mph24.5 kmh 29.80 in1009.1 mb 0.00 in0.0 mm 0.00 in0.0 mm 0.00 in0.0 mm
05:02 PM 80.1°F26.7°C 46.7°F8.2°C 31% 7.6 mph N12.2 kmh N 13.6 mph21.9 kmh 29.80 in1009.1 mb 0.00 in0.0 mm 0.00 in0.0 mm 0.00 in0.0 mm
05:03 PM 80.1°F26.7°C 45.0°F7.2°C 29% 6.0 mph N9.7 kmh N 13.6 mph21.9 kmh 29.80 in1009.1 mb 0.00 in0.0 mm 0.00 in0.0 mm 0.00 in0.0 mm
05:04 PM 80.2°F26.8°C 44.2°F6.8°C 28% 5.4 mph N8.7 kmh N 13.6 mph21.9 kmh 29.80 in1009.1 mb 0.00 in0.0 mm 0.00 in0.0 mm 0.00 in0.0 mm
05:05 PM 80.2°F26.8°C 43.3°F6.3°C 27% 8.3 mph N13.4 kmh N 13.6 mph21.9 kmh 29.80 in1009.1 mb 0.00 in0.0 mm 0.00 in0.0 mm 0.00 in0.0 mm
05:06 PM 80.2°F26.8°C 44.2°F6.8°C 28% 6.0 mph N9.7 kmh N 13.0 mph20.9 kmh 29.80 in1009.1 mb 0.00 in0.0 mm 0.00 in0.0 mm 0.00 in0.0 mm
05:07 PM 80.4°F26.9°C 44.4°F6.9°C 28% 6.9 mph N11.1 kmh N 13.6 mph21.9 kmh 29.80 in1009.1 mb 0.00 in0.0 mm 0.00 in0.0 mm 0.00 in0.0 mm
05:08 PM 80.4°F26.9°C 45.3°F7.4°C 29% 8.3 mph N13.4 kmh N 13.6 mph21.9 kmh 29.80 in1009.1 mb 0.00 in0.0 mm 0.00 in0.0 mm 0.00 in0.0 mm
05:09 PM 80.4°F26.9°C 46.2°F7.9°C 30% 7.6 mph N12.2 kmh N 13.6 mph21.9 kmh 29.80 in1009.1 mb 0.00 in0.0 mm 0.00 in0.0 mm 0.00 in0.0 mm
05:10 PM 80.2°F26.8°C 46.0°F7.8°C 30% 9.2 mph N14.8 kmh N 13.6 mph21.9 kmh 29.80 in1009.1 mb 0.00 in0.0 mm 0.00 in0.0 mm 0.00 in0.0 mm
05:11 PM 80.1°F26.7°C 45.9°F7.7°C 30% 6.0 mph NNE9.7 kmh NNE 13.6 mph21.9 kmh 29.80 in1009.1 mb 0.00 in0.0 mm 0.00 in0.0 mm 0.00 in0.0 mm
05:12 PM 79.9°F26.6°C 45.7°F7.6°C 30% 8.3 mph NNE13.4 kmh NNE 13.6 mph21.9 kmh 29.80 in1009.1 mb 0.00 in0.0 mm 0.00 in0.0 mm 0.00 in0.0 mm
05:13 PM 79.9°F26.6°C 44.8°F7.1°C 29% 6.9 mph NNE11.1 kmh NNE 13.6 mph21.9 kmh 29.80 in1009.1 mb 0.00 in0.0 mm 0.00 in0.0 mm 0.00 in0.0 mm
05:14 PM 80.1°F26.7°C 45.0°F7.2°C 29% 8.3 mph N13.4 kmh N 13.6 mph21.9 kmh 29.79 in1008.8 mb 0.00 in0.0 mm 0.00 in0.0 mm 0.00 in0.0 mm
05:15 PM 80.1°F26.7°C 45.0°F7.2°C 29% 5.4 mph NNE8.7 kmh NNE 13.6 mph21.9 kmh 29.79 in1008.8 mb 0.00 in0.0 mm 0.00 in0.0 mm 0.00 in0.0 mm
05:16 PM 80.1°F26.7°C 45.0°F7.2°C 29% 6.0 mph N9.7 kmh N 13.6 mph21.9 kmh 29.80 in1009.1 mb 0.00 in0.0 mm 0.00 in0.0 mm 0.00 in0.0 mm
05:17 PM 80.2°F26.8°C 45.1°F7.3°C 29% 9.2 mph N14.8 kmh N 13.6 mph21.9 kmh 29.80 in1009.1 mb 0.00 in0.0 mm 0.00 in0.0 mm 0.00 in0.0 mm
05:18 PM 80.4°F26.9°C 46.2°F7.9°C 30% 9.8 mph N15.8 kmh N 13.0 mph20.9 kmh 29.79 in1008.8 mb 0.00 in0.0 mm 0.00 in0.0 mm 0.00 in0.0 mm
05:19 PM 80.4°F26.9°C 46.2°F7.9°C 30% 7.6 mph NNE12.2 kmh NNE 13.0 mph20.9 kmh 29.79 in1008.8 mb 0.00 in0.0 mm 0.00 in0.0 mm 0.00 in0.0 mm
05:20 PM 80.2°F26.8°C 46.0°F7.8°C 30% 6.0 mph NNE9.7 kmh NNE 13.0 mph20.9 kmh 29.80 in1009.1 mb 0.00 in0.0 mm 0.00 in0.0 mm 0.00 in0.0 mm
05:21 PM 80.2°F26.8°C 46.0°F7.8°C 30% 6.9 mph NNE11.1 kmh NNE 13.0 mph20.9 kmh 29.80 in1009.1 mb 0.00 in0.0 mm 0.00 in0.0 mm 0.00 in0.0 mm
05:22 PM 80.2°F26.8°C 46.0°F7.8°C 30% 10.7 mph NNE17.2 kmh NNE 16.8 mph27.0 kmh 29.80 in1009.1 mb 0.00 in0.0 mm 0.00 in0.0 mm 0.00 in0.0 mm
05:23 PM 80.4°F26.9°C 46.2°F7.9°C 30% 9.2 mph NNE14.8 kmh NNE 16.8 mph27.0 kmh 29.80 in1009.1 mb 0.00 in0.0 mm 0.00 in0.0 mm 0.00 in0.0 mm
05:24 PM 80.2°F26.8°C 46.0°F7.8°C 30% 7.6 mph NNE12.2 kmh NNE 16.8 mph27.0 kmh 29.80 in1009.1 mb 0.00 in0.0 mm 0.00 in0.0 mm 0.00 in0.0 mm
05:25 PM 80.2°F26.8°C 46.9°F8.3°C 31% 8.3 mph NNE13.4 kmh NNE 16.8 mph27.0 kmh 29.79 in1008.8 mb 0.00 in0.0 mm 0.00 in0.0 mm 0.00 in0.0 mm
05:26 PM 80.1°F26.7°C 46.7°F8.2°C 31% 6.9 mph NNE11.1 kmh NNE 16.8 mph27.0 kmh 29.80 in1009.1 mb 0.00 in0.0 mm 0.00 in0.0 mm 0.00 in0.0 mm
05:27 PM 80.1°F26.7°C 47.6°F8.7°C 32% 7.6 mph NNE12.2 kmh NNE 16.8 mph27.0 kmh 29.79 in1008.8 mb 0.00 in0.0 mm 0.00 in0.0 mm 0.00 in0.0 mm
05:28 PM 80.2°F26.8°C 47.7°F8.7°C 32% 9.8 mph N15.8 kmh N 16.8 mph27.0 kmh 29.80 in1009.1 mb 0.00 in0.0 mm 0.00 in0.0 mm 0.00 in0.0 mm
05:29 PM 80.2°F26.8°C 47.7°F8.7°C 32% 9.8 mph N15.8 kmh N 16.8 mph27.0 kmh 29.80 in1009.1 mb 0.00 in0.0 mm 0.00 in0.0 mm 0.00 in0.0 mm
05:30 PM 80.1°F26.7°C 47.6°F8.7°C 32% 11.4 mph N18.3 kmh N 17.4 mph28.0 kmh 29.80 in1009.1 mb 0.00 in0.0 mm 0.00 in0.0 mm 0.00 in0.0 mm
05:31 PM 79.9°F26.6°C 47.4°F8.6°C 32% 9.2 mph N14.8 kmh N 17.4 mph28.0 kmh 29.80 in1009.1 mb 0.00 in0.0 mm 0.00 in0.0 mm 0.00 in0.0 mm
05:32 PM 79.7°F26.5°C 47.3°F8.5°C 32% 5.4 mph N8.7 kmh N 17.4 mph28.0 kmh 29.80 in1009.1 mb 0.00 in0.0 mm 0.00 in0.0 mm 0.00 in0.0 mm
05:33 PM 79.7°F26.5°C 47.3°F8.5°C 32% 8.3 mph N13.4 kmh N 17.4 mph28.0 kmh 29.80 in1009.1 mb 0.00 in0.0 mm 0.00 in0.0 mm 0.00 in0.0 mm
05:34 PM 79.5°F26.4°C 47.1°F8.4°C 32% 6.9 mph N11.1 kmh N 17.4 mph28.0 kmh 29.80 in1009.1 mb 0.00 in0.0 mm 0.00 in0.0 mm 0.00 in0.0 mm
05:35 PM 79.5°F26.4°C 47.9°F8.8°C 33% 6.0 mph N9.7 kmh N 17.4 mph28.0 kmh 29.80 in1009.1 mb 0.00 in0.0 mm 0.00 in0.0 mm 0.00 in0.0 mm
05:36 PM 79.5°F26.4°C 47.9°F8.8°C 33% 8.3 mph N13.4 kmh N 17.4 mph28.0 kmh 29.80 in1009.1 mb 0.00 in0.0 mm 0.00 in0.0 mm 0.00 in0.0 mm
05:37 PM 79.7°F26.5°C 48.1°F8.9°C 33% 7.6 mph N12.2 kmh N 17.4 mph28.0 kmh 29.80 in1009.1 mb 0.00 in0.0 mm 0.00 in0.0 mm 0.00 in0.0 mm
05:38 PM 79.7°F26.5°C 48.1°F8.9°C 33% 6.0 mph N9.7 kmh N 17.4 mph28.0 kmh 29.79 in1008.8 mb 0.00 in0.0 mm 0.00 in0.0 mm 0.00 in0.0 mm
05:39 PM 79.7°F26.5°C 48.1°F8.9°C 33% 5.4 mph N8.7 kmh N 17.4 mph28.0 kmh 29.79 in1008.8 mb 0.00 in0.0 mm 0.00 in0.0 mm 0.00 in0.0 mm
05:40 PM 79.7°F26.5°C 48.1°F8.9°C 33% 7.6 mph N12.2 kmh N 17.4 mph28.0 kmh 29.79 in1008.8 mb 0.00 in0.0 mm 0.00 in0.0 mm 0.00 in0.0 mm
05:41 PM 79.9°F26.6°C 48.2°F9.0°C 33% 9.8 mph N15.8 kmh N 14.5 mph23.3 kmh 29.80 in1009.1 mb 0.00 in0.0 mm 0.00 in0.0 mm 0.00 in0.0 mm
05:42 PM 79.9°F26.6°C 48.2°F9.0°C 33% 9.2 mph N14.8 kmh N 14.5 mph23.3 kmh 29.79 in1008.8 mb 0.00 in0.0 mm 0.00 in0.0 mm 0.00 in0.0 mm
05:43 PM 79.9°F26.6°C 48.2°F9.0°C 33% 9.2 mph N14.8 kmh N 14.5 mph23.3 kmh 29.80 in1009.1 mb 0.00 in0.0 mm 0.00 in0.0 mm 0.00 in0.0 mm
05:44 PM 79.7°F26.5°C 48.1°F8.9°C 33% 7.6 mph N12.2 kmh N 14.5 mph23.3 kmh 29.80 in1009.1 mb 0.00 in0.0 mm 0.00 in0.0 mm 0.00 in0.0 mm
05:45 PM 79.7°F26.5°C 48.1°F8.9°C 33% 9.8 mph N15.8 kmh N 15.2 mph24.5 kmh 29.79 in1008.8 mb 0.00 in0.0 mm 0.00 in0.0 mm 0.00 in0.0 mm
05:46 PM 79.5°F26.4°C 47.9°F8.8°C 33% 9.2 mph N14.8 kmh N 15.2 mph24.5 kmh 29.79 in1008.8 mb 0.00 in0.0 mm 0.00 in0.0 mm 0.00 in0.0 mm
05:47 PM 79.5°F26.4°C 47.9°F8.8°C 33% 8.3 mph N13.4 kmh N 15.2 mph24.5 kmh 29.79 in1008.8 mb 0.00 in0.0 mm 0.00 in0.0 mm 0.00 in0.0 mm
05:48 PM 79.5°F26.4°C 47.9°F8.8°C 33% 6.9 mph N11.1 kmh N 15.2 mph24.5 kmh 29.80 in1009.1 mb 0.00 in0.0 mm 0.00 in0.0 mm 0.00 in0.0 mm
05:49 PM 79.5°F26.4°C 47.9°F8.8°C 33% 10.7 mph N17.2 kmh N 15.2 mph24.5 kmh 29.80 in1009.1 mb 0.00 in0.0 mm 0.00 in0.0 mm 0.00 in0.0 mm
05:50 PM 79.5°F26.4°C 47.9°F8.8°C 33% 8.3 mph N13.4 kmh N 15.2 mph24.5 kmh 29.79 in1008.8 mb 0.00 in0.0 mm 0.00 in0.0 mm 0.00 in0.0 mm
05:51 PM 79.3°F26.3°C 47.8°F8.8°C 33% 10.7 mph NNE17.2 kmh NNE 15.2 mph24.5 kmh 29.79 in1008.8 mb 0.00 in0.0 mm 0.00 in0.0 mm 0.00 in0.0 mm
05:52 PM 79.3°F26.3°C 47.8°F8.8°C 33% 9.8 mph N15.8 kmh N 15.2 mph24.5 kmh 29.79 in1008.8 mb 0.00 in0.0 mm 0.00 in0.0 mm 0.00 in0.0 mm
05:53 PM 79.2°F26.2°C 47.6°F8.7°C 33% 9.2 mph N14.8 kmh N 15.2 mph24.5 kmh 29.79 in1008.8 mb 0.00 in0.0 mm 0.00 in0.0 mm 0.00 in0.0 mm
05:54 PM 79.2°F26.2°C 47.6°F8.7°C 33% 10.7 mph N17.2 kmh N 15.9 mph25.6 kmh 29.80 in1009.1 mb 0.00 in0.0 mm 0.00 in0.0 mm 0.00 in0.0 mm
05:55 PM 79.2°F26.2°C 47.6°F8.7°C 33% 10.7 mph NNE17.2 kmh NNE 15.9 mph25.6 kmh 29.79 in1008.8 mb 0.00 in0.0 mm 0.00 in0.0 mm 0.00 in0.0 mm
05:56 PM 79.0°F26.1°C 48.3°F9.1°C 34% 8.3 mph NNE13.4 kmh NNE 15.9 mph25.6 kmh 29.80 in1009.1 mb 0.00 in0.0 mm 0.00 in0.0 mm 0.00 in0.0 mm
05:57 PM 78.8°F26.0°C 48.1°F8.9°C 34% 12.1 mph NNE19.5 kmh NNE 16.8 mph27.0 kmh 29.80 in1009.1 mb 0.00 in0.0 mm 0.00 in0.0 mm 0.00 in0.0 mm
05:58 PM 78.8°F26.0°C 48.1°F8.9°C 34% 6.9 mph NNE11.1 kmh NNE 16.8 mph27.0 kmh 29.79 in1008.8 mb 0.00 in0.0 mm 0.00 in0.0 mm 0.00 in0.0 mm
05:59 PM 78.8°F26.0°C 48.1°F8.9°C 34% 10.7 mph NNE17.2 kmh NNE 16.8 mph27.0 kmh 29.80 in1009.1 mb 0.00 in0.0 mm 0.00 in0.0 mm 0.00 in0.0 mm
06:00 PM 78.8°F26.0°C 48.1°F8.9°C 34% 13.6 mph N21.9 kmh N 17.4 mph28.0 kmh 29.80 in1009.1 mb 0.00 in0.0 mm 0.00 in0.0 mm 0.00 in0.0 mm
06:01 PM 78.8°F26.0°C 48.1°F8.9°C 34% 9.2 mph N14.8 kmh N 17.4 mph28.0 kmh 29.79 in1008.8 mb 0.00 in0.0 mm 0.00 in0.0 mm 0.00 in0.0 mm
06:02 PM 78.8°F26.0°C 48.1°F8.9°C 34% 6.0 mph N9.7 kmh N 17.4 mph28.0 kmh 29.80 in1009.1 mb 0.00 in0.0 mm 0.00 in0.0 mm 0.00 in0.0 mm
06:03 PM 78.8°F26.0°C 48.1°F8.9°C 34% 8.3 mph N13.4 kmh N 17.4 mph28.0 kmh 29.79 in1008.8 mb 0.00 in0.0 mm 0.00 in0.0 mm 0.00 in0.0 mm
06:04 PM 79.0°F26.1°C 48.3°F9.1°C 34% 9.2 mph N14.8 kmh N 17.4 mph28.0 kmh 29.80 in1009.1 mb 0.00 in0.0 mm 0.00 in0.0 mm 0.00 in0.0 mm
06:05 PM 79.0°F26.1°C 48.3°F9.1°C 34% 10.7 mph N17.2 kmh N 17.4 mph28.0 kmh 29.79 in1008.8 mb 0.00 in0.0 mm 0.00 in0.0 mm 0.00 in0.0 mm
06:06 PM 79.0°F26.1°C 48.3°F9.1°C 34% 12.1 mph N19.5 kmh N 17.4 mph28.0 kmh 29.80 in1009.1 mb 0.00 in0.0 mm 0.00 in0.0 mm 0.00 in0.0 mm
06:07 PM 78.8°F26.0°C 48.1°F8.9°C 34% 7.6 mph N12.2 kmh N 17.4 mph28.0 kmh 29.80 in1009.1 mb 0.00 in0.0 mm 0.00 in0.0 mm 0.00 in0.0 mm
06:08 PM 78.8°F26.0°C 48.1°F8.9°C 34% 9.2 mph N14.8 kmh N 17.4 mph28.0 kmh 29.79 in1008.8 mb 0.00 in0.0 mm 0.00 in0.0 mm 0.00 in0.0 mm
06:09 PM 78.8°F26.0°C 48.1°F8.9°C 34% 9.8 mph N15.8 kmh N 17.4 mph28.0 kmh 29.79 in1008.8 mb 0.00 in0.0 mm 0.00 in0.0 mm 0.00 in0.0 mm
06:10 PM 78.8°F26.0°C 48.1°F8.9°C 34% 9.2 mph N14.8 kmh N 17.4 mph28.0 kmh 29.80 in1009.1 mb 0.00 in0.0 mm 0.00 in0.0 mm 0.00 in0.0 mm
06:11 PM 78.8°F26.0°C 48.9°F9.4°C 35% 9.8 mph N15.8 kmh N 16.8 mph27.0 kmh 29.80 in1009.1 mb 0.00 in0.0 mm 0.00 in0.0 mm 0.00 in0.0 mm
06:12 PM 78.8°F26.0°C 48.9°F9.4°C 35% 8.3 mph N13.4 kmh N 16.8 mph27.0 kmh 29.80 in1009.1 mb 0.00 in0.0 mm 0.00 in0.0 mm 0.00 in0.0 mm
06:13 PM 78.8°F26.0°C 48.9°F9.4°C 35% 7.6 mph N12.2 kmh N 16.8 mph27.0 kmh 29.80 in1009.1 mb 0.00 in0.0 mm 0.00 in0.0 mm 0.00 in0.0 mm
06:14 PM 78.8°F26.0°C 48.9°F9.4°C 35% 10.7 mph N17.2 kmh N 16.8 mph27.0 kmh 29.80 in1009.1 mb 0.00 in0.0 mm 0.00 in0.0 mm 0.00 in0.0 mm
06:15 PM 78.8°F26.0°C 48.9°F9.4°C 35% 10.7 mph N17.2 kmh N 16.8 mph27.0 kmh 29.80 in1009.1 mb 0.00 in0.0 mm 0.00 in0.0 mm 0.00 in0.0 mm
06:16 PM 78.8°F26.0°C 48.9°F9.4°C 35% 10.7 mph N17.2 kmh N 16.8 mph27.0 kmh 29.80 in1009.1 mb 0.00 in0.0 mm 0.00 in0.0 mm 0.00 in0.0 mm
06:17 PM 78.6°F25.9°C 49.5°F9.7°C 36% 9.8 mph N15.8 kmh N 16.8 mph27.0 kmh 29.80 in1009.1 mb 0.00 in0.0 mm 0.00 in0.0 mm 0.00 in0.0 mm
06:18 PM 78.6°F25.9°C 49.5°F9.7°C 36% 8.3 mph N13.4 kmh N 16.8 mph27.0 kmh 29.79 in1008.8 mb 0.00 in0.0 mm 0.00 in0.0 mm 0.00 in0.0 mm
06:19 PM 78.6°F25.9°C 49.5°F9.7°C 36% 6.9 mph N11.1 kmh N 15.2 mph24.5 kmh 29.79 in1008.8 mb 0.00 in0.0 mm 0.00 in0.0 mm 0.00 in0.0 mm
06:20 PM 78.6°F25.9°C 49.5°F9.7°C 36% 9.8 mph NNW15.8 kmh NNW 15.2 mph24.5 kmh 29.80 in1009.1 mb 0.00 in0.0 mm 0.00 in0.0 mm 0.00 in0.0 mm
06:21 PM 78.6°F25.9°C 49.5°F9.7°C 36% 7.6 mph NNW12.2 kmh NNW 15.2 mph24.5 kmh 29.79 in1008.8 mb 0.00 in0.0 mm 0.00 in0.0 mm 0.00 in0.0 mm
06:22 PM 78.6°F25.9°C 49.5°F9.7°C 36% 6.9 mph NNW11.1 kmh NNW 15.2 mph24.5 kmh 29.79 in1008.8 mb 0.00 in0.0 mm 0.00 in0.0 mm 0.00 in0.0 mm
06:23 PM 78.6°F25.9°C 49.5°F9.7°C 36% 6.0 mph NNW9.7 kmh NNW 15.2 mph24.5 kmh 29.80 in1009.1 mb 0.00 in0.0 mm 0.00 in0.0 mm 0.00 in0.0 mm
06:24 PM 78.8°F26.0°C 49.6°F9.8°C 36% 9.8 mph NNW15.8 kmh NNW 15.2 mph24.5 kmh 29.80 in1009.1 mb 0.00 in0.0 mm 0.00 in0.0 mm 0.00 in0.0 mm
06:25 PM 78.8°F26.0°C 49.6°F9.8°C 36% 9.8 mph N15.8 kmh N 13.6 mph21.9 kmh 29.79 in1008.8 mb 0.00 in0.0 mm 0.00 in0.0 mm 0.00 in0.0 mm
06:26 PM 78.6°F25.9°C 49.5°F9.7°C 36% 10.7 mph N17.2 kmh N 14.5 mph23.3 kmh 29.79 in1008.8 mb 0.00 in0.0 mm 0.00 in0.0 mm 0.00 in0.0 mm
06:27 PM 78.6°F25.9°C 49.5°F9.7°C 36% 9.2 mph N14.8 kmh N 14.5 mph23.3 kmh 29.80 in1009.1 mb 0.00 in0.0 mm 0.00 in0.0 mm 0.00 in0.0 mm
06:28 PM 78.6°F25.9°C 49.5°F9.7°C 36% 9.8 mph N15.8 kmh N 14.5 mph23.3 kmh 29.80 in1009.1 mb 0.00 in0.0 mm 0.00 in0.0 mm 0.00 in0.0 mm
06:29 PM 78.6°F25.9°C 49.5°F9.7°C 36% 8.3 mph N13.4 kmh N 14.5 mph23.3 kmh 29.80 in1009.1 mb 0.00 in0.0 mm 0.00 in0.0 mm 0.00 in0.0 mm
06:30 PM 78.6°F25.9°C 49.5°F9.7°C 36% 6.9 mph N11.1 kmh N 14.5 mph23.3 kmh 29.79 in1008.8 mb 0.00 in0.0 mm 0.00 in0.0 mm 0.00 in0.0 mm
06:31 PM 78.6°F25.9°C 49.5°F9.7°C 36% 7.6 mph N12.2 kmh N 14.5 mph23.3 kmh 29.79 in1008.8 mb 0.00 in0.0 mm 0.00 in0.0 mm 0.00 in0.0 mm
06:32 PM 78.6°F25.9°C 49.5°F9.7°C 36% 9.2 mph N14.8 kmh N 14.5 mph23.3 kmh 29.79 in1008.8 mb 0.00 in0.0 mm 0.00 in0.0 mm 0.00 in0.0 mm
06:33 PM 78.6°F25.9°C 49.5°F9.7°C 36% 5.4 mph N8.7 kmh N 14.5 mph23.3 kmh 29.79 in1008.8 mb 0.00 in0.0 mm 0.00 in0.0 mm 0.00 in0.0 mm
06:34 PM 78.6°F25.9°C 50.2°F10.1°C 37% 9.8 mph N15.8 kmh N 15.2 mph24.5 kmh 29.79 in1008.8 mb 0.00 in0.0 mm 0.00 in0.0 mm 0.00 in0.0 mm
06:35 PM 78.6°F25.9°C 50.2°F10.1°C 37% 5.4 mph N8.7 kmh N 15.2 mph24.5 kmh 29.80 in1009.1 mb 0.00 in0.0 mm 0.00 in0.0 mm 0.00 in0.0 mm
06:36 PM 78.8°F26.0°C 49.6°F9.8°C 36% 6.9 mph NNW11.1 kmh NNW 15.2 mph24.5 kmh 29.79 in1008.8 mb 0.00 in0.0 mm 0.00 in0.0 mm 0.00 in0.0 mm
06:37 PM 78.8°F26.0°C 49.6°F9.8°C 36% 8.3 mph NNW13.4 kmh NNW 15.2 mph24.5 kmh 29.79 in1008.8 mb 0.00 in0.0 mm 0.00 in0.0 mm 0.00 in0.0 mm
06:38 PM 78.8°F26.0°C 49.6°F9.8°C 36% 7.6 mph NNW12.2 kmh NNW 15.2 mph24.5 kmh 29.79 in1008.8 mb 0.00 in0.0 mm 0.00 in0.0 mm 0.00 in0.0 mm
06:39 PM 78.8°F26.0°C 49.6°F9.8°C 36% 6.9 mph NNW11.1 kmh NNW 15.2 mph24.5 kmh 29.80 in1009.1 mb 0.00 in0.0 mm 0.00 in0.0 mm 0.00 in0.0 mm
06:40 PM 78.8°F26.0°C 49.6°F9.8°C 36% 7.6 mph N12.2 kmh N 15.2 mph24.5 kmh 29.79 in1008.8 mb 0.00 in0.0 mm 0.00 in0.0 mm 0.00 in0.0 mm
06:41 PM 78.8°F26.0°C 49.6°F9.8°C 36% 7.6 mph N12.2 kmh N 15.2 mph24.5 kmh 29.79 in1008.8 mb 0.00 in0.0 mm 0.00 in0.0 mm 0.00 in0.0 mm
06:42 PM 78.6°F25.9°C 50.2°F10.1°C 37% 5.4 mph N8.7 kmh N 15.2 mph24.5 kmh 29.79 in1008.8 mb 0.00 in0.0 mm 0.00 in0.0 mm 0.00 in0.0 mm
06:43 PM 78.6°F25.9°C 50.2°F10.1°C 37% 6.0 mph N9.7 kmh N 15.2 mph24.5 kmh 29.79 in1008.8 mb 0.00 in0.0 mm 0.00 in0.0 mm 0.00 in0.0 mm
06:44 PM 78.6°F25.9°C 50.2°F10.1°C 37% 5.4 mph N8.7 kmh N 15.2 mph24.5 kmh 29.79 in1008.8 mb 0.00 in0.0 mm 0.00 in0.0 mm 0.00 in0.0 mm
06:45 PM 78.6°F25.9°C 50.2°F10.1°C 37% 7.6 mph N12.2 kmh N 14.5 mph23.3 kmh 29.79 in1008.8 mb 0.00 in0.0 mm 0.00 in0.0 mm 0.00 in0.0 mm
06:46 PM 78.6°F25.9°C 50.2°F10.1°C 37% 8.3 mph N13.4 kmh N 14.5 mph23.3 kmh 29.79 in1008.8 mb 0.00 in0.0 mm 0.00 in0.0 mm 0.00 in0.0 mm
06:47 PM 78.6°F25.9°C 50.2°F10.1°C 37% 7.6 mph N12.2 kmh N 14.5 mph23.3 kmh 29.79 in1008.8 mb 0.00 in0.0 mm 0.00 in0.0 mm 0.00 in0.0 mm
06:48 PM 78.6°F25.9°C 50.2°F10.1°C 37% 7.6 mph N12.2 kmh N 14.5 mph23.3 kmh 29.79 in1008.8 mb 0.00 in0.0 mm 0.00 in0.0 mm 0.00 in0.0 mm
06:49 PM 78.4°F25.8°C 50.0°F10.0°C 37% 5.4 mph N8.7 kmh N 13.0 mph20.9 kmh 29.79 in1008.8 mb 0.00 in0.0 mm 0.00 in0.0 mm 0.00 in0.0 mm
06:50 PM 78.4°F25.8°C 50.0°F10.0°C 37% 9.2 mph N14.8 kmh N 12.1 mph19.5 kmh 29.80 in1009.1 mb 0.00 in0.0 mm 0.00 in0.0 mm 0.00 in0.0 mm
06:51 PM 78.4°F25.8°C 50.0°F10.0°C 37% 4.5 mph N7.2 kmh N 12.1 mph19.5 kmh 29.79 in1008.8 mb 0.00 in0.0 mm 0.00 in0.0 mm 0.00 in0.0 mm
06:52 PM 78.4°F25.8°C 50.0°F10.0°C 37% 9.2 mph N14.8 kmh N 12.1 mph19.5 kmh 29.79 in1008.8 mb 0.00 in0.0 mm 0.00 in0.0 mm 0.00 in0.0 mm
06:53 PM 78.4°F25.8°C 50.0°F10.0°C 37% 9.8 mph N15.8 kmh N 14.5 mph23.3 kmh 29.78 in1008.5 mb 0.00 in0.0 mm 0.00 in0.0 mm 0.00 in0.0 mm
06:54 PM 78.4°F25.8°C 50.0°F10.0°C 37% 5.4 mph N8.7 kmh N 14.5 mph23.3 kmh 29.79 in1008.8 mb 0.00 in0.0 mm 0.00 in0.0 mm 0.00 in0.0 mm
06:55 PM 78.4°F25.8°C 50.8°F10.4°C 38% 5.4 mph N8.7 kmh N 14.5 mph23.3 kmh 29.78 in1008.5 mb 0.00 in0.0 mm 0.00 in0.0 mm 0.00 in0.0 mm
06:56 PM 78.4°F25.8°C 50.8°F10.4°C 38% 6.0 mph N9.7 kmh N 14.5 mph23.3 kmh 29.79 in1008.8 mb 0.00 in0.0 mm 0.00 in0.0 mm 0.00 in0.0 mm
06:57 PM 78.3°F25.7°C 50.6°F10.3°C 38% 5.4 mph N8.7 kmh N 14.5 mph23.3 kmh 29.80 in1009.1 mb 0.00 in0.0 mm 0.00 in0.0 mm 0.00 in0.0 mm
06:58 PM 78.3°F25.7°C 50.6°F10.3°C 38% 9.8 mph N15.8 kmh N 14.5 mph23.3 kmh 29.79 in1008.8 mb 0.00 in0.0 mm 0.00 in0.0 mm 0.00 in0.0 mm
06:59 PM 78.3°F25.7°C 50.6°F10.3°C 38% 8.3 mph N13.4 kmh N 14.5 mph23.3 kmh 29.79 in1008.8 mb 0.00 in0.0 mm 0.00 in0.0 mm 0.00 in0.0 mm
07:00 PM 78.3°F25.7°C 50.6°F10.3°C 38% 7.6 mph N12.2 kmh N 14.5 mph23.3 kmh 29.79 in1008.8 mb 0.00 in0.0 mm 0.00 in0.0 mm 0.00 in0.0 mm
07:01 PM 78.1°F25.6°C 50.4°F10.2°C 38% 6.0 mph N9.7 kmh N 14.5 mph23.3 kmh 29.79 in1008.8 mb 0.00 in0.0 mm 0.00 in0.0 mm 0.00 in0.0 mm
07:02 PM 78.1°F25.6°C 50.4°F10.2°C 38% 6.9 mph N11.1 kmh N 14.5 mph23.3 kmh 29.78 in1008.5 mb 0.00 in0.0 mm 0.00 in0.0 mm 0.00 in0.0 mm
07:03 PM 78.1°F25.6°C 50.4°F10.2°C 38% 3.8 mph N6.1 kmh N 13.6 mph21.9 kmh 29.79 in1008.8 mb 0.00 in0.0 mm 0.00 in0.0 mm 0.00 in0.0 mm
07:04 PM 78.1°F25.6°C 50.4°F10.2°C 38% 6.9 mph N11.1 kmh N 13.6 mph21.9 kmh 29.79 in1008.8 mb 0.00 in0.0 mm 0.00 in0.0 mm 0.00 in0.0 mm
07:05 PM 78.1°F25.6°C 51.1°F10.6°C 39% 10.7 mph N17.2 kmh N 13.6 mph21.9 kmh 29.80 in1009.1 mb 0.00 in0.0 mm 0.00 in0.0 mm 0.00 in0.0 mm
07:06 PM 78.1°F25.6°C 51.1°F10.6°C 39% 6.0 mph N9.7 kmh N 13.6 mph21.9 kmh 29.79 in1008.8 mb 0.00 in0.0 mm 0.00 in0.0 mm 0.00 in0.0 mm
07:07 PM 77.9°F25.5°C 50.3°F10.2°C 38% 7.6 mph N12.2 kmh N 13.6 mph21.9 kmh 29.79 in1008.8 mb 0.00 in0.0 mm 0.00 in0.0 mm 0.00 in0.0 mm
07:08 PM 77.9°F25.5°C 51.0°F10.6°C 39% 6.0 mph N9.7 kmh N 13.6 mph21.9 kmh 29.78 in1008.5 mb 0.00 in0.0 mm 0.00 in0.0 mm 0.00 in0.0 mm
07:09 PM 77.9°F25.5°C 51.0°F10.6°C 39% 6.0 mph N9.7 kmh N 13.6 mph21.9 kmh 29.79 in1008.8 mb 0.00 in0.0 mm 0.00 in0.0 mm 0.00 in0.0 mm
07:10 PM 77.7°F25.4°C 50.8°F10.4°C 39% 7.6 mph N12.2 kmh N 13.6 mph21.9 kmh 29.79 in1008.8 mb 0.00 in0.0 mm 0.00 in0.0 mm 0.00 in0.0 mm
07:11 PM 77.7°F25.4°C 50.8°F10.4°C 39% 7.6 mph N12.2 kmh N 13.6 mph21.9 kmh 29.79 in1008.8 mb 0.00 in0.0 mm 0.00 in0.0 mm 0.00 in0.0 mm
07:12 PM 77.7°F25.4°C 50.8°F10.4°C 39% 9.2 mph N14.8 kmh N 13.6 mph21.9 kmh 29.79 in1008.8 mb 0.00 in0.0 mm 0.00 in0.0 mm 0.00 in0.0 mm
07:13 PM 77.7°F25.4°C 50.8°F10.4°C 39% 8.3 mph N13.4 kmh N 13.6 mph21.9 kmh 29.79 in1008.8 mb 0.00 in0.0 mm 0.00 in0.0 mm 0.00 in0.0 mm
07:14 PM 77.5°F25.3°C 51.3°F10.7°C 40% 6.9 mph N11.1 kmh N 13.6 mph21.9 kmh 29.79 in1008.8 mb 0.00 in0.0 mm 0.00 in0.0 mm 0.00 in0.0 mm
07:15 PM 77.5°F25.3°C 51.3°F10.7°C 40% 7.6 mph N12.2 kmh N 13.0 mph20.9 kmh 29.80 in1009.1 mb 0.00 in0.0 mm 0.00 in0.0 mm 0.00 in0.0 mm
07:16 PM 77.4°F25.2°C 51.2°F10.7°C 40% 5.4 mph NNW8.7 kmh NNW 13.0 mph20.9 kmh 29.79 in1008.8 mb 0.00 in0.0 mm 0.00 in0.0 mm 0.00 in0.0 mm
07:17 PM 77.4°F25.2°C 51.2°F10.7°C 40% 5.4 mph N8.7 kmh N 13.0 mph20.9 kmh 29.79 in1008.8 mb 0.00 in0.0 mm 0.00 in0.0 mm 0.00 in0.0 mm
07:18 PM 77.4°F25.2°C 51.2°F10.7°C 40% 6.9 mph N11.1 kmh N 13.0 mph20.9 kmh 29.79 in1008.8 mb 0.00 in0.0 mm 0.00 in0.0 mm 0.00 in0.0 mm
07:19 PM 77.4°F25.2°C 51.2°F10.7°C 40% 11.4 mph N18.3 kmh N 15.2 mph24.5 kmh 29.79 in1008.8 mb 0.00 in0.0 mm 0.00 in0.0 mm 0.00 in0.0 mm
07:20 PM 77.4°F25.2°C 51.2°F10.7°C 40% 9.8 mph N15.8 kmh N 15.2 mph24.5 kmh 29.79 in1008.8 mb 0.00 in0.0 mm 0.00 in0.0 mm 0.00 in0.0 mm
07:21 PM 77.2°F25.1°C 50.3°F10.2°C 39% 9.2 mph N14.8 kmh N 15.2 mph24.5 kmh 29.79 in1008.8 mb 0.00 in0.0 mm 0.00 in0.0 mm 0.00 in0.0 mm
07:22 PM 77.0°F25.0°C 50.9°F10.5°C 40% 8.3 mph N13.4 kmh N 15.2 mph24.5 kmh 29.79 in1008.8 mb 0.00 in0.0 mm 0.00 in0.0 mm 0.00 in0.0 mm
07:23 PM 77.0°F25.0°C 50.9°F10.5°C 40% 8.3 mph N13.4 kmh N 15.2 mph24.5 kmh 29.79 in1008.8 mb 0.00 in0.0 mm 0.00 in0.0 mm 0.00 in0.0 mm
07:24 PM 77.0°F25.0°C 50.9°F10.5°C 40% 7.6 mph N12.2 kmh N 15.2 mph24.5 kmh 29.79 in1008.8 mb 0.00 in0.0 mm 0.00 in0.0 mm 0.00 in0.0 mm
07:25 PM 77.0°F25.0°C 50.9°F10.5°C 40% 11.4 mph N18.3 kmh N 15.2 mph24.5 kmh 29.79 in1008.8 mb 0.00 in0.0 mm 0.00 in0.0 mm 0.00 in0.0 mm
07:26 PM 76.8°F24.9°C 52.0°F11.1°C 42% 6.9 mph N11.1 kmh N 15.2 mph24.5 kmh 29.79 in1008.8 mb 0.00 in0.0 mm 0.00 in0.0 mm 0.00 in0.0 mm
07:27 PM 76.8°F24.9°C 52.0°F11.1°C 42% 9.2 mph N14.8 kmh N 15.2 mph24.5 kmh 29.79 in1008.8 mb 0.00 in0.0 mm 0.00 in0.0 mm 0.00 in0.0 mm
07:28 PM 76.6°F24.8°C 51.9°F11.1°C 42% 7.6 mph N12.2 kmh N 15.2 mph24.5 kmh 29.79 in1008.8 mb 0.00 in0.0 mm 0.00 in0.0 mm 0.00 in0.0 mm
07:29 PM 76.6°F24.8°C 51.9°F11.1°C 42% 6.9 mph N11.1 kmh N 15.2 mph24.5 kmh 29.80 in1009.1 mb 0.00 in0.0 mm 0.00 in0.0 mm 0.00 in0.0 mm
07:30 PM 76.5°F24.7°C 51.7°F10.9°C 42% 6.0 mph N9.7 kmh N 14.5 mph23.3 kmh 29.80 in1009.1 mb 0.00 in0.0 mm 0.00 in0.0 mm 0.00 in0.0 mm
07:31 PM 76.3°F24.6°C 51.5°F10.8°C 42% 6.9 mph N11.1 kmh N 14.5 mph23.3 kmh 29.80 in1009.1 mb 0.00 in0.0 mm 0.00 in0.0 mm 0.00 in0.0 mm
07:32 PM 76.3°F24.6°C 51.5°F10.8°C 42% 9.2 mph N14.8 kmh N 15.9 mph25.6 kmh 29.79 in1008.8 mb 0.00 in0.0 mm 0.00 in0.0 mm 0.00 in0.0 mm
07:33 PM 76.1°F24.5°C 52.0°F11.1°C 43% 6.9 mph N11.1 kmh N 15.9 mph25.6 kmh 29.80 in1009.1 mb 0.00 in0.0 mm 0.00 in0.0 mm 0.00 in0.0 mm
07:34 PM 76.1°F24.5°C 52.0°F11.1°C 43% 7.6 mph N12.2 kmh N 15.9 mph25.6 kmh 29.80 in1009.1 mb 0.00 in0.0 mm 0.00 in0.0 mm 0.00 in0.0 mm
07:35 PM 75.9°F24.4°C 51.9°F11.1°C 43% 8.3 mph N13.4 kmh N 15.9 mph25.6 kmh 29.79 in1008.8 mb 0.00 in0.0 mm 0.00 in0.0 mm 0.00 in0.0 mm
07:36 PM 75.9°F24.4°C 51.9°F11.1°C 43% 6.0 mph N9.7 kmh N 15.9 mph25.6 kmh 29.80 in1009.1 mb 0.00 in0.0 mm 0.00 in0.0 mm 0.00 in0.0 mm
07:37 PM 75.9°F24.4°C 51.9°F11.1°C 43% 7.6 mph N12.2 kmh N 15.9 mph25.6 kmh 29.80 in1009.1 mb 0.00 in0.0 mm 0.00 in0.0 mm 0.00 in0.0 mm
07:38 PM 75.7°F24.3°C 51.7°F10.9°C 43% 6.0 mph N9.7 kmh N 15.9 mph25.6 kmh 29.80 in1009.1 mb 0.00 in0.0 mm 0.00 in0.0 mm 0.00 in0.0 mm
07:39 PM 75.7°F24.3°C 52.3°F11.3°C 44% 6.0 mph N9.7 kmh N 15.9 mph25.6 kmh 29.80 in1009.1 mb 0.00 in0.0 mm 0.00 in0.0 mm 0.00 in0.0 mm
07:40 PM 75.6°F24.2°C 52.1°F11.2°C 44% 6.9 mph N11.1 kmh N 15.9 mph25.6 kmh 29.80 in1009.1 mb 0.00 in0.0 mm 0.00 in0.0 mm 0.00 in0.0 mm
07:41 PM 75.6°F24.2°C 52.1°F11.2°C 44% 8.3 mph N13.4 kmh N 15.9 mph25.6 kmh 29.80 in1009.1 mb 0.00 in0.0 mm 0.00 in0.0 mm 0.00 in0.0 mm
07:42 PM 75.6°F24.2°C 52.1°F11.2°C 44% 6.0 mph N9.7 kmh N 11.4 mph18.3 kmh 29.80 in1009.1 mb 0.00 in0.0 mm 0.00 in0.0 mm 0.00 in0.0 mm
07:43 PM 75.6°F24.2°C 52.1°F11.2°C 44% 4.5 mph N7.2 kmh N 11.4 mph18.3 kmh 29.80 in1009.1 mb 0.00 in0.0 mm 0.00 in0.0 mm 0.00 in0.0 mm
07:44 PM 75.4°F24.1°C 52.0°F11.1°C 44% 6.0 mph N9.7 kmh N 11.4 mph18.3 kmh 29.80 in1009.1 mb 0.00 in0.0 mm 0.00 in0.0 mm 0.00 in0.0 mm
07:45 PM 75.4°F24.1°C 52.0°F11.1°C 44% 4.5 mph N7.2 kmh N 11.4 mph18.3 kmh 29.80 in1009.1 mb 0.00 in0.0 mm 0.00 in0.0 mm 0.00 in0.0 mm
07:46 PM 75.4°F24.1°C 52.0°F11.1°C 44% 6.0 mph N9.7 kmh N 10.7 mph17.2 kmh 29.80 in1009.1 mb 0.00 in0.0 mm 0.00 in0.0 mm 0.00 in0.0 mm
07:47 PM 75.2°F24.0°C 51.8°F11.0°C 44% 5.4 mph N8.7 kmh N 10.7 mph17.2 kmh 29.80 in1009.1 mb 0.00 in0.0 mm 0.00 in0.0 mm 0.00 in0.0 mm
07:48 PM 75.2°F24.0°C 51.8°F11.0°C 44% 5.4 mph N8.7 kmh N 10.7 mph17.2 kmh 29.80 in1009.1 mb 0.00 in0.0 mm 0.00 in0.0 mm 0.00 in0.0 mm
07:49 PM 75.2°F24.0°C 51.8°F11.0°C 44% 6.9 mph N11.1 kmh N 10.7 mph17.2 kmh 29.80 in1009.1 mb 0.00 in0.0 mm